PWSweather.com
Personal Weather Stations
Station Observations
KMILAPEE3
Lapeer Michigan, Lapeer, MI 48446

Lapeer MichiganLapeer, MI 48446

Lat: 43.057, Lon: -83.362

Elevation: 897

Station Type: Oregon Scientific WMR-968

Latest ConditionsUpdated 4:46:45 PM EDT Sunday, Jun 26, 2016
Currently Today's Max Today's Min Today's Average
Temperature 86.0°F30.0°C 86.2°F30.1°C 66.6°F19.2°C 75.8°F24.3°C
Dew Point 61.3°F16.3°C 64.0°F17.8°C 36.7°F2.6°C 53.4°F11.9°C
Winds 4.1 mph SW6.6 kmh SW 11.1 mph WSW17.9 kmh WSW - 5.0 mph 8.0 kmh
Wind Gusts 12.0 mph19.3 kmh 22.3 mph35.9 kmh - -
Humidity 44% 55% 31% 46%
Pressure 28.97 in981.0 mb 29.12 in986.1 mb 28.97 in981.0 mb -
Hour Temp Dew Point Humidity Winds Wind Gusts Pressure Precip Precip Rate Daily Precip Total
04:46 PM 86.0°F30.0°C 61.3°F16.3°C 44% 4.1 mph WSW6.6 kmh WSW 12.0 mph19.3 kmh 29.00 in982.1 mb 0.00 in0.0 mm 0.00 in0.0 mm 0.00 in0.0 mm
04:45 PM 86.0°F30.0°C 61.3°F16.3°C 44% 4.3 mph WSW6.9 kmh WSW 12.0 mph19.3 kmh 29.00 in982.1 mb 0.00 in0.0 mm 0.00 in0.0 mm 0.00 in0.0 mm
04:44 PM 86.0°F30.0°C 61.3°F16.3°C 44% 4.6 mph WSW7.4 kmh WSW 14.6 mph23.5 kmh 29.00 in982.1 mb 0.00 in0.0 mm 0.00 in0.0 mm 0.00 in0.0 mm
04:43 PM 86.0°F30.0°C 61.3°F16.3°C 44% 5.0 mph SW8.0 kmh SW 14.6 mph23.5 kmh 29.00 in982.1 mb 0.00 in0.0 mm 0.00 in0.0 mm 0.00 in0.0 mm
04:42 PM 86.0°F30.0°C 61.3°F16.3°C 44% 4.9 mph WSW7.9 kmh WSW 14.6 mph23.5 kmh 29.00 in982.1 mb 0.00 in0.0 mm 0.00 in0.0 mm 0.00 in0.0 mm
04:41 PM 86.2°F30.1°C 61.5°F16.4°C 44% 5.8 mph SSW9.3 kmh SSW 14.6 mph23.5 kmh 29.00 in982.1 mb 0.00 in0.0 mm 0.00 in0.0 mm 0.00 in0.0 mm
04:40 PM 86.0°F30.0°C 61.3°F16.3°C 44% 6.9 mph S11.1 kmh S 14.6 mph23.5 kmh 29.00 in982.1 mb 0.00 in0.0 mm 0.00 in0.0 mm 0.00 in0.0 mm
04:39 PM 86.2°F30.1°C 61.5°F16.4°C 44% 8.2 mph SW13.2 kmh SW 14.6 mph23.5 kmh 29.00 in982.1 mb 0.00 in0.0 mm 0.00 in0.0 mm 0.00 in0.0 mm
04:38 PM 86.2°F30.1°C 61.5°F16.4°C 44% 8.2 mph SW13.2 kmh SW 14.6 mph23.5 kmh 29.00 in982.1 mb 0.00 in0.0 mm 0.00 in0.0 mm 0.00 in0.0 mm
04:37 PM 86.2°F30.1°C 62.3°F16.8°C 45% 6.6 mph WSW10.6 kmh WSW 15.2 mph24.5 kmh 29.00 in982.1 mb 0.00 in0.0 mm 0.00 in0.0 mm 0.00 in0.0 mm
04:36 PM 86.2°F30.1°C 62.3°F16.8°C 45% 6.7 mph SW10.8 kmh SW 15.2 mph24.5 kmh 29.00 in982.1 mb 0.00 in0.0 mm 0.00 in0.0 mm 0.00 in0.0 mm
04:35 PM 86.2°F30.1°C 62.3°F16.8°C 45% 6.9 mph SW11.1 kmh SW 15.2 mph24.5 kmh 29.00 in982.1 mb 0.00 in0.0 mm 0.00 in0.0 mm 0.00 in0.0 mm
04:34 PM 86.2°F30.1°C 62.3°F16.8°C 45% 6.0 mph SW9.7 kmh SW 15.2 mph24.5 kmh 29.00 in982.1 mb 0.00 in0.0 mm 0.00 in0.0 mm 0.00 in0.0 mm
04:33 PM 86.2°F30.1°C 62.3°F16.8°C 45% 5.1 mph SW8.2 kmh SW 15.2 mph24.5 kmh 29.00 in982.1 mb 0.00 in0.0 mm 0.00 in0.0 mm 0.00 in0.0 mm
04:32 PM 86.0°F30.0°C 62.1°F16.7°C 45% 4.8 mph WSW7.7 kmh WSW 15.2 mph24.5 kmh 29.00 in982.1 mb 0.00 in0.0 mm 0.00 in0.0 mm 0.00 in0.0 mm
04:31 PM 86.0°F30.0°C 62.1°F16.7°C 45% 5.7 mph WSW9.2 kmh WSW 15.2 mph24.5 kmh 29.00 in982.1 mb 0.00 in0.0 mm 0.00 in0.0 mm 0.00 in0.0 mm
04:30 PM 86.0°F30.0°C 62.1°F16.7°C 45% 6.2 mph WSW10.0 kmh WSW 15.2 mph24.5 kmh 29.00 in982.1 mb 0.00 in0.0 mm 0.00 in0.0 mm 0.00 in0.0 mm
04:29 PM 85.8°F29.9°C 61.9°F16.6°C 45% 4.8 mph SW7.7 kmh SW 15.2 mph24.5 kmh 29.00 in982.1 mb 0.00 in0.0 mm 0.00 in0.0 mm 0.00 in0.0 mm
04:28 PM 85.8°F29.9°C 61.9°F16.6°C 45% 4.0 mph SW6.4 kmh SW 15.2 mph24.5 kmh 29.00 in982.1 mb 0.00 in0.0 mm 0.00 in0.0 mm 0.00 in0.0 mm
04:27 PM 85.8°F29.9°C 61.9°F16.6°C 45% 4.0 mph SW6.4 kmh SW 15.9 mph25.6 kmh 29.00 in982.1 mb 0.00 in0.0 mm 0.00 in0.0 mm 0.00 in0.0 mm
04:26 PM 85.8°F29.9°C 61.9°F16.6°C 45% 4.0 mph SW6.4 kmh SW 15.9 mph25.6 kmh 29.00 in982.1 mb 0.00 in0.0 mm 0.00 in0.0 mm 0.00 in0.0 mm
04:25 PM 85.8°F29.9°C 61.9°F16.6°C 45% 3.4 mph WSW5.5 kmh WSW 15.9 mph25.6 kmh 29.00 in982.1 mb 0.00 in0.0 mm 0.00 in0.0 mm 0.00 in0.0 mm
04:24 PM 85.8°F29.9°C 61.9°F16.6°C 45% 3.3 mph WSW5.3 kmh WSW 15.9 mph25.6 kmh 29.00 in982.1 mb 0.00 in0.0 mm 0.00 in0.0 mm 0.00 in0.0 mm
04:23 PM 85.8°F29.9°C 62.0°F16.7°C 45% 5.0 mph WSW8.0 kmh WSW 15.9 mph25.6 kmh 29.00 in982.1 mb 0.00 in0.0 mm 0.00 in0.0 mm 0.00 in0.0 mm
04:22 PM 85.8°F29.9°C 61.2°F16.2°C 44% 4.7 mph WSW7.6 kmh WSW 15.9 mph25.6 kmh 29.00 in982.1 mb 0.00 in0.0 mm 0.00 in0.0 mm 0.00 in0.0 mm
04:21 PM 85.8°F29.9°C 61.2°F16.2°C 44% 3.9 mph WSW6.3 kmh WSW 15.9 mph25.6 kmh 29.00 in982.1 mb 0.00 in0.0 mm 0.00 in0.0 mm 0.00 in0.0 mm
04:20 PM 85.8°F29.9°C 61.2°F16.2°C 44% 4.4 mph WSW7.1 kmh WSW 15.9 mph25.6 kmh 29.00 in982.1 mb 0.00 in0.0 mm 0.00 in0.0 mm 0.00 in0.0 mm
04:19 PM 86.0°F30.0°C 61.4°F16.3°C 44% 5.0 mph WSW8.0 kmh WSW 15.9 mph25.6 kmh 29.00 in982.1 mb 0.00 in0.0 mm 0.00 in0.0 mm 0.00 in0.0 mm
04:18 PM 86.0°F30.0°C 61.4°F16.3°C 44% 4.8 mph WSW7.7 kmh WSW 15.9 mph25.6 kmh 29.00 in982.1 mb 0.00 in0.0 mm 0.00 in0.0 mm 0.00 in0.0 mm
04:17 PM 86.0°F30.0°C 61.4°F16.3°C 44% 6.4 mph WSW10.3 kmh WSW 14.6 mph23.5 kmh 29.00 in982.1 mb 0.00 in0.0 mm 0.00 in0.0 mm 0.00 in0.0 mm
04:16 PM 86.0°F30.0°C 61.4°F16.3°C 44% 7.8 mph WSW12.6 kmh WSW 19.1 mph30.7 kmh 29.00 in982.1 mb 0.00 in0.0 mm 0.00 in0.0 mm 0.00 in0.0 mm
04:15 PM 86.0°F30.0°C 61.4°F16.3°C 44% 8.0 mph SW12.9 kmh SW 19.1 mph30.7 kmh 29.00 in982.1 mb 0.00 in0.0 mm 0.00 in0.0 mm 0.00 in0.0 mm
04:14 PM 86.0°F30.0°C 61.4°F16.3°C 44% 6.3 mph SW10.1 kmh SW 19.1 mph30.7 kmh 29.00 in982.1 mb 0.00 in0.0 mm 0.00 in0.0 mm 0.00 in0.0 mm
04:13 PM 86.0°F30.0°C 61.4°F16.3°C 44% 4.6 mph SW7.4 kmh SW 19.1 mph30.7 kmh 29.00 in982.1 mb 0.00 in0.0 mm 0.00 in0.0 mm 0.00 in0.0 mm
04:12 PM 86.0°F30.0°C 62.2°F16.8°C 45% 4.6 mph SW7.4 kmh SW 19.1 mph30.7 kmh 29.00 in982.1 mb 0.00 in0.0 mm 0.00 in0.0 mm 0.00 in0.0 mm
04:11 PM 85.8°F29.9°C 62.0°F16.7°C 45% 7.0 mph SW11.3 kmh SW 19.1 mph30.7 kmh 29.00 in982.1 mb 0.00 in0.0 mm 0.00 in0.0 mm 0.00 in0.0 mm
04:10 PM 85.8°F29.9°C 62.0°F16.7°C 45% 9.0 mph SW14.5 kmh SW 19.1 mph30.7 kmh 29.00 in982.1 mb 0.00 in0.0 mm 0.00 in0.0 mm 0.00 in0.0 mm
04:09 PM 85.8°F29.9°C 62.0°F16.7°C 45% 9.7 mph WSW15.6 kmh WSW 19.1 mph30.7 kmh 29.00 in982.1 mb 0.00 in0.0 mm 0.00 in0.0 mm 0.00 in0.0 mm
04:08 PM 85.8°F29.9°C 62.0°F16.7°C 45% 10.3 mph WSW16.6 kmh WSW 19.1 mph30.7 kmh 29.00 in982.1 mb 0.00 in0.0 mm 0.00 in0.0 mm 0.00 in0.0 mm
04:07 PM 85.8°F29.9°C 62.0°F16.7°C 45% 7.6 mph WSW12.2 kmh WSW 19.1 mph30.7 kmh 29.00 in982.1 mb 0.00 in0.0 mm 0.00 in0.0 mm 0.00 in0.0 mm
04:06 PM 85.8°F29.9°C 62.0°F16.7°C 45% 6.3 mph WSW10.1 kmh WSW 17.8 mph28.6 kmh 29.00 in982.1 mb 0.00 in0.0 mm 0.00 in0.0 mm 0.00 in0.0 mm
04:05 PM 85.8°F29.9°C 62.0°F16.7°C 45% 8.5 mph WSW13.7 kmh WSW 17.8 mph28.6 kmh 29.00 in982.1 mb 0.00 in0.0 mm 0.00 in0.0 mm 0.00 in0.0 mm
04:04 PM 85.8°F29.9°C 62.0°F16.7°C 45% 10.1 mph WSW16.3 kmh WSW 17.8 mph28.6 kmh 29.00 in982.1 mb 0.00 in0.0 mm 0.00 in0.0 mm 0.00 in0.0 mm
04:03 PM 85.8°F29.9°C 62.8°F17.1°C 46% 9.1 mph WSW14.6 kmh WSW 17.8 mph28.6 kmh 29.00 in982.1 mb 0.00 in0.0 mm 0.00 in0.0 mm 0.00 in0.0 mm
04:02 PM 85.8°F29.9°C 62.8°F17.1°C 46% 4.8 mph WSW7.7 kmh WSW 17.8 mph28.6 kmh 29.00 in982.1 mb 0.00 in0.0 mm 0.00 in0.0 mm 0.00 in0.0 mm
04:01 PM 85.8°F29.9°C 62.8°F17.1°C 46% 3.4 mph WSW5.5 kmh WSW 17.3 mph27.8 kmh 29.00 in982.1 mb 0.00 in0.0 mm 0.00 in0.0 mm 0.00 in0.0 mm
04:00 PM 85.6°F29.8°C 62.6°F17.0°C 46% 5.0 mph WSW8.0 kmh WSW 17.3 mph27.8 kmh 29.00 in982.1 mb 0.00 in0.0 mm 0.00 in0.0 mm 0.00 in0.0 mm
03:59 PM 85.6°F29.8°C 61.8°F16.6°C 45% 7.1 mph WSW11.4 kmh WSW 19.1 mph30.7 kmh 29.00 in982.1 mb 0.00 in0.0 mm 0.00 in0.0 mm 0.00 in0.0 mm
03:58 PM 85.6°F29.8°C 62.6°F17.0°C 46% 7.1 mph WSW11.4 kmh WSW 19.1 mph30.7 kmh 29.00 in982.1 mb 0.00 in0.0 mm 0.00 in0.0 mm 0.00 in0.0 mm
03:57 PM 85.6°F29.8°C 62.6°F17.0°C 46% 6.7 mph WSW10.8 kmh WSW 19.1 mph30.7 kmh 29.00 in982.1 mb 0.00 in0.0 mm 0.00 in0.0 mm 0.00 in0.0 mm
03:56 PM 85.6°F29.8°C 61.9°F16.6°C 45% 7.8 mph SW12.6 kmh SW 19.1 mph30.7 kmh 29.00 in982.1 mb 0.00 in0.0 mm 0.00 in0.0 mm 0.00 in0.0 mm
03:55 PM 85.6°F29.8°C 61.9°F16.6°C 45% 8.2 mph WSW13.2 kmh WSW 19.1 mph30.7 kmh 29.00 in982.1 mb 0.00 in0.0 mm 0.00 in0.0 mm 0.00 in0.0 mm
03:54 PM 85.6°F29.8°C 62.6°F17.0°C 46% 8.2 mph WSW13.2 kmh WSW 19.1 mph30.7 kmh 29.00 in982.1 mb 0.00 in0.0 mm 0.00 in0.0 mm 0.00 in0.0 mm
03:53 PM 85.6°F29.8°C 62.6°F17.0°C 46% 8.6 mph WSW13.8 kmh WSW 19.1 mph30.7 kmh 29.00 in982.1 mb 0.00 in0.0 mm 0.00 in0.0 mm 0.00 in0.0 mm
03:52 PM 85.6°F29.8°C 62.6°F17.0°C 46% 10.0 mph WSW16.1 kmh WSW 19.1 mph30.7 kmh 29.00 in982.1 mb 0.00 in0.0 mm 0.00 in0.0 mm 0.00 in0.0 mm
03:51 PM 85.6°F29.8°C 62.6°F17.0°C 46% 7.6 mph WSW12.2 kmh WSW 19.1 mph30.7 kmh 29.00 in982.1 mb 0.00 in0.0 mm 0.00 in0.0 mm 0.00 in0.0 mm
03:50 PM 85.6°F29.8°C 62.6°F17.0°C 46% 5.0 mph WSW8.0 kmh WSW 19.1 mph30.7 kmh 29.00 in982.1 mb 0.00 in0.0 mm 0.00 in0.0 mm 0.00 in0.0 mm
03:49 PM 85.6°F29.8°C 62.6°F17.0°C 46% 7.8 mph SW12.6 kmh SW 19.1 mph30.7 kmh 29.00 in982.1 mb 0.00 in0.0 mm 0.00 in0.0 mm 0.00 in0.0 mm
03:48 PM 85.6°F29.8°C 62.6°F17.0°C 46% 9.5 mph SW15.3 kmh SW 19.1 mph30.7 kmh 29.00 in982.1 mb 0.00 in0.0 mm 0.00 in0.0 mm 0.00 in0.0 mm
03:47 PM 85.8°F29.9°C 62.8°F17.1°C 46% 7.3 mph WSW11.7 kmh WSW 19.1 mph30.7 kmh 29.00 in982.1 mb 0.00 in0.0 mm 0.00 in0.0 mm 0.00 in0.0 mm
03:46 PM 85.8°F29.9°C 62.8°F17.1°C 46% 6.2 mph WSW10.0 kmh WSW 19.1 mph30.7 kmh 29.00 in982.1 mb 0.00 in0.0 mm 0.00 in0.0 mm 0.00 in0.0 mm
03:45 PM 85.8°F29.9°C 62.8°F17.1°C 46% 5.4 mph WSW8.7 kmh WSW 12.6 mph20.3 kmh 29.00 in982.1 mb 0.00 in0.0 mm 0.00 in0.0 mm 0.00 in0.0 mm
03:44 PM 85.8°F29.9°C 62.8°F17.1°C 46% 3.7 mph W6.0 kmh W 12.6 mph20.3 kmh 29.00 in982.1 mb 0.00 in0.0 mm 0.00 in0.0 mm 0.00 in0.0 mm
03:43 PM 85.8°F29.9°C 62.8°F17.1°C 46% 3.0 mph SW4.8 kmh SW 9.1 mph14.6 kmh 29.00 in982.1 mb 0.00 in0.0 mm 0.00 in0.0 mm 0.00 in0.0 mm
03:42 PM 85.8°F29.9°C 62.8°F17.1°C 46% 3.3 mph SW5.3 kmh SW 9.1 mph14.6 kmh 29.00 in982.1 mb 0.00 in0.0 mm 0.00 in0.0 mm 0.00 in0.0 mm
03:41 PM 85.8°F29.9°C 62.8°F17.1°C 46% 3.4 mph SSW5.5 kmh SSW 11.0 mph17.7 kmh 29.00 in982.1 mb 0.00 in0.0 mm 0.00 in0.0 mm 0.00 in0.0 mm
03:40 PM 85.8°F29.9°C 62.8°F17.1°C 46% 3.7 mph SSW6.0 kmh SSW 11.0 mph17.7 kmh 29.00 in982.1 mb 0.00 in0.0 mm 0.00 in0.0 mm 0.00 in0.0 mm
03:39 PM 85.8°F29.9°C 62.8°F17.1°C 46% 4.7 mph SW7.6 kmh SW 11.0 mph17.7 kmh 29.00 in982.1 mb 0.00 in0.0 mm 0.00 in0.0 mm 0.00 in0.0 mm
03:38 PM 85.8°F29.9°C 62.8°F17.1°C 46% 5.0 mph SW8.0 kmh SW 11.0 mph17.7 kmh 29.00 in982.1 mb 0.00 in0.0 mm 0.00 in0.0 mm 0.00 in0.0 mm
03:37 PM 85.8°F29.9°C 62.8°F17.1°C 46% 4.7 mph SW7.6 kmh SW 11.0 mph17.7 kmh 29.00 in982.1 mb 0.00 in0.0 mm 0.00 in0.0 mm 0.00 in0.0 mm
03:36 PM 85.8°F29.9°C 62.8°F17.1°C 46% 4.5 mph SW7.2 kmh SW 11.0 mph17.7 kmh 29.00 in982.1 mb 0.00 in0.0 mm 0.00 in0.0 mm 0.00 in0.0 mm
03:35 PM 85.8°F29.9°C 62.9°F17.2°C 46% 5.0 mph WSW8.0 kmh WSW 11.0 mph17.7 kmh 29.00 in982.1 mb 0.00 in0.0 mm 0.00 in0.0 mm 0.00 in0.0 mm
03:34 PM 85.8°F29.9°C 62.9°F17.2°C 46% 5.4 mph SW8.7 kmh SW 11.0 mph17.7 kmh 29.00 in982.1 mb 0.00 in0.0 mm 0.00 in0.0 mm 0.00 in0.0 mm
03:33 PM 85.8°F29.9°C 62.9°F17.2°C 46% 6.3 mph SSW10.1 kmh SSW 11.0 mph17.7 kmh 29.00 in982.1 mb 0.00 in0.0 mm 0.00 in0.0 mm 0.00 in0.0 mm
03:32 PM 85.8°F29.9°C 62.1°F16.7°C 45% 6.1 mph SSW9.8 kmh SSW 11.0 mph17.7 kmh 29.00 in982.1 mb 0.00 in0.0 mm 0.00 in0.0 mm 0.00 in0.0 mm
03:31 PM 85.8°F29.9°C 62.1°F16.7°C 45% 4.8 mph S7.7 kmh S 11.0 mph17.7 kmh 29.00 in982.1 mb 0.00 in0.0 mm 0.00 in0.0 mm 0.00 in0.0 mm
03:30 PM 85.8°F29.9°C 62.9°F17.2°C 46% 3.9 mph S6.3 kmh S 11.0 mph17.7 kmh 29.00 in982.1 mb 0.00 in0.0 mm 0.00 in0.0 mm 0.00 in0.0 mm
03:29 PM 85.8°F29.9°C 62.9°F17.2°C 46% 3.4 mph S5.5 kmh S 11.0 mph17.7 kmh 29.00 in982.1 mb 0.00 in0.0 mm 0.00 in0.0 mm 0.00 in0.0 mm
03:28 PM 85.8°F29.9°C 62.9°F17.2°C 46% 3.6 mph SSW5.8 kmh SSW 11.0 mph17.7 kmh 29.00 in982.1 mb 0.00 in0.0 mm 0.00 in0.0 mm 0.00 in0.0 mm
03:27 PM 85.8°F29.9°C 62.9°F17.2°C 46% 4.4 mph WSW7.1 kmh WSW 11.0 mph17.7 kmh 29.00 in982.1 mb 0.00 in0.0 mm 0.00 in0.0 mm 0.00 in0.0 mm
03:26 PM 85.8°F29.9°C 62.9°F17.2°C 46% 4.9 mph SW7.9 kmh SW 11.0 mph17.7 kmh 29.00 in982.1 mb 0.00 in0.0 mm 0.00 in0.0 mm 0.00 in0.0 mm
03:25 PM 85.8°F29.9°C 62.9°F17.2°C 46% 4.6 mph SW7.4 kmh SW 12.0 mph19.3 kmh 29.00 in982.1 mb 0.00 in0.0 mm 0.00 in0.0 mm 0.00 in0.0 mm
03:23 PM 85.8°F29.9°C 62.9°F17.2°C 46% 3.7 mph SW6.0 kmh SW 13.9 mph22.4 kmh 29.00 in982.1 mb 0.00 in0.0 mm 0.00 in0.0 mm 0.00 in0.0 mm
03:22 PM 85.6°F29.8°C 62.7°F17.1°C 46% 3.2 mph S5.1 kmh S 13.9 mph22.4 kmh 29.00 in982.1 mb 0.00 in0.0 mm 0.00 in0.0 mm 0.00 in0.0 mm
03:21 PM 85.6°F29.8°C 62.7°F17.1°C 46% 3.6 mph S5.8 kmh S 13.9 mph22.4 kmh 29.00 in982.1 mb 0.00 in0.0 mm 0.00 in0.0 mm 0.00 in0.0 mm
03:20 PM 85.6°F29.8°C 62.7°F17.1°C 46% 4.6 mph SW7.4 kmh SW 13.9 mph22.4 kmh 29.00 in982.1 mb 0.00 in0.0 mm 0.00 in0.0 mm 0.00 in0.0 mm
03:19 PM 85.6°F29.8°C 62.7°F17.1°C 46% 5.5 mph SSW8.9 kmh SSW 13.9 mph22.4 kmh 29.00 in982.1 mb 0.00 in0.0 mm 0.00 in0.0 mm 0.00 in0.0 mm
03:18 PM 85.6°F29.8°C 62.7°F17.1°C 46% 6.2 mph SSW10.0 kmh SSW 15.9 mph25.6 kmh 29.00 in982.1 mb 0.00 in0.0 mm 0.00 in0.0 mm 0.00 in0.0 mm
03:17 PM 85.6°F29.8°C 62.0°F16.7°C 45% 7.4 mph SW11.9 kmh SW 15.9 mph25.6 kmh 29.00 in982.1 mb 0.00 in0.0 mm 0.00 in0.0 mm 0.00 in0.0 mm
03:16 PM 85.8°F29.9°C 62.9°F17.2°C 46% 7.9 mph SW12.7 kmh SW 15.9 mph25.6 kmh 29.00 in982.1 mb 0.00 in0.0 mm 0.00 in0.0 mm 0.00 in0.0 mm
03:15 PM 85.8°F29.9°C 62.9°F17.2°C 46% 7.0 mph WSW11.3 kmh WSW 15.9 mph25.6 kmh 29.00 in982.1 mb 0.00 in0.0 mm 0.00 in0.0 mm 0.00 in0.0 mm
03:14 PM 85.8°F29.9°C 62.9°F17.2°C 46% 6.2 mph W10.0 kmh W 15.9 mph25.6 kmh 29.00 in982.1 mb 0.00 in0.0 mm 0.00 in0.0 mm 0.00 in0.0 mm
03:12 PM 85.6°F29.8°C 62.7°F17.1°C 46% 3.9 mph WSW6.3 kmh WSW 15.9 mph25.6 kmh 29.00 in982.1 mb 0.00 in0.0 mm 0.00 in0.0 mm 0.00 in0.0 mm
03:11 PM 85.6°F29.8°C 62.7°F17.1°C 46% 5.2 mph WSW8.4 kmh WSW 15.9 mph25.6 kmh 29.00 in982.1 mb 0.00 in0.0 mm 0.00 in0.0 mm 0.00 in0.0 mm
03:10 PM 85.6°F29.8°C 62.7°F17.1°C 46% 6.9 mph WSW11.1 kmh WSW 15.9 mph25.6 kmh 29.00 in982.1 mb 0.00 in0.0 mm 0.00 in0.0 mm 0.00 in0.0 mm
03:09 PM 85.6°F29.8°C 62.7°F17.1°C 46% 5.5 mph WSW8.9 kmh WSW 15.9 mph25.6 kmh 29.00 in982.1 mb 0.00 in0.0 mm 0.00 in0.0 mm 0.00 in0.0 mm
03:08 PM 85.6°F29.8°C 62.7°F17.1°C 46% 3.3 mph SSW5.3 kmh SSW 10.4 mph16.7 kmh 29.00 in982.1 mb 0.00 in0.0 mm 0.00 in0.0 mm 0.00 in0.0 mm
03:07 PM 85.5°F29.7°C 62.7°F17.1°C 46% 3.5 mph SSW5.6 kmh SSW 10.4 mph16.7 kmh 29.00 in982.1 mb 0.00 in0.0 mm 0.00 in0.0 mm 0.00 in0.0 mm
03:06 PM 85.5°F29.7°C 62.7°F17.1°C 46% 3.7 mph SSW6.0 kmh SSW 10.4 mph16.7 kmh 29.00 in982.1 mb 0.00 in0.0 mm 0.00 in0.0 mm 0.00 in0.0 mm
03:05 PM 85.5°F29.7°C 62.7°F17.1°C 46% 3.7 mph SW6.0 kmh SW 10.4 mph16.7 kmh 29.00 in982.1 mb 0.00 in0.0 mm 0.00 in0.0 mm 0.00 in0.0 mm
03:04 PM 85.5°F29.7°C 62.7°F17.1°C 46% 4.1 mph SW6.6 kmh SW 11.0 mph17.7 kmh 29.00 in982.1 mb 0.00 in0.0 mm 0.00 in0.0 mm 0.00 in0.0 mm
03:03 PM 85.5°F29.7°C 62.7°F17.1°C 46% 4.3 mph SW6.9 kmh SW 11.0 mph17.7 kmh 29.00 in982.1 mb 0.00 in0.0 mm 0.00 in0.0 mm 0.00 in0.0 mm
03:02 PM 85.6°F29.8°C 62.8°F17.1°C 46% 4.8 mph SW7.7 kmh SW 11.0 mph17.7 kmh 29.00 in982.1 mb 0.00 in0.0 mm 0.00 in0.0 mm 0.00 in0.0 mm
03:01 PM 85.8°F29.9°C 62.9°F17.2°C 46% 4.9 mph WNW7.9 kmh WNW 11.0 mph17.7 kmh 29.00 in982.1 mb 0.00 in0.0 mm 0.00 in0.0 mm 0.00 in0.0 mm
03:00 PM 85.8°F29.9°C 62.9°F17.2°C 46% 4.9 mph WNW7.9 kmh WNW 11.0 mph17.7 kmh 29.00 in982.1 mb 0.00 in0.0 mm 0.00 in0.0 mm 0.00 in0.0 mm
02:59 PM 85.8°F29.9°C 63.0°F17.2°C 46% 4.9 mph W7.9 kmh W 11.0 mph17.7 kmh 29.00 in982.1 mb 0.00 in0.0 mm 0.00 in0.0 mm 0.00 in0.0 mm
02:58 PM 85.8°F29.9°C 63.7°F17.6°C 48% 4.9 mph WSW7.9 kmh WSW 11.0 mph17.7 kmh 29.00 in982.1 mb 0.00 in0.0 mm 0.00 in0.0 mm 0.00 in0.0 mm
02:57 PM 85.8°F29.9°C 63.7°F17.6°C 48% 5.3 mph SSW8.5 kmh SSW 11.0 mph17.7 kmh 29.00 in982.1 mb 0.00 in0.0 mm 0.00 in0.0 mm 0.00 in0.0 mm
02:56 PM 85.6°F29.8°C 63.5°F17.5°C 48% 6.2 mph S10.0 kmh S 11.0 mph17.7 kmh 29.00 in982.1 mb 0.00 in0.0 mm 0.00 in0.0 mm 0.00 in0.0 mm
02:55 PM 85.6°F29.8°C 63.5°F17.5°C 48% 5.8 mph SSW9.3 kmh SSW 11.0 mph17.7 kmh 29.00 in982.1 mb 0.00 in0.0 mm 0.00 in0.0 mm 0.00 in0.0 mm
02:54 PM 85.5°F29.7°C 63.4°F17.4°C 48% 4.4 mph SW7.1 kmh SW 11.0 mph17.7 kmh 29.00 in982.1 mb 0.00 in0.0 mm 0.00 in0.0 mm 0.00 in0.0 mm
02:53 PM 85.5°F29.7°C 63.4°F17.4°C 48% 4.3 mph SW6.9 kmh SW 9.1 mph14.6 kmh 29.00 in982.1 mb 0.00 in0.0 mm 0.00 in0.0 mm 0.00 in0.0 mm
02:52 PM 85.5°F29.7°C 63.4°F17.4°C 48% 5.5 mph SSW8.9 kmh SSW 9.1 mph14.6 kmh 29.00 in982.1 mb 0.00 in0.0 mm 0.00 in0.0 mm 0.00 in0.0 mm
02:51 PM 85.5°F29.7°C 62.7°F17.1°C 46% 5.4 mph S8.7 kmh S 9.1 mph14.6 kmh 29.00 in982.1 mb 0.00 in0.0 mm 0.00 in0.0 mm 0.00 in0.0 mm
02:50 PM 85.3°F29.6°C 62.5°F16.9°C 46% 5.2 mph SW8.4 kmh SW 9.1 mph14.6 kmh 29.00 in982.1 mb 0.00 in0.0 mm 0.00 in0.0 mm 0.00 in0.0 mm
02:49 PM 85.3°F29.6°C 63.3°F17.4°C 48% 4.6 mph WSW7.4 kmh WSW 9.7 mph15.6 kmh 29.00 in982.1 mb 0.00 in0.0 mm 0.00 in0.0 mm 0.00 in0.0 mm
02:48 PM 85.3°F29.6°C 63.3°F17.4°C 48% 4.4 mph WSW7.1 kmh WSW 9.7 mph15.6 kmh 29.00 in982.1 mb 0.00 in0.0 mm 0.00 in0.0 mm 0.00 in0.0 mm
02:47 PM 85.3°F29.6°C 63.3°F17.4°C 48% 5.2 mph SW8.4 kmh SW 10.4 mph16.7 kmh 29.00 in982.1 mb 0.00 in0.0 mm 0.00 in0.0 mm 0.00 in0.0 mm
02:46 PM 85.3°F29.6°C 62.5°F16.9°C 46% 5.6 mph SW9.0 kmh SW 10.4 mph16.7 kmh 29.00 in982.1 mb 0.00 in0.0 mm 0.00 in0.0 mm 0.00 in0.0 mm
02:45 PM 85.3°F29.6°C 62.5°F16.9°C 46% 4.9 mph SW7.9 kmh SW 10.4 mph16.7 kmh 29.00 in982.1 mb 0.00 in0.0 mm 0.00 in0.0 mm 0.00 in0.0 mm
02:44 PM 85.3°F29.6°C 62.5°F16.9°C 47% 5.2 mph SW8.4 kmh SW 10.4 mph16.7 kmh 29.00 in982.1 mb 0.00 in0.0 mm 0.00 in0.0 mm 0.00 in0.0 mm
02:43 PM 85.3°F29.6°C 63.3°F17.4°C 48% 5.3 mph SW8.5 kmh SW 10.4 mph16.7 kmh 29.00 in982.1 mb 0.00 in0.0 mm 0.00 in0.0 mm 0.00 in0.0 mm
02:42 PM 85.3°F29.6°C 63.3°F17.4°C 48% 5.1 mph SW8.2 kmh SW 10.4 mph16.7 kmh 29.00 in982.1 mb 0.00 in0.0 mm 0.00 in0.0 mm 0.00 in0.0 mm
02:41 PM 85.3°F29.6°C 63.3°F17.4°C 48% 4.5 mph SW7.2 kmh SW 11.7 mph18.8 kmh 29.00 in982.1 mb 0.00 in0.0 mm 0.00 in0.0 mm 0.00 in0.0 mm
02:40 PM 85.1°F29.5°C 63.1°F17.3°C 48% 4.4 mph SSW7.1 kmh SSW 11.7 mph18.8 kmh 29.00 in982.1 mb 0.00 in0.0 mm 0.00 in0.0 mm 0.00 in0.0 mm
02:39 PM 85.1°F29.5°C 63.1°F17.3°C 48% 4.3 mph SSW6.9 kmh SSW 11.7 mph18.8 kmh 29.00 in982.1 mb 0.00 in0.0 mm 0.00 in0.0 mm 0.00 in0.0 mm
02:38 PM 85.1°F29.5°C 63.1°F17.3°C 48% 4.1 mph SW6.6 kmh SW 11.7 mph18.8 kmh 29.00 in982.1 mb 0.00 in0.0 mm 0.00 in0.0 mm 0.00 in0.0 mm
02:37 PM 85.1°F29.5°C 63.1°F17.3°C 48% 4.4 mph SW7.1 kmh SW 11.7 mph18.8 kmh 29.00 in982.1 mb 0.00 in0.0 mm 0.00 in0.0 mm 0.00 in0.0 mm
02:36 PM 85.1°F29.5°C 63.1°F17.3°C 48% 4.6 mph SW7.4 kmh SW 11.7 mph18.8 kmh 29.00 in982.1 mb 0.00 in0.0 mm 0.00 in0.0 mm 0.00 in0.0 mm
02:35 PM 85.1°F29.5°C 63.1°F17.3°C 48% 4.1 mph SW6.6 kmh SW 11.7 mph18.8 kmh 29.00 in982.1 mb 0.00 in0.0 mm 0.00 in0.0 mm 0.00 in0.0 mm
02:34 PM 85.1°F29.5°C 63.1°F17.3°C 48% 5.1 mph WSW8.2 kmh WSW 11.7 mph18.8 kmh 29.00 in982.1 mb 0.00 in0.0 mm 0.00 in0.0 mm 0.00 in0.0 mm
02:33 PM 85.1°F29.5°C 63.1°F17.3°C 48% 7.2 mph SW11.6 kmh SW 11.7 mph18.8 kmh 29.00 in982.1 mb 0.00 in0.0 mm 0.00 in0.0 mm 0.00 in0.0 mm
02:32 PM 85.1°F29.5°C 63.1°F17.3°C 48% 7.4 mph S11.9 kmh S 11.7 mph18.8 kmh 29.00 in982.1 mb 0.00 in0.0 mm 0.00 in0.0 mm 0.00 in0.0 mm
02:31 PM 85.3°F29.6°C 63.3°F17.4°C 48% 5.2 mph S8.4 kmh S 12.6 mph20.3 kmh 28.97 in981.0 mb 0.00 in0.0 mm 0.00 in0.0 mm 0.00 in0.0 mm
02:30 PM 85.3°F29.6°C 63.3°F17.4°C 48% 4.4 mph SSW7.1 kmh SSW 12.6 mph20.3 kmh 28.97 in981.0 mb 0.00 in0.0 mm 0.00 in0.0 mm 0.00 in0.0 mm
02:29 PM 85.3°F29.6°C 63.3°F17.4°C 48% 5.0 mph S8.0 kmh S 12.6 mph20.3 kmh 28.97 in981.0 mb 0.00 in0.0 mm 0.00 in0.0 mm 0.00 in0.0 mm
02:28 PM 85.3°F29.6°C 63.3°F17.4°C 48% 5.9 mph S9.5 kmh S 12.6 mph20.3 kmh 28.97 in981.0 mb 0.00 in0.0 mm 0.00 in0.0 mm 0.00 in0.0 mm
02:27 PM 85.3°F29.6°C 63.3°F17.4°C 48% 5.0 mph SSW8.0 kmh SSW 12.6 mph20.3 kmh 28.97 in981.0 mb 0.00 in0.0 mm 0.00 in0.0 mm 0.00 in0.0 mm
02:26 PM 85.3°F29.6°C 63.3°F17.4°C 48% 4.8 mph SW7.7 kmh SW 12.6 mph20.3 kmh 28.97 in981.0 mb 0.00 in0.0 mm 0.00 in0.0 mm 0.00 in0.0 mm
02:25 PM 85.3°F29.6°C 64.0°F17.8°C 49% 5.0 mph SW8.0 kmh SW 12.6 mph20.3 kmh 28.97 in981.0 mb 0.00 in0.0 mm 0.00 in0.0 mm 0.00 in0.0 mm
02:24 PM 85.3°F29.6°C 64.0°F17.8°C 49% 5.9 mph SSW9.5 kmh SSW 12.6 mph20.3 kmh 28.97 in981.0 mb 0.00 in0.0 mm 0.00 in0.0 mm 0.00 in0.0 mm
02:23 PM 85.3°F29.6°C 64.0°F17.8°C 49% 5.8 mph SSW9.3 kmh SSW 12.6 mph20.3 kmh 28.97 in981.0 mb 0.00 in0.0 mm 0.00 in0.0 mm 0.00 in0.0 mm
02:22 PM 85.3°F29.6°C 64.0°F17.8°C 49% 5.8 mph SSW9.3 kmh SSW 12.6 mph20.3 kmh 28.97 in981.0 mb 0.00 in0.0 mm 0.00 in0.0 mm 0.00 in0.0 mm
02:21 PM 85.1°F29.5°C 63.9°F17.7°C 49% 4.8 mph S7.7 kmh S 11.0 mph17.7 kmh 28.97 in981.0 mb 0.00 in0.0 mm 0.00 in0.0 mm 0.00 in0.0 mm
02:20 PM 85.1°F29.5°C 63.9°F17.7°C 49% 4.2 mph S6.8 kmh S 11.0 mph17.7 kmh 28.97 in981.0 mb 0.00 in0.0 mm 0.00 in0.0 mm 0.00 in0.0 mm
02:19 PM 84.9°F29.4°C 63.7°F17.6°C 49% 5.1 mph S8.2 kmh S 9.1 mph14.6 kmh 28.97 in981.0 mb 0.00 in0.0 mm 0.00 in0.0 mm 0.00 in0.0 mm
02:18 PM 84.7°F29.3°C 63.5°F17.5°C 49% 5.3 mph S8.5 kmh S 9.1 mph14.6 kmh 28.97 in981.0 mb 0.00 in0.0 mm 0.00 in0.0 mm 0.00 in0.0 mm
02:17 PM 84.7°F29.3°C 63.5°F17.5°C 49% 4.9 mph S7.9 kmh S 9.1 mph14.6 kmh 28.97 in981.0 mb 0.00 in0.0 mm 0.00 in0.0 mm 0.00 in0.0 mm
02:16 PM 84.6°F29.2°C 63.4°F17.4°C 49% 4.9 mph S7.9 kmh S 9.2 mph14.8 kmh 28.97 in981.0 mb 0.00 in0.0 mm 0.00 in0.0 mm 0.00 in0.0 mm
02:15 PM 84.6°F29.2°C 63.4°F17.4°C 49% 6.2 mph S10.0 kmh S 13.9 mph22.4 kmh 28.97 in981.0 mb 0.00 in0.0 mm 0.00 in0.0 mm 0.00 in0.0 mm
02:14 PM 84.6°F29.2°C 63.4°F17.4°C 49% 6.3 mph S10.1 kmh S 13.9 mph22.4 kmh 28.97 in981.0 mb 0.00 in0.0 mm 0.00 in0.0 mm 0.00 in0.0 mm
02:13 PM 84.4°F29.1°C 63.2°F17.3°C 49% 5.6 mph S9.0 kmh S 13.9 mph22.4 kmh 28.97 in981.0 mb 0.00 in0.0 mm 0.00 in0.0 mm 0.00 in0.0 mm
02:12 PM 84.4°F29.1°C 63.2°F17.3°C 49% 6.0 mph S9.7 kmh S 13.9 mph22.4 kmh 28.97 in981.0 mb 0.00 in0.0 mm 0.00 in0.0 mm 0.00 in0.0 mm
02:11 PM 84.2°F29.0°C 63.0°F17.2°C 49% 5.4 mph S8.7 kmh S 13.9 mph22.4 kmh 28.97 in981.0 mb 0.00 in0.0 mm 0.00 in0.0 mm 0.00 in0.0 mm
02:10 PM 84.2°F29.0°C 63.0°F17.2°C 49% 5.1 mph S8.2 kmh S 13.9 mph22.4 kmh 28.97 in981.0 mb 0.00 in0.0 mm 0.00 in0.0 mm 0.00 in0.0 mm
02:09 PM 84.2°F29.0°C 63.0°F17.2°C 49% 6.9 mph SSE11.1 kmh SSE 13.9 mph22.4 kmh 28.97 in981.0 mb 0.00 in0.0 mm 0.00 in0.0 mm 0.00 in0.0 mm
02:08 PM 84.2°F29.0°C 63.0°F17.2°C 49% 7.9 mph SSE12.7 kmh SSE 13.9 mph22.4 kmh 28.97 in981.0 mb 0.00 in0.0 mm 0.00 in0.0 mm 0.00 in0.0 mm
02:07 PM 84.2°F29.0°C 63.0°F17.2°C 49% 8.4 mph SSE13.5 kmh SSE 13.9 mph22.4 kmh 28.97 in981.0 mb 0.00 in0.0 mm 0.00 in0.0 mm 0.00 in0.0 mm
02:06 PM 84.0°F28.9°C 62.9°F17.2°C 49% 7.6 mph SSE12.2 kmh SSE 13.9 mph22.4 kmh 28.97 in981.0 mb 0.00 in0.0 mm 0.00 in0.0 mm 0.00 in0.0 mm
02:05 PM 84.0°F28.9°C 63.6°F17.6°C 50% 7.4 mph SSE11.9 kmh SSE 13.9 mph22.4 kmh 28.97 in981.0 mb 0.00 in0.0 mm 0.00 in0.0 mm 0.00 in0.0 mm
02:04 PM 84.0°F28.9°C 63.6°F17.6°C 50% 7.3 mph SSE11.7 kmh SSE 11.7 mph18.8 kmh 28.97 in981.0 mb 0.00 in0.0 mm 0.00 in0.0 mm 0.00 in0.0 mm
02:03 PM 83.8°F28.8°C 63.4°F17.4°C 50% 5.5 mph SSE8.9 kmh SSE 10.4 mph16.7 kmh 28.97 in981.0 mb 0.00 in0.0 mm 0.00 in0.0 mm 0.00 in0.0 mm
02:02 PM 83.7°F28.7°C 63.3°F17.4°C 50% 4.5 mph SSE7.2 kmh SSE 10.4 mph16.7 kmh 28.97 in981.0 mb 0.00 in0.0 mm 0.00 in0.0 mm 0.00 in0.0 mm
02:01 PM 83.7°F28.7°C 63.3°F17.4°C 50% 5.2 mph SSE8.4 kmh SSE 10.4 mph16.7 kmh 28.97 in981.0 mb 0.00 in0.0 mm 0.00 in0.0 mm 0.00 in0.0 mm
02:00 PM 83.7°F28.7°C 63.3°F17.4°C 50% 5.9 mph S9.5 kmh S 10.4 mph16.7 kmh 28.97 in981.0 mb 0.00 in0.0 mm 0.00 in0.0 mm 0.00 in0.0 mm
01:58 PM 83.3°F28.5°C 62.9°F17.2°C 50% 5.5 mph S8.9 kmh S 11.0 mph17.7 kmh 28.97 in981.0 mb 0.00 in0.0 mm 0.00 in0.0 mm 0.00 in0.0 mm
01:57 PM 83.1°F28.4°C 62.8°F17.1°C 50% 5.7 mph S9.2 kmh S 11.0 mph17.7 kmh 28.97 in981.0 mb 0.00 in0.0 mm 0.00 in0.0 mm 0.00 in0.0 mm
01:56 PM 82.9°F28.3°C 61.9°F16.6°C 49% 5.5 mph S8.9 kmh S 11.0 mph17.7 kmh 28.97 in981.0 mb 0.00 in0.0 mm 0.00 in0.0 mm 0.00 in0.0 mm
01:55 PM 82.8°F28.2°C 61.8°F16.6°C 49% 5.0 mph S8.0 kmh S 11.7 mph18.8 kmh 28.97 in981.0 mb 0.00 in0.0 mm 0.00 in0.0 mm 0.00 in0.0 mm
01:54 PM 82.6°F28.1°C 61.6°F16.4°C 49% 4.5 mph S7.2 kmh S 11.7 mph18.8 kmh 28.97 in981.0 mb 0.00 in0.0 mm 0.00 in0.0 mm 0.00 in0.0 mm
01:53 PM 82.6°F28.1°C 61.6°F16.4°C 49% 4.5 mph S7.2 kmh S 11.7 mph18.8 kmh 28.97 in981.0 mb 0.00 in0.0 mm 0.00 in0.0 mm 0.00 in0.0 mm
01:52 PM 82.6°F28.1°C 61.6°F16.4°C 49% 4.9 mph S7.9 kmh S 11.7 mph18.8 kmh 28.97 in981.0 mb 0.00 in0.0 mm 0.00 in0.0 mm 0.00 in0.0 mm
01:51 PM 82.6°F28.1°C 61.6°F16.4°C 49% 6.4 mph S10.3 kmh S 11.7 mph18.8 kmh 28.97 in981.0 mb 0.00 in0.0 mm 0.00 in0.0 mm 0.00 in0.0 mm
01:50 PM 82.4°F28.0°C 61.4°F16.3°C 49% 6.5 mph S10.5 kmh S 11.7 mph18.8 kmh 28.97 in981.0 mb 0.00 in0.0 mm 0.00 in0.0 mm 0.00 in0.0 mm
01:49 PM 82.4°F28.0°C 60.7°F15.9°C 48% 5.1 mph S8.2 kmh S 12.0 mph19.3 kmh 28.97 in981.0 mb 0.00 in0.0 mm 0.00 in0.0 mm 0.00 in0.0 mm
01:48 PM 82.6°F28.1°C 60.9°F16.1°C 48% 5.6 mph S9.0 kmh S 12.0 mph19.3 kmh 28.97 in981.0 mb 0.00 in0.0 mm 0.00 in0.0 mm 0.00 in0.0 mm
01:47 PM 82.6°F28.1°C 60.9°F16.1°C 48% 6.7 mph S10.8 kmh S 12.0 mph19.3 kmh 28.97 in981.0 mb 0.00 in0.0 mm 0.00 in0.0 mm 0.00 in0.0 mm
01:46 PM 82.6°F28.1°C 60.9°F16.1°C 48% 5.8 mph S9.3 kmh S 12.0 mph19.3 kmh 29.00 in982.1 mb 0.00 in0.0 mm 0.00 in0.0 mm 0.00 in0.0 mm
01:45 PM 82.4°F28.0°C 60.7°F15.9°C 48% 5.8 mph SSE9.3 kmh SSE 12.0 mph19.3 kmh 29.00 in982.1 mb 0.00 in0.0 mm 0.00 in0.0 mm 0.00 in0.0 mm
01:44 PM 82.4°F28.0°C 60.7°F15.9°C 48% 6.8 mph SSE10.9 kmh SSE 12.0 mph19.3 kmh 29.00 in982.1 mb 0.00 in0.0 mm 0.00 in0.0 mm 0.00 in0.0 mm
01:43 PM 82.6°F28.1°C 60.9°F16.1°C 48% 6.9 mph SSE11.1 kmh SSE 12.0 mph19.3 kmh 29.00 in982.1 mb 0.00 in0.0 mm 0.00 in0.0 mm 0.00 in0.0 mm
01:42 PM 82.6°F28.1°C 60.9°F16.1°C 48% 6.9 mph SSE11.1 kmh SSE 12.0 mph19.3 kmh 29.00 in982.1 mb 0.00 in0.0 mm 0.00 in0.0 mm 0.00 in0.0 mm
01:41 PM 82.6°F28.1°C 60.9°F16.1°C 48% 7.2 mph SSE11.6 kmh SSE 12.0 mph19.3 kmh 29.00 in982.1 mb 0.00 in0.0 mm 0.00 in0.0 mm 0.00 in0.0 mm
01:40 PM 82.6°F28.1°C 60.9°F16.1°C 48% 6.6 mph S10.6 kmh S 12.6 mph20.3 kmh 29.00 in982.1 mb 0.00 in0.0 mm 0.00 in0.0 mm 0.00 in0.0 mm
01:39 PM 82.8°F28.2°C 61.1°F16.2°C 48% 5.2 mph S8.4 kmh S 12.6 mph20.3 kmh 29.00 in982.1 mb 0.00 in0.0 mm 0.00 in0.0 mm 0.00 in0.0 mm
01:38 PM 82.8°F28.2°C 61.1°F16.2°C 48% 4.6 mph S7.4 kmh S 12.6 mph20.3 kmh 29.00 in982.1 mb 0.00 in0.0 mm 0.00 in0.0 mm 0.00 in0.0 mm
01:37 PM 82.8°F28.2°C 60.4°F15.8°C 47% 4.7 mph S7.6 kmh S 12.6 mph20.3 kmh 29.00 in982.1 mb 0.00 in0.0 mm 0.00 in0.0 mm 0.00 in0.0 mm
01:36 PM 82.8°F28.2°C 60.4°F15.8°C 47% 4.9 mph S7.9 kmh S 12.6 mph20.3 kmh 29.00 in982.1 mb 0.00 in0.0 mm 0.00 in0.0 mm 0.00 in0.0 mm
01:35 PM 82.9°F28.3°C 60.5°F15.8°C 47% 4.1 mph S6.6 kmh S 12.6 mph20.3 kmh 29.00 in982.1 mb 0.00 in0.0 mm 0.00 in0.0 mm 0.00 in0.0 mm
01:34 PM 82.9°F28.3°C 60.5°F15.8°C 47% 4.2 mph S6.8 kmh S 12.6 mph20.3 kmh 29.00 in982.1 mb 0.00 in0.0 mm 0.00 in0.0 mm 0.00 in0.0 mm
01:33 PM 83.1°F28.4°C 60.7°F15.9°C 47% 5.7 mph S9.2 kmh S 12.6 mph20.3 kmh 29.00 in982.1 mb 0.00 in0.0 mm 0.00 in0.0 mm 0.00 in0.0 mm
01:32 PM 83.1°F28.4°C 60.7°F15.9°C 47% 6.6 mph S10.6 kmh S 12.6 mph20.3 kmh 29.00 in982.1 mb 0.00 in0.0 mm 0.00 in0.0 mm 0.00 in0.0 mm
01:31 PM 83.1°F28.4°C 60.7°F15.9°C 47% 6.4 mph S10.3 kmh S 12.6 mph20.3 kmh 29.00 in982.1 mb 0.00 in0.0 mm 0.00 in0.0 mm 0.00 in0.0 mm
01:30 PM 83.3°F28.5°C 60.9°F16.1°C 47% 5.9 mph S9.5 kmh S 9.7 mph15.6 kmh 29.03 in983.1 mb 0.00 in0.0 mm 0.00 in0.0 mm 0.00 in0.0 mm
01:29 PM 83.3°F28.5°C 60.9°F16.1°C 47% 6.0 mph S9.7 kmh S 9.7 mph15.6 kmh 29.03 in983.1 mb 0.00 in0.0 mm 0.00 in0.0 mm 0.00 in0.0 mm
01:28 PM 83.3°F28.5°C 60.9°F16.1°C 47% 5.2 mph S8.4 kmh S 11.7 mph18.8 kmh 29.03 in983.1 mb 0.00 in0.0 mm 0.00 in0.0 mm 0.00 in0.0 mm
01:27 PM 83.3°F28.5°C 60.9°F16.1°C 47% 4.6 mph S7.4 kmh S 11.7 mph18.8 kmh 29.03 in983.1 mb 0.00 in0.0 mm 0.00 in0.0 mm 0.00 in0.0 mm
01:26 PM 83.5°F28.6°C 61.0°F16.1°C 47% 5.4 mph SSE8.7 kmh SSE 11.7 mph18.8 kmh 29.03 in983.1 mb 0.00 in0.0 mm 0.00 in0.0 mm 0.00 in0.0 mm
01:25 PM 83.5°F28.6°C 61.0°F16.1°C 47% 5.1 mph S8.2 kmh S 11.7 mph18.8 kmh 29.03 in983.1 mb 0.00 in0.0 mm 0.00 in0.0 mm 0.00 in0.0 mm
01:24 PM 83.5°F28.6°C 61.0°F16.1°C 47% 4.3 mph SSE6.9 kmh SSE 11.7 mph18.8 kmh 29.03 in983.1 mb 0.00 in0.0 mm 0.00 in0.0 mm 0.00 in0.0 mm
01:23 PM 83.5°F28.6°C 61.0°F16.1°C 47% Calm Calm 11.7 mph18.8 kmh 29.03 in983.1 mb 0.00 in0.0 mm 0.00 in0.0 mm 0.00 in0.0 mm
01:22 PM 83.5°F28.6°C 61.0°F16.1°C 47% 3.9 mph SW6.3 kmh SW 11.7 mph18.8 kmh 29.03 in983.1 mb 0.00 in0.0 mm 0.00 in0.0 mm 0.00 in0.0 mm
01:21 PM 83.7°F28.7°C 61.2°F16.2°C 47% 4.3 mph SW6.9 kmh SW 11.7 mph18.8 kmh 29.03 in983.1 mb 0.00 in0.0 mm 0.00 in0.0 mm 0.00 in0.0 mm
01:20 PM 83.7°F28.7°C 61.2°F16.2°C 47% 4.6 mph SSW7.4 kmh SSW 12.0 mph19.3 kmh 29.03 in983.1 mb 0.00 in0.0 mm 0.00 in0.0 mm 0.00 in0.0 mm
01:19 PM 83.7°F28.7°C 61.2°F16.2°C 47% 4.4 mph S7.1 kmh S 12.0 mph19.3 kmh 29.03 in983.1 mb 0.00 in0.0 mm 0.00 in0.0 mm 0.00 in0.0 mm
01:18 PM 83.8°F28.8°C 61.3°F16.3°C 47% 4.5 mph S7.2 kmh S 14.6 mph23.5 kmh 29.03 in983.1 mb 0.00 in0.0 mm 0.00 in0.0 mm 0.00 in0.0 mm
01:17 PM 83.8°F28.8°C 61.3°F16.3°C 47% 4.4 mph S7.1 kmh S 14.6 mph23.5 kmh 29.03 in983.1 mb 0.00 in0.0 mm 0.00 in0.0 mm 0.00 in0.0 mm
01:16 PM 83.8°F28.8°C 61.3°F16.3°C 47% 4.6 mph S7.4 kmh S 14.6 mph23.5 kmh 29.03 in983.1 mb 0.00 in0.0 mm 0.00 in0.0 mm 0.00 in0.0 mm
01:15 PM 83.8°F28.8°C 61.3°F16.3°C 47% 5.5 mph SW8.9 kmh SW 14.6 mph23.5 kmh 29.03 in983.1 mb 0.00 in0.0 mm 0.00 in0.0 mm 0.00 in0.0 mm
01:14 PM 84.0°F28.9°C 61.5°F16.4°C 47% 5.3 mph SW8.5 kmh SW 14.6 mph23.5 kmh 29.03 in983.1 mb 0.00 in0.0 mm 0.00 in0.0 mm 0.00 in0.0 mm
01:13 PM 84.0°F28.9°C 61.5°F16.4°C 47% 5.8 mph SW9.3 kmh SW 14.6 mph23.5 kmh 29.03 in983.1 mb 0.00 in0.0 mm 0.00 in0.0 mm 0.00 in0.0 mm
01:12 PM 84.2°F29.0°C 61.7°F16.5°C 47% 7.8 mph WSW12.6 kmh WSW 18.6 mph29.9 kmh 29.03 in983.1 mb 0.00 in0.0 mm 0.00 in0.0 mm 0.00 in0.0 mm
01:11 PM 84.2°F29.0°C 61.7°F16.5°C 47% 8.3 mph WSW13.4 kmh WSW 18.6 mph29.9 kmh 29.03 in983.1 mb 0.00 in0.0 mm 0.00 in0.0 mm 0.00 in0.0 mm
01:10 PM 84.2°F29.0°C 61.7°F16.5°C 47% 7.1 mph SW11.4 kmh SW 18.6 mph29.9 kmh 29.03 in983.1 mb 0.00 in0.0 mm 0.00 in0.0 mm 0.00 in0.0 mm
01:09 PM 84.2°F29.0°C 61.7°F16.5°C 47% 5.3 mph WSW8.5 kmh WSW 18.6 mph29.9 kmh 29.03 in983.1 mb 0.00 in0.0 mm 0.00 in0.0 mm 0.00 in0.0 mm
01:08 PM 84.2°F29.0°C 61.7°F16.5°C 47% 4.9 mph SW7.9 kmh SW 18.6 mph29.9 kmh 29.03 in983.1 mb 0.00 in0.0 mm 0.00 in0.0 mm 0.00 in0.0 mm
01:07 PM 84.2°F29.0°C 61.7°F16.5°C 47% 5.9 mph SW9.5 kmh SW 18.6 mph29.9 kmh 29.03 in983.1 mb 0.00 in0.0 mm 0.00 in0.0 mm 0.00 in0.0 mm
01:06 PM 84.2°F29.0°C 61.7°F16.5°C 47% 7.4 mph WSW11.9 kmh WSW 18.6 mph29.9 kmh 29.03 in983.1 mb 0.00 in0.0 mm 0.00 in0.0 mm 0.00 in0.0 mm
01:05 PM 84.2°F29.0°C 61.7°F16.5°C 47% 9.1 mph WSW14.6 kmh WSW 18.6 mph29.9 kmh 29.03 in983.1 mb 0.00 in0.0 mm 0.00 in0.0 mm 0.00 in0.0 mm
01:04 PM 84.2°F29.0°C 61.7°F16.5°C 47% 9.7 mph WSW15.6 kmh WSW 18.6 mph29.9 kmh 29.03 in983.1 mb 0.00 in0.0 mm 0.00 in0.0 mm 0.00 in0.0 mm
01:03 PM 84.2°F29.0°C 61.7°F16.5°C 47% 9.0 mph WSW14.5 kmh WSW 18.6 mph29.9 kmh 29.03 in983.1 mb 0.00 in0.0 mm 0.00 in0.0 mm 0.00 in0.0 mm
01:02 PM 84.2°F29.0°C 61.7°F16.5°C 47% 6.3 mph WSW10.1 kmh WSW 12.6 mph20.3 kmh 29.03 in983.1 mb 0.00 in0.0 mm 0.00 in0.0 mm 0.00 in0.0 mm
01:01 PM 84.2°F29.0°C 61.7°F16.5°C 47% 6.4 mph SW10.3 kmh SW 12.6 mph20.3 kmh 29.06 in984.1 mb 0.00 in0.0 mm 0.00 in0.0 mm 0.00 in0.0 mm
01:00 PM 84.2°F29.0°C 61.7°F16.5°C 47% 6.7 mph SW10.8 kmh SW 12.6 mph20.3 kmh 29.06 in984.1 mb 0.00 in0.0 mm 0.00 in0.0 mm 0.00 in0.0 mm
12:59 PM 84.2°F29.0°C 61.7°F16.5°C 47% 6.7 mph SW10.8 kmh SW 12.6 mph20.3 kmh 29.06 in984.1 mb 0.00 in0.0 mm 0.00 in0.0 mm 0.00 in0.0 mm
12:58 PM 84.2°F29.0°C 61.7°F16.5°C 47% 6.7 mph SW10.8 kmh SW 12.6 mph20.3 kmh 29.06 in984.1 mb 0.00 in0.0 mm 0.00 in0.0 mm 0.00 in0.0 mm
12:57 PM 84.0°F28.9°C 62.3°F16.8°C 48% 6.4 mph SW10.3 kmh SW 12.0 mph19.3 kmh 29.06 in984.1 mb 0.00 in0.0 mm 0.00 in0.0 mm 0.00 in0.0 mm
12:56 PM 84.0°F28.9°C 62.3°F16.8°C 48% 6.0 mph WSW9.7 kmh WSW 11.0 mph17.7 kmh 29.06 in984.1 mb 0.00 in0.0 mm 0.00 in0.0 mm 0.00 in0.0 mm
12:55 PM 83.8°F28.8°C 62.1°F16.7°C 48% 5.7 mph SW9.2 kmh SW 11.0 mph17.7 kmh 29.06 in984.1 mb 0.00 in0.0 mm 0.00 in0.0 mm 0.00 in0.0 mm
12:54 PM 83.5°F28.6°C 62.5°F16.9°C 49% 5.7 mph WSW9.2 kmh WSW 11.0 mph17.7 kmh 29.06 in984.1 mb 0.00 in0.0 mm 0.00 in0.0 mm 0.00 in0.0 mm
12:53 PM 83.3°F28.5°C 61.6°F16.4°C 48% 5.9 mph WSW9.5 kmh WSW 11.7 mph18.8 kmh 29.06 in984.1 mb 0.00 in0.0 mm 0.00 in0.0 mm 0.00 in0.0 mm
12:52 PM 83.3°F28.5°C 61.6°F16.4°C 48% 5.2 mph WSW8.4 kmh WSW 11.7 mph18.8 kmh 29.06 in984.1 mb 0.00 in0.0 mm 0.00 in0.0 mm 0.00 in0.0 mm
12:51 PM 82.9°F28.3°C 61.3°F16.3°C 48% 4.4 mph WSW7.1 kmh WSW 11.7 mph18.8 kmh 29.06 in984.1 mb 0.00 in0.0 mm 0.00 in0.0 mm 0.00 in0.0 mm
12:50 PM 82.8°F28.2°C 61.2°F16.2°C 48% 4.9 mph W7.9 kmh W 11.7 mph18.8 kmh 29.06 in984.1 mb 0.00 in0.0 mm 0.00 in0.0 mm 0.00 in0.0 mm
12:49 PM 82.8°F28.2°C 61.2°F16.2°C 48% 5.5 mph WSW8.9 kmh WSW 11.7 mph18.8 kmh 29.06 in984.1 mb 0.00 in0.0 mm 0.00 in0.0 mm 0.00 in0.0 mm
12:48 PM 82.8°F28.2°C 61.2°F16.2°C 48% 5.7 mph WSW9.2 kmh WSW 11.7 mph18.8 kmh 29.06 in984.1 mb 0.00 in0.0 mm 0.00 in0.0 mm 0.00 in0.0 mm
12:47 PM 82.6°F28.1°C 61.0°F16.1°C 48% 4.7 mph SW7.6 kmh SW 11.7 mph18.8 kmh 29.06 in984.1 mb 0.00 in0.0 mm 0.00 in0.0 mm 0.00 in0.0 mm
12:46 PM 82.6°F28.1°C 60.3°F15.7°C 47% 5.8 mph SW9.3 kmh SW 11.7 mph18.8 kmh 29.06 in984.1 mb 0.00 in0.0 mm 0.00 in0.0 mm 0.00 in0.0 mm
12:45 PM 82.6°F28.1°C 60.3°F15.7°C 47% 7.2 mph WSW11.6 kmh WSW 11.7 mph18.8 kmh 29.06 in984.1 mb 0.00 in0.0 mm 0.00 in0.0 mm 0.00 in0.0 mm
12:44 PM 82.8°F28.2°C 61.2°F16.2°C 48% 5.9 mph WSW9.5 kmh WSW 11.7 mph18.8 kmh 29.06 in984.1 mb 0.00 in0.0 mm 0.00 in0.0 mm 0.00 in0.0 mm
12:43 PM 82.8°F28.2°C 61.2°F16.2°C 48% 5.7 mph SW9.2 kmh SW 11.0 mph17.7 kmh 29.06 in984.1 mb 0.00 in0.0 mm 0.00 in0.0 mm 0.00 in0.0 mm
12:42 PM 82.8°F28.2°C 61.2°F16.2°C 48% 6.0 mph SW9.7 kmh SW 11.0 mph17.7 kmh 29.06 in984.1 mb 0.00 in0.0 mm 0.00 in0.0 mm 0.00 in0.0 mm
12:41 PM 82.8°F28.2°C 61.2°F16.2°C 48% 5.1 mph WSW8.2 kmh WSW 11.0 mph17.7 kmh 29.06 in984.1 mb 0.00 in0.0 mm 0.00 in0.0 mm 0.00 in0.0 mm
12:40 PM 82.8°F28.2°C 60.5°F15.8°C 47% 4.8 mph WSW7.7 kmh WSW 11.0 mph17.7 kmh 29.06 in984.1 mb 0.00 in0.0 mm 0.00 in0.0 mm 0.00 in0.0 mm
12:39 PM 82.8°F28.2°C 60.5°F15.8°C 47% 5.1 mph WSW8.2 kmh WSW 11.0 mph17.7 kmh 29.06 in984.1 mb 0.00 in0.0 mm 0.00 in0.0 mm 0.00 in0.0 mm
12:38 PM 82.8°F28.2°C 60.5°F15.8°C 47% 5.9 mph WSW9.5 kmh WSW 11.0 mph17.7 kmh 29.06 in984.1 mb 0.00 in0.0 mm 0.00 in0.0 mm 0.00 in0.0 mm
12:37 PM 82.8°F28.2°C 60.5°F15.8°C 47% 6.7 mph W10.8 kmh W 11.0 mph17.7 kmh 29.06 in984.1 mb 0.00 in0.0 mm 0.00 in0.0 mm 0.00 in0.0 mm
12:36 PM 82.8°F28.2°C 60.5°F15.8°C 47% 6.1 mph W9.8 kmh W 11.0 mph17.7 kmh 29.06 in984.1 mb 0.00 in0.0 mm 0.00 in0.0 mm 0.00 in0.0 mm
12:35 PM 82.8°F28.2°C 60.5°F15.8°C 47% 5.4 mph WSW8.7 kmh WSW 11.0 mph17.7 kmh 29.06 in984.1 mb 0.00 in0.0 mm 0.00 in0.0 mm 0.00 in0.0 mm
12:34 PM 82.8°F28.2°C 60.5°F15.8°C 47% 6.5 mph WSW10.5 kmh WSW 11.0 mph17.7 kmh 29.06 in984.1 mb 0.00 in0.0 mm 0.00 in0.0 mm 0.00 in0.0 mm
12:33 PM 82.8°F28.2°C 60.5°F15.8°C 47% 6.8 mph WSW10.9 kmh WSW 11.0 mph17.7 kmh 29.06 in984.1 mb 0.00 in0.0 mm 0.00 in0.0 mm 0.00 in0.0 mm
12:32 PM 82.9°F28.3°C 60.6°F15.9°C 47% 7.1 mph WSW11.4 kmh WSW 11.0 mph17.7 kmh 29.06 in984.1 mb 0.00 in0.0 mm 0.00 in0.0 mm 0.00 in0.0 mm
12:31 PM 82.9°F28.3°C 60.6°F15.9°C 47% 7.0 mph WSW11.3 kmh WSW 11.0 mph17.7 kmh 29.06 in984.1 mb 0.00 in0.0 mm 0.00 in0.0 mm 0.00 in0.0 mm
12:30 PM 83.1°F28.4°C 60.7°F15.9°C 47% 5.5 mph WSW8.9 kmh WSW 11.0 mph17.7 kmh 29.06 in984.1 mb 0.00 in0.0 mm 0.00 in0.0 mm 0.00 in0.0 mm
12:29 PM 83.1°F28.4°C 60.7°F15.9°C 47% 5.0 mph W8.0 kmh W 11.0 mph17.7 kmh 29.06 in984.1 mb 0.00 in0.0 mm 0.00 in0.0 mm 0.00 in0.0 mm
12:28 PM 83.1°F28.4°C 60.7°F15.9°C 47% 5.5 mph W8.9 kmh W 9.1 mph14.6 kmh 29.06 in984.1 mb 0.00 in0.0 mm 0.00 in0.0 mm 0.00 in0.0 mm
12:27 PM 83.3°F28.5°C 60.9°F16.1°C 47% 5.8 mph WSW9.3 kmh WSW 9.2 mph14.8 kmh 29.06 in984.1 mb 0.00 in0.0 mm 0.00 in0.0 mm 0.00 in0.0 mm
12:26 PM 83.3°F28.5°C 60.9°F16.1°C 47% 5.4 mph WSW8.7 kmh WSW 12.6 mph20.3 kmh 29.06 in984.1 mb 0.00 in0.0 mm 0.00 in0.0 mm 0.00 in0.0 mm
12:25 PM 83.3°F28.5°C 60.9°F16.1°C 47% 5.5 mph WSW8.9 kmh WSW 12.6 mph20.3 kmh 29.06 in984.1 mb 0.00 in0.0 mm 0.00 in0.0 mm 0.00 in0.0 mm
12:24 PM 83.3°F28.5°C 60.9°F16.1°C 47% 6.3 mph WSW10.1 kmh WSW 22.3 mph35.9 kmh 29.06 in984.1 mb 0.00 in0.0 mm 0.00 in0.0 mm 0.00 in0.0 mm
12:23 PM 83.3°F28.5°C 60.9°F16.1°C 47% 8.1 mph WSW13.0 kmh WSW 22.3 mph35.9 kmh 29.06 in984.1 mb 0.00 in0.0 mm 0.00 in0.0 mm 0.00 in0.0 mm
12:22 PM 83.5°F28.6°C 61.1°F16.2°C 47% 7.8 mph WSW12.6 kmh WSW 22.3 mph35.9 kmh 29.06 in984.1 mb 0.00 in0.0 mm 0.00 in0.0 mm 0.00 in0.0 mm
12:21 PM 83.5°F28.6°C 61.1°F16.2°C 47% 6.7 mph WSW10.8 kmh WSW 22.3 mph35.9 kmh 29.06 in984.1 mb 0.00 in0.0 mm 0.00 in0.0 mm 0.00 in0.0 mm
12:20 PM 83.5°F28.6°C 61.1°F16.2°C 47% 6.7 mph WSW10.8 kmh WSW 22.3 mph35.9 kmh 29.06 in984.1 mb 0.00 in0.0 mm 0.00 in0.0 mm 0.00 in0.0 mm
12:19 PM 83.7°F28.7°C 61.3°F16.3°C 47% 7.5 mph WSW12.1 kmh WSW 22.3 mph35.9 kmh 29.06 in984.1 mb 0.00 in0.0 mm 0.00 in0.0 mm 0.00 in0.0 mm
12:18 PM 83.7°F28.7°C 61.3°F16.3°C 47% 9.6 mph WSW15.4 kmh WSW 22.3 mph35.9 kmh 29.06 in984.1 mb 0.00 in0.0 mm 0.00 in0.0 mm 0.00 in0.0 mm
12:17 PM 83.7°F28.7°C 61.3°F16.3°C 47% 10.8 mph W17.4 kmh W 22.3 mph35.9 kmh 29.06 in984.1 mb 0.00 in0.0 mm 0.00 in0.0 mm 0.00 in0.0 mm
12:16 PM 83.7°F28.7°C 61.3°F16.3°C 47% 9.3 mph W15.0 kmh W 22.3 mph35.9 kmh 29.06 in984.1 mb 0.00 in0.0 mm 0.00 in0.0 mm 0.00 in0.0 mm
12:15 PM 83.8°F28.8°C 61.4°F16.3°C 47% 6.3 mph W10.1 kmh W 12.6 mph20.3 kmh 29.06 in984.1 mb 0.00 in0.0 mm 0.00 in0.0 mm 0.00 in0.0 mm
12:14 PM 83.8°F28.8°C 61.4°F16.3°C 47% 6.4 mph WSW10.3 kmh WSW 12.6 mph20.3 kmh 29.06 in984.1 mb 0.00 in0.0 mm 0.00 in0.0 mm 0.00 in0.0 mm
12:13 PM 84.0°F28.9°C 62.3°F16.8°C 48% 6.8 mph WSW10.9 kmh WSW 12.6 mph20.3 kmh 29.06 in984.1 mb 0.00 in0.0 mm 0.00 in0.0 mm 0.00 in0.0 mm
12:12 PM 84.0°F28.9°C 62.3°F16.8°C 48% 5.9 mph WSW9.5 kmh WSW 12.6 mph20.3 kmh 29.06 in984.1 mb 0.00 in0.0 mm 0.00 in0.0 mm 0.00 in0.0 mm
12:11 PM 84.0°F28.9°C 62.3°F16.8°C 48% 6.4 mph WSW10.3 kmh WSW 12.6 mph20.3 kmh 29.06 in984.1 mb 0.00 in0.0 mm 0.00 in0.0 mm 0.00 in0.0 mm
12:10 PM 83.8°F28.8°C 62.1°F16.7°C 48% 7.6 mph WSW12.2 kmh WSW 12.6 mph20.3 kmh 29.06 in984.1 mb 0.00 in0.0 mm 0.00 in0.0 mm 0.00 in0.0 mm
12:09 PM 83.8°F28.8°C 62.1°F16.7°C 48% 7.0 mph W11.3 kmh W 12.6 mph20.3 kmh 29.06 in984.1 mb 0.00 in0.0 mm 0.00 in0.0 mm 0.00 in0.0 mm
12:08 PM 83.8°F28.8°C 62.8°F17.1°C 49% 4.8 mph W7.7 kmh W 12.6 mph20.3 kmh 29.06 in984.1 mb 0.00 in0.0 mm 0.00 in0.0 mm 0.00 in0.0 mm
12:07 PM 83.8°F28.8°C 62.8°F17.1°C 49% 4.2 mph WSW6.8 kmh WSW 8.4 mph13.5 kmh 29.06 in984.1 mb 0.00 in0.0 mm 0.00 in0.0 mm 0.00 in0.0 mm
12:06 PM 83.7°F28.7°C 62.7°F17.1°C 49% 4.6 mph WSW7.4 kmh WSW 9.1 mph14.6 kmh 29.06 in984.1 mb 0.00 in0.0 mm 0.00 in0.0 mm 0.00 in0.0 mm
12:05 PM 83.7°F28.7°C 62.7°F17.1°C 49% 4.6 mph WSW7.4 kmh WSW 9.1 mph14.6 kmh 29.06 in984.1 mb 0.00 in0.0 mm 0.00 in0.0 mm 0.00 in0.0 mm
12:04 PM 83.5°F28.6°C 62.5°F16.9°C 49% 3.5 mph WSW5.6 kmh WSW 9.1 mph14.6 kmh 29.06 in984.1 mb 0.00 in0.0 mm 0.00 in0.0 mm 0.00 in0.0 mm
12:03 PM 83.5°F28.6°C 62.5°F16.9°C 49% 3.3 mph WSW5.3 kmh WSW 9.1 mph14.6 kmh 29.06 in984.1 mb 0.00 in0.0 mm 0.00 in0.0 mm 0.00 in0.0 mm
12:02 PM 83.1°F28.4°C 62.2°F16.8°C 49% 3.8 mph W6.1 kmh W 9.1 mph14.6 kmh 29.06 in984.1 mb 0.00 in0.0 mm 0.00 in0.0 mm 0.00 in0.0 mm
12:01 PM 83.1°F28.4°C 62.2°F16.8°C 49% 4.2 mph W6.8 kmh W 9.1 mph14.6 kmh 29.06 in984.1 mb 0.00 in0.0 mm 0.00 in0.0 mm 0.00 in0.0 mm
12:00 PM 82.9°F28.3°C 62.0°F16.7°C 49% 3.9 mph W6.3 kmh W 9.1 mph14.6 kmh 29.06 in984.1 mb 0.00 in0.0 mm 0.00 in0.0 mm 0.00 in0.0 mm
11:59 AM 82.8°F28.2°C 61.9°F16.6°C 49% 3.8 mph W6.1 kmh W 11.0 mph17.7 kmh 29.06 in984.1 mb 0.00 in0.0 mm 0.00 in0.0 mm 0.00 in0.0 mm
11:58 AM 82.6°F28.1°C 61.7°F16.5°C 49% 4.3 mph W6.9 kmh W 11.7 mph18.8 kmh 29.06 in984.1 mb 0.00 in0.0 mm 0.00 in0.0 mm 0.00 in0.0 mm
11:57 AM 82.6°F28.1°C 61.7°F16.5°C 49% 4.7 mph WSW7.6 kmh WSW 11.7 mph18.8 kmh 29.06 in984.1 mb 0.00 in0.0 mm 0.00 in0.0 mm 0.00 in0.0 mm
11:56 AM 82.4°F28.0°C 61.5°F16.4°C 49% 5.2 mph WSW8.4 kmh WSW 11.7 mph18.8 kmh 29.06 in984.1 mb 0.00 in0.0 mm 0.00 in0.0 mm 0.00 in0.0 mm
11:55 AM 82.2°F27.9°C 61.3°F16.3°C 49% 5.3 mph WSW8.5 kmh WSW 11.7 mph18.8 kmh 29.06 in984.1 mb 0.00 in0.0 mm 0.00 in0.0 mm 0.00 in0.0 mm
11:54 AM 82.2°F27.9°C 61.4°F16.3°C 49% 5.4 mph WSW8.7 kmh WSW 11.7 mph18.8 kmh 29.06 in984.1 mb 0.00 in0.0 mm 0.00 in0.0 mm 0.00 in0.0 mm
11:53 AM 82.2°F27.9°C 61.4°F16.3°C 49% 6.0 mph WSW9.7 kmh WSW 11.7 mph18.8 kmh 29.06 in984.1 mb 0.00 in0.0 mm 0.00 in0.0 mm 0.00 in0.0 mm
11:52 AM 82.0°F27.8°C 61.2°F16.2°C 49% 4.5 mph SW7.2 kmh SW 11.7 mph18.8 kmh 29.06 in984.1 mb 0.00 in0.0 mm 0.00 in0.0 mm 0.00 in0.0 mm
11:51 AM 82.0°F27.8°C 61.2°F16.2°C 49% 5.4 mph SW8.7 kmh SW 11.7 mph18.8 kmh 29.06 in984.1 mb 0.00 in0.0 mm 0.00 in0.0 mm 0.00 in0.0 mm
11:50 AM 81.9°F27.7°C 61.1°F16.2°C 49% 5.2 mph WSW8.4 kmh WSW 11.7 mph18.8 kmh 29.06 in984.1 mb 0.00 in0.0 mm 0.00 in0.0 mm 0.00 in0.0 mm
11:49 AM 81.9°F27.7°C 61.1°F16.2°C 49% 3.7 mph WSW6.0 kmh WSW 11.7 mph18.8 kmh 29.06 in984.1 mb 0.00 in0.0 mm 0.00 in0.0 mm 0.00 in0.0 mm
11:48 AM 81.9°F27.7°C 61.1°F16.2°C 49% 3.7 mph WSW6.0 kmh WSW 7.8 mph12.6 kmh 29.06 in984.1 mb 0.00 in0.0 mm 0.00 in0.0 mm 0.00 in0.0 mm
11:47 AM 81.9°F27.7°C 61.1°F16.2°C 49% 3.7 mph WSW6.0 kmh WSW 8.4 mph13.5 kmh 29.06 in984.1 mb 0.00 in0.0 mm 0.00 in0.0 mm 0.00 in0.0 mm
11:46 AM 81.9°F27.7°C 61.1°F16.2°C 49% Calm Calm 8.4 mph13.5 kmh 29.06 in984.1 mb 0.00 in0.0 mm 0.00 in0.0 mm 0.00 in0.0 mm
11:45 AM 81.7°F27.6°C 60.9°F16.1°C 49% 3.7 mph W6.0 kmh W 8.4 mph13.5 kmh 29.06 in984.1 mb 0.00 in0.0 mm 0.00 in0.0 mm 0.00 in0.0 mm
11:44 AM 81.7°F27.6°C 60.9°F16.1°C 49% 4.2 mph W6.8 kmh W 8.4 mph13.5 kmh 29.06 in984.1 mb 0.00 in0.0 mm 0.00 in0.0 mm 0.00 in0.0 mm
11:43 AM 81.7°F27.6°C 60.9°F16.1°C 49% 4.5 mph W7.2 kmh W 8.4 mph13.5 kmh 29.06 in984.1 mb 0.00 in0.0 mm 0.00 in0.0 mm 0.00 in0.0 mm
11:42 AM 81.7°F27.6°C 60.9°F16.1°C 49% 4.4 mph W7.1 kmh W 15.2 mph24.5 kmh 29.06 in984.1 mb 0.00 in0.0 mm 0.00 in0.0 mm 0.00 in0.0 mm
11:41 AM 81.7°F27.6°C 60.9°F16.1°C 49% 4.5 mph W7.2 kmh W 15.2 mph24.5 kmh 29.06 in984.1 mb 0.00 in0.0 mm 0.00 in0.0 mm 0.00 in0.0 mm
11:40 AM 81.7°F27.6°C 60.9°F16.1°C 49% 4.6 mph WSW7.4 kmh WSW 15.2 mph24.5 kmh 29.06 in984.1 mb 0.00 in0.0 mm 0.00 in0.0 mm 0.00 in0.0 mm
11:39 AM 81.7°F27.6°C 60.9°F16.1°C 49% 4.7 mph SW7.6 kmh SW 15.2 mph24.5 kmh 29.06 in984.1 mb 0.00 in0.0 mm 0.00 in0.0 mm 0.00 in0.0 mm
11:38 AM 81.7°F27.6°C 60.9°F16.1°C 49% 3.9 mph SW6.3 kmh SW 15.2 mph24.5 kmh 29.06 in984.1 mb 0.00 in0.0 mm 0.00 in0.0 mm 0.00 in0.0 mm
11:37 AM 81.7°F27.6°C 60.9°F16.1°C 49% 4.1 mph SW6.6 kmh SW 15.2 mph24.5 kmh 29.06 in984.1 mb 0.00 in0.0 mm 0.00 in0.0 mm 0.00 in0.0 mm
11:36 AM 81.7°F27.6°C 60.2°F15.7°C 48% 5.3 mph SW8.5 kmh SW 15.2 mph24.5 kmh 29.06 in984.1 mb 0.00 in0.0 mm 0.00 in0.0 mm 0.00 in0.0 mm
11:35 AM 81.9°F27.7°C 60.4°F15.8°C 48% 4.3 mph WSW6.9 kmh WSW 15.2 mph24.5 kmh 29.06 in984.1 mb 0.00 in0.0 mm 0.00 in0.0 mm 0.00 in0.0 mm
11:34 AM 81.9°F27.7°C 60.4°F15.8°C 48% 5.0 mph WSW8.0 kmh WSW 15.2 mph24.5 kmh 29.06 in984.1 mb 0.00 in0.0 mm 0.00 in0.0 mm 0.00 in0.0 mm
11:33 AM 81.9°F27.7°C 60.4°F15.8°C 48% 4.5 mph WSW7.2 kmh WSW 15.2 mph24.5 kmh 29.06 in984.1 mb 0.00 in0.0 mm 0.00 in0.0 mm 0.00 in0.0 mm
11:32 AM 81.9°F27.7°C 60.4°F15.8°C 48% 3.9 mph WSW6.3 kmh WSW 12.6 mph20.3 kmh 29.06 in984.1 mb 0.00 in0.0 mm 0.00 in0.0 mm 0.00 in0.0 mm
11:31 AM 81.9°F27.7°C 60.4°F15.8°C 48% 4.3 mph WSW6.9 kmh WSW 12.6 mph20.3 kmh 29.06 in984.1 mb 0.00 in0.0 mm 0.00 in0.0 mm 0.00 in0.0 mm
11:30 AM 81.9°F27.7°C 60.4°F15.8°C 48% 4.3 mph WSW6.9 kmh WSW 12.6 mph20.3 kmh 29.06 in984.1 mb 0.00 in0.0 mm 0.00 in0.0 mm 0.00 in0.0 mm
11:29 AM 81.9°F27.7°C 60.4°F15.8°C 48% 4.3 mph WSW6.9 kmh WSW 12.6 mph20.3 kmh 29.06 in984.1 mb 0.00 in0.0 mm 0.00 in0.0 mm 0.00 in0.0 mm
11:28 AM 81.9°F27.7°C 60.4°F15.8°C 48% 4.9 mph SW7.9 kmh SW 12.6 mph20.3 kmh 29.06 in984.1 mb 0.00 in0.0 mm 0.00 in0.0 mm 0.00 in0.0 mm
11:27 AM 81.9°F27.7°C 60.4°F15.8°C 48% 5.4 mph SW8.7 kmh SW 12.6 mph20.3 kmh 29.06 in984.1 mb 0.00 in0.0 mm 0.00 in0.0 mm 0.00 in0.0 mm
11:26 AM 82.0°F27.8°C 60.5°F15.8°C 48% 5.8 mph SW9.3 kmh SW 12.6 mph20.3 kmh 29.06 in984.1 mb 0.00 in0.0 mm 0.00 in0.0 mm 0.00 in0.0 mm
11:25 AM 82.0°F27.8°C 60.5°F15.8°C 48% 5.1 mph SW8.2 kmh SW 12.6 mph20.3 kmh 29.06 in984.1 mb 0.00 in0.0 mm 0.00 in0.0 mm 0.00 in0.0 mm
11:24 AM 82.0°F27.8°C 60.5°F15.8°C 48% 4.1 mph SW6.6 kmh SW 12.6 mph20.3 kmh 29.06 in984.1 mb 0.00 in0.0 mm 0.00 in0.0 mm 0.00 in0.0 mm
11:23 AM 82.0°F27.8°C 60.5°F15.8°C 48% 3.8 mph SW6.1 kmh SW 12.6 mph20.3 kmh 29.06 in984.1 mb 0.00 in0.0 mm 0.00 in0.0 mm 0.00 in0.0 mm
11:22 AM 82.0°F27.8°C 60.5°F15.8°C 48% 4.9 mph SW7.9 kmh SW 11.7 mph18.8 kmh 29.06 in984.1 mb 0.00 in0.0 mm 0.00 in0.0 mm 0.00 in0.0 mm
11:21 AM 82.0°F27.8°C 60.5°F15.8°C 48% 4.8 mph SW7.7 kmh SW 11.7 mph18.8 kmh 29.06 in984.1 mb 0.00 in0.0 mm 0.00 in0.0 mm 0.00 in0.0 mm
11:20 AM 82.2°F27.9°C 60.6°F15.9°C 48% 4.3 mph SW6.9 kmh SW 11.7 mph18.8 kmh 29.06 in984.1 mb 0.00 in0.0 mm 0.00 in0.0 mm 0.00 in0.0 mm
11:19 AM 82.2°F27.9°C 60.6°F15.9°C 48% 4.4 mph SW7.1 kmh SW 11.7 mph18.8 kmh 29.06 in984.1 mb 0.00 in0.0 mm 0.00 in0.0 mm 0.00 in0.0 mm
11:18 AM 82.2°F27.9°C 60.6°F15.9°C 48% 3.3 mph W5.3 kmh W 11.7 mph18.8 kmh 29.06 in984.1 mb 0.00 in0.0 mm 0.00 in0.0 mm 0.00 in0.0 mm
11:17 AM 82.2°F27.9°C 60.6°F15.9°C 48% 3.5 mph W5.6 kmh W 9.1 mph14.6 kmh 29.06 in984.1 mb 0.00 in0.0 mm 0.00 in0.0 mm 0.00 in0.0 mm
11:16 AM 82.2°F27.9°C 60.6°F15.9°C 48% 3.7 mph W6.0 kmh W 11.0 mph17.7 kmh 29.06 in984.1 mb 0.00 in0.0 mm 0.00 in0.0 mm 0.00 in0.0 mm
11:15 AM 82.2°F27.9°C 60.6°F15.9°C 48% 3.7 mph W6.0 kmh W 11.0 mph17.7 kmh 29.06 in984.1 mb 0.00 in0.0 mm 0.00 in0.0 mm 0.00 in0.0 mm
11:14 AM 82.2°F27.9°C 60.6°F15.9°C 48% 3.0 mph S4.8 kmh S 11.0 mph17.7 kmh 29.06 in984.1 mb 0.00 in0.0 mm 0.00 in0.0 mm 0.00 in0.0 mm
11:13 AM 82.2°F27.9°C 60.6°F15.9°C 48% 3.0 mph S4.8 kmh S 11.0 mph17.7 kmh 29.06 in984.1 mb 0.00 in0.0 mm 0.00 in0.0 mm 0.00 in0.0 mm
11:12 AM 82.2°F27.9°C 60.6°F15.9°C 48% 3.0 mph S4.8 kmh S 11.0 mph17.7 kmh 29.06 in984.1 mb 0.00 in0.0 mm 0.00 in0.0 mm 0.00 in0.0 mm
11:11 AM 82.2°F27.9°C 60.6°F15.9°C 48% 3.0 mph W4.8 kmh W 11.0 mph17.7 kmh 29.06 in984.1 mb 0.00 in0.0 mm 0.00 in0.0 mm 0.00 in0.0 mm
11:10 AM 82.2°F27.9°C 60.6°F15.9°C 48% 3.2 mph W5.1 kmh W 11.0 mph17.7 kmh 29.06 in984.1 mb 0.00 in0.0 mm 0.00 in0.0 mm 0.00 in0.0 mm
11:09 AM 82.2°F27.9°C 60.6°F15.9°C 48% 3.9 mph SW6.3 kmh SW 11.0 mph17.7 kmh 29.06 in984.1 mb 0.00 in0.0 mm 0.00 in0.0 mm 0.00 in0.0 mm
11:08 AM 82.2°F27.9°C 60.6°F15.9°C 48% 4.5 mph S7.2 kmh S 11.0 mph17.7 kmh 29.06 in984.1 mb 0.00 in0.0 mm 0.00 in0.0 mm 0.00 in0.0 mm
11:07 AM 82.2°F27.9°C 60.6°F15.9°C 48% 4.5 mph SSW7.2 kmh SSW 11.0 mph17.7 kmh 29.06 in984.1 mb 0.00 in0.0 mm 0.00 in0.0 mm 0.00 in0.0 mm
11:06 AM 82.2°F27.9°C 60.6°F15.9°C 48% 4.3 mph SW6.9 kmh SW 9.1 mph14.6 kmh 29.06 in984.1 mb 0.00 in0.0 mm 0.00 in0.0 mm 0.00 in0.0 mm
11:05 AM 82.2°F27.9°C 60.6°F15.9°C 48% 4.3 mph SW6.9 kmh SW 11.7 mph18.8 kmh 29.06 in984.1 mb 0.00 in0.0 mm 0.00 in0.0 mm 0.00 in0.0 mm
11:04 AM 82.2°F27.9°C 60.6°F15.9°C 48% 4.9 mph S7.9 kmh S 11.7 mph18.8 kmh 29.06 in984.1 mb 0.00 in0.0 mm 0.00 in0.0 mm 0.00 in0.0 mm
11:03 AM 82.2°F27.9°C 60.6°F15.9°C 48% 4.3 mph SW6.9 kmh SW 11.7 mph18.8 kmh 29.06 in984.1 mb 0.00 in0.0 mm 0.00 in0.0 mm 0.00 in0.0 mm
11:02 AM 82.2°F27.9°C 60.6°F15.9°C 48% 4.0 mph SW6.4 kmh SW 11.7 mph18.8 kmh 29.06 in984.1 mb 0.00 in0.0 mm 0.00 in0.0 mm 0.00 in0.0 mm
11:01 AM 82.2°F27.9°C 60.6°F15.9°C 48% 3.7 mph SSW6.0 kmh SSW 11.7 mph18.8 kmh 29.06 in984.1 mb 0.00 in0.0 mm 0.00 in0.0 mm 0.00 in0.0 mm
11:00 AM 82.2°F27.9°C 60.6°F15.9°C 48% 3.9 mph SSW6.3 kmh SSW 11.7 mph18.8 kmh 29.06 in984.1 mb 0.00 in0.0 mm 0.00 in0.0 mm 0.00 in0.0 mm
10:59 AM 82.2°F27.9°C 60.6°F15.9°C 48% 4.1 mph SSW6.6 kmh SSW 11.7 mph18.8 kmh 29.06 in984.1 mb 0.00 in0.0 mm 0.00 in0.0 mm 0.00 in0.0 mm
10:58 AM 82.4°F28.0°C 60.1°F15.6°C 47% 4.3 mph SSW6.9 kmh SSW 11.7 mph18.8 kmh 29.06 in984.1 mb 0.00 in0.0 mm 0.00 in0.0 mm 0.00 in0.0 mm
10:57 AM 82.4°F28.0°C 60.1°F15.6°C 47% 5.0 mph SW8.0 kmh SW 11.7 mph18.8 kmh 29.06 in984.1 mb 0.00 in0.0 mm 0.00 in0.0 mm 0.00 in0.0 mm
10:56 AM 82.4°F28.0°C 60.1°F15.6°C 47% 4.4 mph WSW7.1 kmh WSW 11.7 mph18.8 kmh 29.06 in984.1 mb 0.00 in0.0 mm 0.00 in0.0 mm 0.00 in0.0 mm
10:55 AM 82.6°F28.1°C 61.0°F16.1°C 48% 3.5 mph WSW5.6 kmh WSW 11.7 mph18.8 kmh 29.06 in984.1 mb 0.00 in0.0 mm 0.00 in0.0 mm 0.00 in0.0 mm
10:54 AM 82.6°F28.1°C 61.0°F16.1°C 48% 3.8 mph SW6.1 kmh SW 9.1 mph14.6 kmh 29.06 in984.1 mb 0.00 in0.0 mm 0.00 in0.0 mm 0.00 in0.0 mm
10:53 AM 82.6°F28.1°C 61.0°F16.1°C 48% 3.7 mph SW6.0 kmh SW 9.1 mph14.6 kmh 29.06 in984.1 mb 0.00 in0.0 mm 0.00 in0.0 mm 0.00 in0.0 mm
10:52 AM 82.6°F28.1°C 61.0°F16.1°C 48% 3.6 mph SW5.8 kmh SW 9.1 mph14.6 kmh 29.06 in984.1 mb 0.00 in0.0 mm 0.00 in0.0 mm 0.00 in0.0 mm
10:51 AM 82.6°F28.1°C 61.7°F16.5°C 49% 4.3 mph SW6.9 kmh SW 12.0 mph19.3 kmh 29.06 in984.1 mb 0.00 in0.0 mm 0.00 in0.0 mm 0.00 in0.0 mm
10:50 AM 82.6°F28.1°C 61.7°F16.5°C 49% 4.9 mph SW7.9 kmh SW 12.0 mph19.3 kmh 29.06 in984.1 mb 0.00 in0.0 mm 0.00 in0.0 mm 0.00 in0.0 mm
10:49 AM 82.6°F28.1°C 61.7°F16.5°C 49% 4.1 mph SSW6.6 kmh SSW 12.0 mph19.3 kmh 29.06 in984.1 mb 0.00 in0.0 mm 0.00 in0.0 mm 0.00 in0.0 mm
10:48 AM 82.4°F28.0°C 61.5°F16.4°C 49% 3.0 mph S4.8 kmh S 12.0 mph19.3 kmh 29.06 in984.1 mb 0.00 in0.0 mm 0.00 in0.0 mm 0.00 in0.0 mm
10:47 AM 82.4°F28.0°C 60.8°F16.0°C 48% 3.6 mph SSW5.8 kmh SSW 12.0 mph19.3 kmh 29.06 in984.1 mb 0.00 in0.0 mm 0.00 in0.0 mm 0.00 in0.0 mm
10:46 AM 82.4°F28.0°C 60.8°F16.0°C 48% 4.3 mph SW6.9 kmh SW 12.0 mph19.3 kmh 29.06 in984.1 mb 0.00 in0.0 mm 0.00 in0.0 mm 0.00 in0.0 mm
10:45 AM 82.4°F28.0°C 61.5°F16.4°C 49% 4.3 mph SW6.9 kmh SW 12.0 mph19.3 kmh 29.06 in984.1 mb 0.00 in0.0 mm 0.00 in0.0 mm 0.00 in0.0 mm
10:44 AM 82.2°F27.9°C 61.3°F16.3°C 49% 8.0 mph S12.9 kmh S 12.0 mph19.3 kmh 29.06 in984.1 mb 0.00 in0.0 mm 0.00 in0.0 mm 0.00 in0.0 mm
10:43 AM 82.2°F27.9°C 61.3°F16.3°C 49% 8.0 mph S12.9 kmh S 12.0 mph19.3 kmh 29.06 in984.1 mb 0.00 in0.0 mm 0.00 in0.0 mm 0.00 in0.0 mm
10:42 AM 82.0°F27.8°C 61.1°F16.2°C 49% 6.9 mph SW11.1 kmh SW 12.0 mph19.3 kmh 29.06 in984.1 mb 0.00 in0.0 mm 0.00 in0.0 mm 0.00 in0.0 mm
10:41 AM 82.0°F27.8°C 61.1°F16.2°C 49% 6.0 mph SW9.7 kmh SW 12.0 mph19.3 kmh 29.06 in984.1 mb 0.00 in0.0 mm 0.00 in0.0 mm 0.00 in0.0 mm
10:40 AM 81.9°F27.7°C 61.0°F16.1°C 49% 5.5 mph SW8.9 kmh SW 11.0 mph17.7 kmh 29.06 in984.1 mb 0.00 in0.0 mm 0.00 in0.0 mm 0.00 in0.0 mm
10:39 AM 81.7°F27.6°C 60.9°F16.1°C 49% 4.8 mph SSW7.7 kmh SSW 11.0 mph17.7 kmh 29.06 in984.1 mb 0.00 in0.0 mm 0.00 in0.0 mm 0.00 in0.0 mm
10:38 AM 81.7°F27.6°C 60.9°F16.1°C 49% 4.2 mph SW6.8 kmh SW 11.0 mph17.7 kmh 29.06 in984.1 mb 0.00 in0.0 mm 0.00 in0.0 mm 0.00 in0.0 mm
10:37 AM 81.5°F27.5°C 60.7°F15.9°C 49% 4.5 mph SW7.2 kmh SW 10.4 mph16.7 kmh 29.06 in984.1 mb 0.00 in0.0 mm 0.00 in0.0 mm 0.00 in0.0 mm
10:36 AM 81.3°F27.4°C 60.5°F15.8°C 49% 5.3 mph SSW8.5 kmh SSW 10.4 mph16.7 kmh 29.06 in984.1 mb 0.00 in0.0 mm 0.00 in0.0 mm 0.00 in0.0 mm
10:35 AM 81.1°F27.3°C 60.3°F15.7°C 49% 5.4 mph S8.7 kmh S 10.4 mph16.7 kmh 29.06 in984.1 mb 0.00 in0.0 mm 0.00 in0.0 mm 0.00 in0.0 mm
10:34 AM 81.1°F27.3°C 60.3°F15.7°C 49% 4.8 mph SSW7.7 kmh SSW 10.4 mph16.7 kmh 29.06 in984.1 mb 0.00 in0.0 mm 0.00 in0.0 mm 0.00 in0.0 mm
10:33 AM 81.0°F27.2°C 60.2°F15.7°C 49% 4.1 mph WSW6.6 kmh WSW 10.4 mph16.7 kmh 29.06 in984.1 mb 0.00 in0.0 mm 0.00 in0.0 mm 0.00 in0.0 mm
10:32 AM 81.0°F27.2°C 60.2°F15.7°C 49% 3.8 mph SW6.1 kmh SW 9.1 mph14.6 kmh 29.06 in984.1 mb 0.00 in0.0 mm 0.00 in0.0 mm 0.00 in0.0 mm
10:30 AM 80.8°F27.1°C 60.0°F15.6°C 49% 4.3 mph SSW6.9 kmh SSW 9.1 mph14.6 kmh 29.06 in984.1 mb 0.00 in0.0 mm 0.00 in0.0 mm 0.00 in0.0 mm
10:29 AM 80.8°F27.1°C 60.0°F15.6°C 49% 4.8 mph SW7.7 kmh SW 9.1 mph14.6 kmh 29.06 in984.1 mb 0.00 in0.0 mm 0.00 in0.0 mm 0.00 in0.0 mm
10:28 AM 80.8°F27.1°C 60.0°F15.6°C 49% 4.4 mph SSW7.1 kmh SSW 9.1 mph14.6 kmh 29.06 in984.1 mb 0.00 in0.0 mm 0.00 in0.0 mm 0.00 in0.0 mm
10:27 AM 80.8°F27.1°C 60.0°F15.6°C 49% 4.6 mph SSW7.4 kmh SSW 9.1 mph14.6 kmh 29.06 in984.1 mb 0.00 in0.0 mm 0.00 in0.0 mm 0.00 in0.0 mm
10:26 AM 80.6°F27.0°C 59.8°F15.4°C 49% 4.7 mph S7.6 kmh S 9.1 mph14.6 kmh 29.06 in984.1 mb 0.00 in0.0 mm 0.00 in0.0 mm 0.00 in0.0 mm
10:25 AM 80.6°F27.0°C 59.8°F15.4°C 49% 4.3 mph S6.9 kmh S 9.1 mph14.6 kmh 29.06 in984.1 mb 0.00 in0.0 mm 0.00 in0.0 mm 0.00 in0.0 mm
10:24 AM 80.6°F27.0°C 59.8°F15.4°C 49% 4.3 mph S6.9 kmh S 9.1 mph14.6 kmh 29.06 in984.1 mb 0.00 in0.0 mm 0.00 in0.0 mm 0.00 in0.0 mm
10:23 AM 80.6°F27.0°C 59.8°F15.4°C 49% 4.4 mph S7.1 kmh S 10.4 mph16.7 kmh 29.06 in984.1 mb 0.00 in0.0 mm 0.00 in0.0 mm 0.00 in0.0 mm
10:22 AM 80.6°F27.0°C 59.8°F15.4°C 49% 4.1 mph SSW6.6 kmh SSW 10.4 mph16.7 kmh 29.06 in984.1 mb 0.00 in0.0 mm 0.00 in0.0 mm 0.00 in0.0 mm
10:21 AM 80.6°F27.0°C 59.8°F15.4°C 49% 3.7 mph SW6.0 kmh SW 11.0 mph17.7 kmh 29.06 in984.1 mb 0.00 in0.0 mm 0.00 in0.0 mm 0.00 in0.0 mm
10:20 AM 80.6°F27.0°C 59.8°F15.4°C 49% 3.7 mph SW6.0 kmh SW 11.0 mph17.7 kmh 29.06 in984.1 mb 0.00 in0.0 mm 0.00 in0.0 mm 0.00 in0.0 mm
10:19 AM 80.6°F27.0°C 59.8°F15.4°C 49% 4.9 mph S7.9 kmh S 12.6 mph20.3 kmh 29.06 in984.1 mb 0.00 in0.0 mm 0.00 in0.0 mm 0.00 in0.0 mm
10:18 AM 80.6°F27.0°C 59.8°F15.4°C 49% 4.9 mph S7.9 kmh S 12.6 mph20.3 kmh 29.06 in984.1 mb 0.00 in0.0 mm 0.00 in0.0 mm 0.00 in0.0 mm
10:17 AM 80.6°F27.0°C 59.8°F15.4°C 49% 4.9 mph S7.9 kmh S 12.6 mph20.3 kmh 29.06 in984.1 mb 0.00 in0.0 mm 0.00 in0.0 mm 0.00 in0.0 mm
10:16 AM 80.6°F27.0°C 59.8°F15.4°C 49% 4.9 mph S7.9 kmh S 12.6 mph20.3 kmh 29.06 in984.1 mb 0.00 in0.0 mm 0.00 in0.0 mm 0.00 in0.0 mm
10:15 AM 80.6°F27.0°C 59.8°F15.4°C 49% 4.2 mph S6.8 kmh S 12.6 mph20.3 kmh 29.06 in984.1 mb 0.00 in0.0 mm 0.00 in0.0 mm 0.00 in0.0 mm
10:14 AM 80.6°F27.0°C 59.8°F15.4°C 49% 4.4 mph S7.1 kmh S 12.6 mph20.3 kmh 29.06 in984.1 mb 0.00 in0.0 mm 0.00 in0.0 mm 0.00 in0.0 mm
10:13 AM 80.6°F27.0°C 59.8°F15.4°C 49% 5.1 mph SSE8.2 kmh SSE 12.6 mph20.3 kmh 29.06 in984.1 mb 0.00 in0.0 mm 0.00 in0.0 mm 0.00 in0.0 mm
10:12 AM 80.6°F27.0°C 59.8°F15.4°C 49% 5.3 mph SSE8.5 kmh SSE 12.6 mph20.3 kmh 29.06 in984.1 mb 0.00 in0.0 mm 0.00 in0.0 mm 0.00 in0.0 mm
10:11 AM 80.6°F27.0°C 59.8°F15.4°C 49% 4.9 mph SW7.9 kmh SW 12.6 mph20.3 kmh 29.06 in984.1 mb 0.00 in0.0 mm 0.00 in0.0 mm 0.00 in0.0 mm
10:10 AM 80.4°F26.9°C 59.6°F15.3°C 49% 4.3 mph SSW6.9 kmh SSW 12.6 mph20.3 kmh 29.06 in984.1 mb 0.00 in0.0 mm 0.00 in0.0 mm 0.00 in0.0 mm
10:09 AM 80.4°F26.9°C 59.6°F15.3°C 49% 3.7 mph SSW6.0 kmh SSW 11.0 mph17.7 kmh 29.06 in984.1 mb 0.00 in0.0 mm 0.00 in0.0 mm 0.00 in0.0 mm
10:08 AM 80.4°F26.9°C 59.6°F15.3°C 49% 3.7 mph SW6.0 kmh SW 11.0 mph17.7 kmh 29.06 in984.1 mb 0.00 in0.0 mm 0.00 in0.0 mm 0.00 in0.0 mm
10:07 AM 80.4°F26.9°C 59.6°F15.3°C 49% 3.7 mph SW6.0 kmh SW 11.0 mph17.7 kmh 29.06 in984.1 mb 0.00 in0.0 mm 0.00 in0.0 mm 0.00 in0.0 mm
10:06 AM 80.4°F26.9°C 59.6°F15.3°C 49% 4.0 mph SW6.4 kmh SW 11.0 mph17.7 kmh 29.06 in984.1 mb 0.00 in0.0 mm 0.00 in0.0 mm 0.00 in0.0 mm
10:05 AM 80.4°F26.9°C 59.6°F15.3°C 49% 5.5 mph WSW8.9 kmh WSW 11.0 mph17.7 kmh 29.06 in984.1 mb 0.00 in0.0 mm 0.00 in0.0 mm 0.00 in0.0 mm
10:04 AM 80.4°F26.9°C 59.6°F15.3°C 49% 4.9 mph WSW7.9 kmh WSW 11.0 mph17.7 kmh 29.06 in984.1 mb 0.00 in0.0 mm 0.00 in0.0 mm 0.00 in0.0 mm
10:03 AM 80.4°F26.9°C 59.6°F15.3°C 49% 3.5 mph SSW5.6 kmh SSW 11.0 mph17.7 kmh 29.06 in984.1 mb 0.00 in0.0 mm 0.00 in0.0 mm 0.00 in0.0 mm
10:02 AM 80.2°F26.8°C 59.4°F15.2°C 49% 3.0 mph SSW4.8 kmh SSW 9.1 mph14.6 kmh 29.06 in984.1 mb 0.00 in0.0 mm 0.00 in0.0 mm 0.00 in0.0 mm
10:01 AM 80.2°F26.8°C 59.4°F15.2°C 49% 3.0 mph SW4.8 kmh SW 9.1 mph14.6 kmh 29.06 in984.1 mb 0.00 in0.0 mm 0.00 in0.0 mm 0.00 in0.0 mm
10:00 AM 80.2°F26.8°C 59.4°F15.2°C 49% 3.0 mph SW4.8 kmh SW 9.1 mph14.6 kmh 29.06 in984.1 mb 0.00 in0.0 mm 0.00 in0.0 mm 0.00 in0.0 mm
09:59 AM 80.2°F26.8°C 59.4°F15.2°C 49% 3.0 mph SSW4.8 kmh SSW 7.8 mph12.6 kmh 29.06 in984.1 mb 0.00 in0.0 mm 0.00 in0.0 mm 0.00 in0.0 mm
09:58 AM 80.2°F26.8°C 59.4°F15.2°C 49% 3.7 mph WSW6.0 kmh WSW 9.1 mph14.6 kmh 29.06 in984.1 mb 0.00 in0.0 mm 0.00 in0.0 mm 0.00 in0.0 mm
09:57 AM 80.2°F26.8°C 59.4°F15.2°C 49% 3.7 mph WSW6.0 kmh WSW 9.1 mph14.6 kmh 29.06 in984.1 mb 0.00 in0.0 mm 0.00 in0.0 mm 0.00 in0.0 mm
09:56 AM 80.1°F26.7°C 59.3°F15.2°C 49% 3.7 mph WSW6.0 kmh WSW 9.1 mph14.6 kmh 29.06 in984.1 mb 0.00 in0.0 mm 0.00 in0.0 mm 0.00 in0.0 mm
09:55 AM 80.1°F26.7°C 59.3°F15.2°C 49% 3.7 mph SW6.0 kmh SW 9.1 mph14.6 kmh 29.06 in984.1 mb 0.00 in0.0 mm 0.00 in0.0 mm 0.00 in0.0 mm
09:54 AM 80.1°F26.7°C 59.3°F15.2°C 49% Calm Calm 9.1 mph14.6 kmh 29.06 in984.1 mb 0.00 in0.0 mm 0.00 in0.0 mm 0.00 in0.0 mm
09:53 AM 80.1°F26.7°C 59.3°F15.2°C 49% Calm Calm 9.1 mph14.6 kmh 29.06 in984.1 mb 0.00 in0.0 mm 0.00 in0.0 mm 0.00 in0.0 mm
09:52 AM 80.1°F26.7°C 59.3°F15.2°C 49% Calm Calm 9.1 mph14.6 kmh 29.06 in984.1 mb 0.00 in0.0 mm 0.00 in0.0 mm 0.00 in0.0 mm
09:51 AM 79.9°F26.6°C 59.1°F15.1°C 49% 4.3 mph SSW6.9 kmh SSW 9.1 mph14.6 kmh 29.06 in984.1 mb 0.00 in0.0 mm 0.00 in0.0 mm 0.00 in0.0 mm
09:50 AM 79.9°F26.6°C 59.1°F15.1°C 49% 4.1 mph SSW6.6 kmh SSW 9.1 mph14.6 kmh 29.06 in984.1 mb 0.00 in0.0 mm 0.00 in0.0 mm 0.00 in0.0 mm
09:48 AM 79.9°F26.6°C 59.1°F15.1°C 49% 3.3 mph SW5.3 kmh SW 8.4 mph13.5 kmh 29.06 in984.1 mb 0.00 in0.0 mm 0.00 in0.0 mm 0.00 in0.0 mm
09:47 AM 79.9°F26.6°C 59.1°F15.1°C 49% 3.9 mph SW6.3 kmh SW 8.4 mph13.5 kmh 29.06 in984.1 mb 0.00 in0.0 mm 0.00 in0.0 mm 0.00 in0.0 mm
09:46 AM 79.7°F26.5°C 58.9°F14.9°C 49% 4.0 mph WSW6.4 kmh WSW 8.4 mph13.5 kmh 29.06 in984.1 mb 0.00 in0.0 mm 0.00 in0.0 mm 0.00 in0.0 mm
09:45 AM 79.7°F26.5°C 58.9°F14.9°C 49% 3.5 mph W5.6 kmh W 8.4 mph13.5 kmh 29.06 in984.1 mb 0.00 in0.0 mm 0.00 in0.0 mm 0.00 in0.0 mm
09:44 AM 79.7°F26.5°C 58.9°F14.9°C 49% 3.2 mph WNW5.1 kmh WNW 8.4 mph13.5 kmh 29.06 in984.1 mb 0.00 in0.0 mm 0.00 in0.0 mm 0.00 in0.0 mm
09:43 AM 79.7°F26.5°C 58.9°F14.9°C 49% 3.1 mph WNW5.0 kmh WNW 8.4 mph13.5 kmh 29.06 in984.1 mb 0.00 in0.0 mm 0.00 in0.0 mm 0.00 in0.0 mm
09:42 AM 79.7°F26.5°C 58.9°F14.9°C 49% 3.0 mph S4.8 kmh S 10.4 mph16.7 kmh 29.06 in984.1 mb 0.00 in0.0 mm 0.00 in0.0 mm 0.00 in0.0 mm
09:41 AM 79.7°F26.5°C 58.9°F14.9°C 49% 3.0 mph S4.8 kmh S 10.4 mph16.7 kmh 29.06 in984.1 mb 0.00 in0.0 mm 0.00 in0.0 mm 0.00 in0.0 mm
09:40 AM 79.7°F26.5°C 58.9°F14.9°C 49% 3.0 mph ENE4.8 kmh ENE 10.4 mph16.7 kmh 29.06 in984.1 mb 0.00 in0.0 mm 0.00 in0.0 mm 0.00 in0.0 mm
09:39 AM 79.7°F26.5°C 58.9°F14.9°C 49% 3.0 mph E4.8 kmh E 10.4 mph16.7 kmh 29.06 in984.1 mb 0.00 in0.0 mm 0.00 in0.0 mm 0.00 in0.0 mm
09:38 AM 79.7°F26.5°C 58.9°F14.9°C 49% 3.0 mph SE4.8 kmh SE 10.4 mph16.7 kmh 29.06 in984.1 mb 0.00 in0.0 mm 0.00 in0.0 mm 0.00 in0.0 mm
09:37 AM 79.7°F26.5°C 58.2°F14.6°C 48% 4.3 mph SW6.9 kmh SW 10.4 mph16.7 kmh 29.06 in984.1 mb 0.00 in0.0 mm 0.00 in0.0 mm 0.00 in0.0 mm
09:36 AM 79.7°F26.5°C 58.9°F14.9°C 49% 4.3 mph SSW6.9 kmh SSW 10.4 mph16.7 kmh 29.06 in984.1 mb 0.00 in0.0 mm 0.00 in0.0 mm 0.00 in0.0 mm
09:35 AM 79.7°F26.5°C 58.9°F14.9°C 49% 4.2 mph SW6.8 kmh SW 10.4 mph16.7 kmh 29.06 in984.1 mb 0.00 in0.0 mm 0.00 in0.0 mm 0.00 in0.0 mm
09:34 AM 79.7°F26.5°C 58.9°F14.9°C 49% 3.5 mph SW5.6 kmh SW 10.4 mph16.7 kmh 29.06 in984.1 mb 0.00 in0.0 mm 0.00 in0.0 mm 0.00 in0.0 mm
09:33 AM 79.7°F26.5°C 58.9°F14.9°C 49% 3.3 mph SSW5.3 kmh SSW 8.4 mph13.5 kmh 29.06 in984.1 mb 0.00 in0.0 mm 0.00 in0.0 mm 0.00 in0.0 mm
09:32 AM 79.7°F26.5°C 58.9°F14.9°C 49% 4.2 mph SSW6.8 kmh SSW 8.4 mph13.5 kmh 29.06 in984.1 mb 0.00 in0.0 mm 0.00 in0.0 mm 0.00 in0.0 mm
09:31 AM 79.7°F26.5°C 58.9°F14.9°C 49% 4.6 mph SW7.4 kmh SW 8.4 mph13.5 kmh 29.06 in984.1 mb 0.00 in0.0 mm 0.00 in0.0 mm 0.00 in0.0 mm
09:30 AM 79.7°F26.5°C 58.9°F14.9°C 49% 4.3 mph SW6.9 kmh SW 9.1 mph14.6 kmh 29.06 in984.1 mb 0.00 in0.0 mm 0.00 in0.0 mm 0.00 in0.0 mm
09:29 AM 79.7°F26.5°C 58.9°F14.9°C 49% Calm Calm 9.1 mph14.6 kmh 29.06 in984.1 mb 0.00 in0.0 mm 0.00 in0.0 mm 0.00 in0.0 mm
09:28 AM 79.5°F26.4°C 58.7°F14.8°C 49% Calm Calm 9.1 mph14.6 kmh 29.06 in984.1 mb 0.00 in0.0 mm 0.00 in0.0 mm 0.00 in0.0 mm
09:27 AM 79.5°F26.4°C 58.7°F14.8°C 49% 3.7 mph NNW6.0 kmh NNW 14.6 mph23.5 kmh 29.06 in984.1 mb 0.00 in0.0 mm 0.00 in0.0 mm 0.00 in0.0 mm
09:26 AM 79.5°F26.4°C 58.7°F14.8°C 49% 3.7 mph NNW6.0 kmh NNW 14.6 mph23.5 kmh 29.06 in984.1 mb 0.00 in0.0 mm 0.00 in0.0 mm 0.00 in0.0 mm
09:25 AM 79.5°F26.4°C 58.7°F14.8°C 49% 3.7 mph S6.0 kmh S 14.6 mph23.5 kmh 29.06 in984.1 mb 0.00 in0.0 mm 0.00 in0.0 mm 0.00 in0.0 mm
09:24 AM 79.5°F26.4°C 58.7°F14.8°C 49% 4.1 mph S6.6 kmh S 14.6 mph23.5 kmh 29.06 in984.1 mb 0.00 in0.0 mm 0.00 in0.0 mm 0.00 in0.0 mm
09:23 AM 79.5°F26.4°C 58.7°F14.8°C 49% 4.6 mph S7.4 kmh S 14.6 mph23.5 kmh 29.06 in984.1 mb 0.00 in0.0 mm 0.00 in0.0 mm 0.00 in0.0 mm
09:22 AM 79.3°F26.3°C 58.5°F14.7°C 49% 5.2 mph SW8.4 kmh SW 14.6 mph23.5 kmh 29.06 in984.1 mb 0.00 in0.0 mm 0.00 in0.0 mm 0.00 in0.0 mm
09:21 AM 79.5°F26.4°C 58.7°F14.8°C 49% 4.9 mph SW7.9 kmh SW 14.6 mph23.5 kmh 29.06 in984.1 mb 0.00 in0.0 mm 0.00 in0.0 mm 0.00 in0.0 mm
09:20 AM 79.5°F26.4°C 58.7°F14.8°C 49% 4.9 mph S7.9 kmh S 14.6 mph23.5 kmh 29.06 in984.1 mb 0.00 in0.0 mm 0.00 in0.0 mm 0.00 in0.0 mm
09:19 AM 79.5°F26.4°C 58.7°F14.8°C 49% 5.0 mph S8.0 kmh S 14.6 mph23.5 kmh 29.06 in984.1 mb 0.00 in0.0 mm 0.00 in0.0 mm 0.00 in0.0 mm
09:18 AM 79.5°F26.4°C 59.4°F15.2°C 50% 4.6 mph SW7.4 kmh SW 14.6 mph23.5 kmh 29.06 in984.1 mb 0.00 in0.0 mm 0.00 in0.0 mm 0.00 in0.0 mm
09:17 AM 79.5°F26.4°C 59.4°F15.2°C 50% 4.5 mph SW7.2 kmh SW 14.6 mph23.5 kmh 29.06 in984.1 mb 0.00 in0.0 mm 0.00 in0.0 mm 0.00 in0.0 mm
09:16 AM 79.3°F26.3°C 59.2°F15.1°C 50% 4.0 mph WSW6.4 kmh WSW 12.6 mph20.3 kmh 29.06 in984.1 mb 0.00 in0.0 mm 0.00 in0.0 mm 0.00 in0.0 mm
09:15 AM 79.3°F26.3°C 59.2°F15.1°C 50% 3.6 mph SW5.8 kmh SW 12.6 mph20.3 kmh 29.06 in984.1 mb 0.00 in0.0 mm 0.00 in0.0 mm 0.00 in0.0 mm
09:14 AM 79.3°F26.3°C 59.2°F15.1°C 50% 4.9 mph SSW7.9 kmh SSW 12.6 mph20.3 kmh 29.06 in984.1 mb 0.00 in0.0 mm 0.00 in0.0 mm 0.00 in0.0 mm
09:13 AM 79.2°F26.2°C 59.1°F15.1°C 50% 5.5 mph S8.9 kmh S 12.6 mph20.3 kmh 29.06 in984.1 mb 0.00 in0.0 mm 0.00 in0.0 mm 0.00 in0.0 mm
09:12 AM 79.2°F26.2°C 59.1°F15.1°C 50% 4.7 mph S7.6 kmh S 12.6 mph20.3 kmh 29.06 in984.1 mb 0.00 in0.0 mm 0.00 in0.0 mm 0.00 in0.0 mm
09:11 AM 79.0°F26.1°C 58.9°F14.9°C 50% 4.4 mph SSW7.1 kmh SSW 12.6 mph20.3 kmh 29.06 in984.1 mb 0.00 in0.0 mm 0.00 in0.0 mm 0.00 in0.0 mm
09:10 AM 79.0°F26.1°C 58.9°F14.9°C 50% 4.3 mph SSW6.9 kmh SSW 12.6 mph20.3 kmh 29.06 in984.1 mb 0.00 in0.0 mm 0.00 in0.0 mm 0.00 in0.0 mm
09:09 AM 78.8°F26.0°C 59.4°F15.2°C 51% 4.8 mph S7.7 kmh S 12.6 mph20.3 kmh 29.06 in984.1 mb 0.00 in0.0 mm 0.00 in0.0 mm 0.00 in0.0 mm
09:08 AM 78.8°F26.0°C 59.4°F15.2°C 51% 5.3 mph S8.5 kmh S 10.4 mph16.7 kmh 29.06 in984.1 mb 0.00 in0.0 mm 0.00 in0.0 mm 0.00 in0.0 mm
09:07 AM 78.6°F25.9°C 59.2°F15.1°C 51% 5.2 mph SW8.4 kmh SW 10.4 mph16.7 kmh 29.06 in984.1 mb 0.00 in0.0 mm 0.00 in0.0 mm 0.00 in0.0 mm
09:06 AM 78.3°F25.7°C 58.9°F14.9°C 51% 4.7 mph S7.6 kmh S 10.4 mph16.7 kmh 29.06 in984.1 mb 0.00 in0.0 mm 0.00 in0.0 mm 0.00 in0.0 mm
09:05 AM 78.3°F25.7°C 58.9°F14.9°C 51% 4.7 mph S7.6 kmh S 10.4 mph16.7 kmh 29.06 in984.1 mb 0.00 in0.0 mm 0.00 in0.0 mm 0.00 in0.0 mm
09:04 AM 78.1°F25.6°C 58.7°F14.8°C 51% 5.0 mph S8.0 kmh S 10.4 mph16.7 kmh 29.06 in984.1 mb 0.00 in0.0 mm 0.00 in0.0 mm 0.00 in0.0 mm
09:03 AM 77.9°F25.5°C 58.6°F14.8°C 51% 4.9 mph S7.9 kmh S 10.4 mph16.7 kmh 29.06 in984.1 mb 0.00 in0.0 mm 0.00 in0.0 mm 0.00 in0.0 mm
09:02 AM 77.7°F25.4°C 58.4°F14.7°C 51% 3.6 mph SSE5.8 kmh SSE 11.7 mph18.8 kmh 29.06 in984.1 mb 0.00 in0.0 mm 0.00 in0.0 mm 0.00 in0.0 mm
09:01 AM 77.5°F25.3°C 58.2°F14.6°C 51% 3.2 mph SSE5.1 kmh SSE 11.7 mph18.8 kmh 29.06 in984.1 mb 0.00 in0.0 mm 0.00 in0.0 mm 0.00 in0.0 mm
09:00 AM 77.5°F25.3°C 58.2°F14.6°C 51% 3.4 mph S5.5 kmh S 11.7 mph18.8 kmh 29.06 in984.1 mb 0.00 in0.0 mm 0.00 in0.0 mm 0.00 in0.0 mm
08:59 AM 77.4°F25.2°C 58.1°F14.5°C 51% 4.6 mph SW7.4 kmh SW 11.7 mph18.8 kmh 29.06 in984.1 mb 0.00 in0.0 mm 0.00 in0.0 mm 0.00 in0.0 mm
08:58 AM 77.4°F25.2°C 58.1°F14.5°C 51% 4.8 mph SW7.7 kmh SW 11.7 mph18.8 kmh 29.06 in984.1 mb 0.00 in0.0 mm 0.00 in0.0 mm 0.00 in0.0 mm
08:57 AM 77.2°F25.1°C 58.5°F14.7°C 52% 4.9 mph SW7.9 kmh SW 11.7 mph18.8 kmh 29.06 in984.1 mb 0.00 in0.0 mm 0.00 in0.0 mm 0.00 in0.0 mm
08:56 AM 77.0°F25.0°C 57.7°F14.3°C 51% 5.9 mph SSW9.5 kmh SSW 11.7 mph18.8 kmh 29.06 in984.1 mb 0.00 in0.0 mm 0.00 in0.0 mm 0.00 in0.0 mm
08:55 AM 76.8°F24.9°C 58.2°F14.6°C 52% 6.3 mph S10.1 kmh S 11.7 mph18.8 kmh 29.06 in984.1 mb 0.00 in0.0 mm 0.00 in0.0 mm 0.00 in0.0 mm
08:54 AM 76.6°F24.8°C 58.0°F14.4°C 52% 5.9 mph S9.5 kmh S 11.7 mph18.8 kmh 29.06 in984.1 mb 0.00 in0.0 mm 0.00 in0.0 mm 0.00 in0.0 mm
08:53 AM 76.6°F24.8°C 58.0°F14.4°C 52% 5.6 mph S9.0 kmh S 11.7 mph18.8 kmh 29.06 in984.1 mb 0.00 in0.0 mm 0.00 in0.0 mm 0.00 in0.0 mm
08:52 AM 76.5°F24.7°C 57.9°F14.4°C 52% 3.0 mph W4.8 kmh W 9.1 mph14.6 kmh 29.06 in984.1 mb 0.00 in0.0 mm 0.00 in0.0 mm 0.00 in0.0 mm
08:51 AM 76.3°F24.6°C 57.7°F14.3°C 52% 3.3 mph WSW5.3 kmh WSW 9.1 mph14.6 kmh 29.06 in984.1 mb 0.00 in0.0 mm 0.00 in0.0 mm 0.00 in0.0 mm
08:50 AM 76.3°F24.6°C 57.7°F14.3°C 52% 3.5 mph SW5.6 kmh SW 9.1 mph14.6 kmh 29.06 in984.1 mb 0.00 in0.0 mm 0.00 in0.0 mm 0.00 in0.0 mm
08:49 AM 76.1°F24.5°C 57.5°F14.2°C 52% 4.1 mph SSW6.6 kmh SSW 9.1 mph14.6 kmh 29.06 in984.1 mb 0.00 in0.0 mm 0.00 in0.0 mm 0.00 in0.0 mm
08:48 AM 76.1°F24.5°C 56.9°F13.8°C 51% 4.3 mph S6.9 kmh S 9.1 mph14.6 kmh 29.06 in984.1 mb 0.00 in0.0 mm 0.00 in0.0 mm 0.00 in0.0 mm
08:47 AM 75.9°F24.4°C 56.7°F13.7°C 51% 3.7 mph S6.0 kmh S 12.0 mph19.3 kmh 29.06 in984.1 mb 0.00 in0.0 mm 0.00 in0.0 mm 0.00 in0.0 mm
08:46 AM 75.9°F24.4°C 56.7°F13.7°C 51% 3.6 mph S5.8 kmh S 12.0 mph19.3 kmh 29.06 in984.1 mb 0.00 in0.0 mm 0.00 in0.0 mm 0.00 in0.0 mm
08:45 AM 75.9°F24.4°C 56.7°F13.7°C 51% 4.2 mph S6.8 kmh S 12.0 mph19.3 kmh 29.06 in984.1 mb 0.00 in0.0 mm 0.00 in0.0 mm 0.00 in0.0 mm
08:44 AM 75.9°F24.4°C 56.7°F13.7°C 51% 3.8 mph SSW6.1 kmh SSW 12.0 mph19.3 kmh 29.06 in984.1 mb 0.00 in0.0 mm 0.00 in0.0 mm 0.00 in0.0 mm
08:43 AM 75.9°F24.4°C 56.7°F13.7°C 51% 3.5 mph SW5.6 kmh SW 12.0 mph19.3 kmh 29.06 in984.1 mb 0.00 in0.0 mm 0.00 in0.0 mm 0.00 in0.0 mm
08:42 AM 75.9°F24.4°C 56.7°F13.7°C 51% 3.7 mph SW6.0 kmh SW 12.0 mph19.3 kmh 29.06 in984.1 mb 0.00 in0.0 mm 0.00 in0.0 mm 0.00 in0.0 mm
08:41 AM 75.9°F24.4°C 56.7°F13.7°C 51% 4.3 mph S6.9 kmh S 12.0 mph19.3 kmh 29.06 in984.1 mb 0.00 in0.0 mm 0.00 in0.0 mm 0.00 in0.0 mm
08:40 AM 76.1°F24.5°C 56.8°F13.8°C 51% 4.9 mph SSE7.9 kmh SSE 12.0 mph19.3 kmh 29.06 in984.1 mb 0.00 in0.0 mm 0.00 in0.0 mm 0.00 in0.0 mm
08:39 AM 76.1°F24.5°C 56.8°F13.8°C 51% 4.9 mph SSW7.9 kmh SSW 12.0 mph19.3 kmh 29.06 in984.1 mb 0.00 in0.0 mm 0.00 in0.0 mm 0.00 in0.0 mm
08:38 AM 76.1°F24.5°C 56.8°F13.8°C 51% 4.2 mph WSW6.8 kmh WSW 12.0 mph19.3 kmh 29.06 in984.1 mb 0.00 in0.0 mm 0.00 in0.0 mm 0.00 in0.0 mm
08:37 AM 76.1°F24.5°C 56.8°F13.8°C 51% 4.1 mph WSW6.6 kmh WSW 10.4 mph16.7 kmh 29.06 in984.1 mb 0.00 in0.0 mm 0.00 in0.0 mm 0.00 in0.0 mm
08:36 AM 76.1°F24.5°C 57.5°F14.2°C 52% 4.8 mph SSW7.7 kmh SSW 10.4 mph16.7 kmh 29.06 in984.1 mb 0.00 in0.0 mm 0.00 in0.0 mm 0.00 in0.0 mm
08:35 AM 76.1°F24.5°C 57.5°F14.2°C 52% 4.8 mph SSW7.7 kmh SSW 9.7 mph15.6 kmh 29.06 in984.1 mb 0.00 in0.0 mm 0.00 in0.0 mm 0.00 in0.0 mm
08:34 AM 76.1°F24.5°C 57.5°F14.2°C 52% 4.5 mph SSW7.2 kmh SSW 9.7 mph15.6 kmh 29.06 in984.1 mb 0.00 in0.0 mm 0.00 in0.0 mm 0.00 in0.0 mm
08:33 AM 76.1°F24.5°C 57.5°F14.2°C 52% 3.7 mph SW6.0 kmh SW 11.7 mph18.8 kmh 29.06 in984.1 mb 0.00 in0.0 mm 0.00 in0.0 mm 0.00 in0.0 mm
08:32 AM 75.9°F24.4°C 57.3°F14.1°C 52% 3.7 mph SW6.0 kmh SW 11.7 mph18.8 kmh 29.06 in984.1 mb 0.00 in0.0 mm 0.00 in0.0 mm 0.00 in0.0 mm
08:31 AM 75.9°F24.4°C 57.3°F14.1°C 52% 3.8 mph WSW6.1 kmh WSW 11.7 mph18.8 kmh 29.06 in984.1 mb 0.00 in0.0 mm 0.00 in0.0 mm 0.00 in0.0 mm
08:30 AM 75.9°F24.4°C 57.9°F14.4°C 53% 4.7 mph SW7.6 kmh SW 14.6 mph23.5 kmh 29.06 in984.1 mb 0.00 in0.0 mm 0.00 in0.0 mm 0.00 in0.0 mm
08:29 AM 75.7°F24.3°C 57.7°F14.3°C 53% 5.1 mph SSW8.2 kmh SSW 14.6 mph23.5 kmh 29.06 in984.1 mb 0.00 in0.0 mm 0.00 in0.0 mm 0.00 in0.0 mm
08:28 AM 75.6°F24.2°C 57.6°F14.2°C 53% 4.6 mph S7.4 kmh S 14.6 mph23.5 kmh 29.06 in984.1 mb 0.00 in0.0 mm 0.00 in0.0 mm 0.00 in0.0 mm
08:27 AM 75.6°F24.2°C 57.6°F14.2°C 53% 4.7 mph S7.6 kmh S 14.6 mph23.5 kmh 29.06 in984.1 mb 0.00 in0.0 mm 0.00 in0.0 mm 0.00 in0.0 mm
08:26 AM 75.4°F24.1°C 57.4°F14.1°C 53% 5.3 mph SSW8.5 kmh SSW 14.6 mph23.5 kmh 29.06 in984.1 mb 0.00 in0.0 mm 0.00 in0.0 mm 0.00 in0.0 mm
08:25 AM 75.4°F24.1°C 57.4°F14.1°C 53% 5.0 mph SSW8.0 kmh SSW 14.6 mph23.5 kmh 29.06 in984.1 mb 0.00 in0.0 mm 0.00 in0.0 mm 0.00 in0.0 mm
08:24 AM 75.2°F24.0°C 56.6°F13.7°C 52% 5.2 mph SSW8.4 kmh SSW 14.6 mph23.5 kmh 29.06 in984.1 mb 0.00 in0.0 mm 0.00 in0.0 mm 0.00 in0.0 mm
08:23 AM 75.2°F24.0°C 56.6°F13.7°C 52% 6.0 mph SSW9.7 kmh SSW 14.6 mph23.5 kmh 29.06 in984.1 mb 0.00 in0.0 mm 0.00 in0.0 mm 0.00 in0.0 mm
08:22 AM 75.0°F23.9°C 57.1°F13.9°C 53% 5.3 mph SW8.5 kmh SW 14.6 mph23.5 kmh 29.06 in984.1 mb 0.00 in0.0 mm 0.00 in0.0 mm 0.00 in0.0 mm
08:21 AM 75.0°F23.9°C 57.1°F13.9°C 53% 4.3 mph SW6.9 kmh SW 14.6 mph23.5 kmh 29.06 in984.1 mb 0.00 in0.0 mm 0.00 in0.0 mm 0.00 in0.0 mm
08:20 AM 75.0°F23.9°C 57.1°F13.9°C 53% 4.3 mph SW6.9 kmh SW 11.0 mph17.7 kmh 29.06 in984.1 mb 0.00 in0.0 mm 0.00 in0.0 mm 0.00 in0.0 mm
08:19 AM 75.0°F23.9°C 57.1°F13.9°C 53% 4.3 mph S6.9 kmh S 11.0 mph17.7 kmh 29.06 in984.1 mb 0.00 in0.0 mm 0.00 in0.0 mm 0.00 in0.0 mm
08:18 AM 74.8°F23.8°C 56.9°F13.8°C 53% 3.9 mph S6.3 kmh S 11.0 mph17.7 kmh 29.06 in984.1 mb 0.00 in0.0 mm 0.00 in0.0 mm 0.00 in0.0 mm
08:17 AM 74.8°F23.8°C 56.9°F13.8°C 53% 3.3 mph S5.3 kmh S 11.0 mph17.7 kmh 29.06 in984.1 mb 0.00 in0.0 mm 0.00 in0.0 mm 0.00 in0.0 mm
08:16 AM 74.8°F23.8°C 56.9°F13.8°C 53% 4.1 mph SSW6.6 kmh SSW 11.0 mph17.7 kmh 29.06 in984.1 mb 0.00 in0.0 mm 0.00 in0.0 mm 0.00 in0.0 mm
08:14 AM 74.7°F23.7°C 56.8°F13.8°C 53% 6.6 mph S10.6 kmh S 11.0 mph17.7 kmh 29.06 in984.1 mb 0.00 in0.0 mm 0.00 in0.0 mm 0.00 in0.0 mm
08:13 AM 74.7°F23.7°C 56.8°F13.8°C 53% 5.6 mph S9.0 kmh S 11.0 mph17.7 kmh 29.06 in984.1 mb 0.00 in0.0 mm 0.00 in0.0 mm 0.00 in0.0 mm
08:12 AM 74.5°F23.6°C 56.6°F13.7°C 53% 4.7 mph S7.6 kmh S 11.0 mph17.7 kmh 29.06 in984.1 mb 0.00 in0.0 mm 0.00 in0.0 mm 0.00 in0.0 mm
08:11 AM 74.5°F23.6°C 56.6°F13.7°C 53% 5.0 mph S8.0 kmh S 11.0 mph17.7 kmh 29.06 in984.1 mb 0.00 in0.0 mm 0.00 in0.0 mm 0.00 in0.0 mm
08:10 AM 74.5°F23.6°C 56.6°F13.7°C 53% 5.2 mph S8.4 kmh S 11.0 mph17.7 kmh 29.06 in984.1 mb 0.00 in0.0 mm 0.00 in0.0 mm 0.00 in0.0 mm
08:09 AM 74.3°F23.5°C 56.4°F13.6°C 53% 5.3 mph S8.5 kmh S 11.0 mph17.7 kmh 29.06 in984.1 mb 0.00 in0.0 mm 0.00 in0.0 mm 0.00 in0.0 mm
08:08 AM 74.3°F23.5°C 56.4°F13.6°C 53% 4.4 mph SSW7.1 kmh SSW 11.0 mph17.7 kmh 29.06 in984.1 mb 0.00 in0.0 mm 0.00 in0.0 mm 0.00 in0.0 mm
08:07 AM 74.3°F23.5°C 56.4°F13.6°C 53% 4.1 mph SSW6.6 kmh SSW 11.0 mph17.7 kmh 29.06 in984.1 mb 0.00 in0.0 mm 0.00 in0.0 mm 0.00 in0.0 mm
08:06 AM 74.1°F23.4°C 56.8°F13.8°C 55% 4.3 mph S6.9 kmh S 11.0 mph17.7 kmh 29.06 in984.1 mb 0.00 in0.0 mm 0.00 in0.0 mm 0.00 in0.0 mm
08:05 AM 74.1°F23.4°C 56.8°F13.8°C 55% 4.6 mph S7.4 kmh S 9.1 mph14.6 kmh 29.06 in984.1 mb 0.00 in0.0 mm 0.00 in0.0 mm 0.00 in0.0 mm
08:04 AM 73.9°F23.3°C 56.6°F13.7°C 55% 4.4 mph S7.1 kmh S 9.1 mph14.6 kmh 29.06 in984.1 mb 0.00 in0.0 mm 0.00 in0.0 mm 0.00 in0.0 mm
08:03 AM 73.9°F23.3°C 56.6°F13.7°C 55% 3.9 mph SSW6.3 kmh SSW 9.1 mph14.6 kmh 29.06 in984.1 mb 0.00 in0.0 mm 0.00 in0.0 mm 0.00 in0.0 mm
08:02 AM 73.8°F23.2°C 56.5°F13.6°C 55% 3.4 mph S5.5 kmh S 9.1 mph14.6 kmh 29.06 in984.1 mb 0.00 in0.0 mm 0.00 in0.0 mm 0.00 in0.0 mm
08:01 AM 73.6°F23.1°C 55.7°F13.2°C 53% 3.9 mph S6.3 kmh S 9.1 mph14.6 kmh 29.06 in984.1 mb 0.00 in0.0 mm 0.00 in0.0 mm 0.00 in0.0 mm
08:00 AM 73.6°F23.1°C 55.7°F13.2°C 53% 5.1 mph S8.2 kmh S 9.1 mph14.6 kmh 29.06 in984.1 mb 0.00 in0.0 mm 0.00 in0.0 mm 0.00 in0.0 mm
07:59 AM 73.6°F23.1°C 55.7°F13.2°C 53% 5.5 mph S8.9 kmh S 9.1 mph14.6 kmh 29.06 in984.1 mb 0.00 in0.0 mm 0.00 in0.0 mm 0.00 in0.0 mm
07:58 AM 73.6°F23.1°C 55.7°F13.2°C 53% 4.9 mph S7.9 kmh S 9.1 mph14.6 kmh 29.06 in984.1 mb 0.00 in0.0 mm 0.00 in0.0 mm 0.00 in0.0 mm
07:57 AM 73.4°F23.0°C 55.5°F13.1°C 53% 3.7 mph S6.0 kmh S 8.4 mph13.5 kmh 29.06 in984.1 mb 0.00 in0.0 mm 0.00 in0.0 mm 0.00 in0.0 mm
07:56 AM 73.4°F23.0°C 56.1°F13.4°C 55% 3.0 mph WSW4.8 kmh WSW 8.4 mph13.5 kmh 29.06 in984.1 mb 0.00 in0.0 mm 0.00 in0.0 mm 0.00 in0.0 mm
07:55 AM 73.2°F22.9°C 55.9°F13.3°C 55% 3.0 mph SW4.8 kmh SW 11.0 mph17.7 kmh 29.06 in984.1 mb 0.00 in0.0 mm 0.00 in0.0 mm 0.00 in0.0 mm
07:54 AM 73.2°F22.9°C 55.9°F13.3°C 55% 3.0 mph SSW4.8 kmh SSW 11.0 mph17.7 kmh 29.06 in984.1 mb 0.00 in0.0 mm 0.00 in0.0 mm 0.00 in0.0 mm
07:53 AM 73.2°F22.9°C 55.9°F13.3°C 55% 3.4 mph S5.5 kmh S 11.0 mph17.7 kmh 29.06 in984.1 mb 0.00 in0.0 mm 0.00 in0.0 mm 0.00 in0.0 mm
07:52 AM 73.0°F22.8°C 55.7°F13.2°C 55% 3.7 mph S6.0 kmh S 11.0 mph17.7 kmh 29.06 in984.1 mb 0.00 in0.0 mm 0.00 in0.0 mm 0.00 in0.0 mm
07:51 AM 73.0°F22.8°C 55.7°F13.2°C 54% 4.3 mph S6.9 kmh S 11.0 mph17.7 kmh 29.06 in984.1 mb 0.00 in0.0 mm 0.00 in0.0 mm 0.00 in0.0 mm
07:50 AM 72.9°F22.7°C 55.6°F13.1°C 54% 4.3 mph S6.9 kmh S 11.0 mph17.7 kmh 29.06 in984.1 mb 0.00 in0.0 mm 0.00 in0.0 mm 0.00 in0.0 mm
07:49 AM 72.9°F22.7°C 55.6°F13.1°C 54% 4.3 mph SW6.9 kmh SW 11.0 mph17.7 kmh 29.06 in984.1 mb 0.00 in0.0 mm 0.00 in0.0 mm 0.00 in0.0 mm
07:48 AM 72.7°F22.6°C 55.5°F13.1°C 54% 4.5 mph WSW7.2 kmh WSW 11.0 mph17.7 kmh 29.06 in984.1 mb 0.00 in0.0 mm 0.00 in0.0 mm 0.00 in0.0 mm
07:47 AM 72.7°F22.6°C 55.4°F13.0°C 54% 5.2 mph SW8.4 kmh SW 11.0 mph17.7 kmh 29.06 in984.1 mb 0.00 in0.0 mm 0.00 in0.0 mm 0.00 in0.0 mm
07:46 AM 72.7°F22.6°C 55.4°F13.0°C 54% 4.6 mph SSW7.4 kmh SSW 11.0 mph17.7 kmh 29.06 in984.1 mb 0.00 in0.0 mm 0.00 in0.0 mm 0.00 in0.0 mm
07:45 AM 72.5°F22.5°C 55.3°F12.9°C 54% 3.6 mph SSW5.8 kmh SSW 8.4 mph13.5 kmh 29.06 in984.1 mb 0.00 in0.0 mm 0.00 in0.0 mm 0.00 in0.0 mm
07:44 AM 72.5°F22.5°C 55.3°F12.9°C 54% 4.3 mph SW6.9 kmh SW 8.4 mph13.5 kmh 29.06 in984.1 mb 0.00 in0.0 mm 0.00 in0.0 mm 0.00 in0.0 mm
07:43 AM 72.5°F22.5°C 55.3°F12.9°C 54% Calm Calm 9.1 mph14.6 kmh 29.06 in984.1 mb 0.00 in0.0 mm 0.00 in0.0 mm 0.00 in0.0 mm
07:42 AM 72.5°F22.5°C 55.3°F12.9°C 54% 3.7 mph S6.0 kmh S 9.1 mph14.6 kmh 29.06 in984.1 mb 0.00 in0.0 mm 0.00 in0.0 mm 0.00 in0.0 mm
07:41 AM 72.3°F22.4°C 55.1°F12.8°C 54% 4.0 mph S6.4 kmh S 9.1 mph14.6 kmh 29.06 in984.1 mb 0.00 in0.0 mm 0.00 in0.0 mm 0.00 in0.0 mm
07:40 AM 72.3°F22.4°C 55.1°F12.8°C 54% 4.8 mph SSW7.7 kmh SSW 9.1 mph14.6 kmh 29.06 in984.1 mb 0.00 in0.0 mm 0.00 in0.0 mm 0.00 in0.0 mm
07:39 AM 72.3°F22.4°C 55.1°F12.8°C 54% 4.7 mph S7.6 kmh S 9.1 mph14.6 kmh 29.06 in984.1 mb 0.00 in0.0 mm 0.00 in0.0 mm 0.00 in0.0 mm
07:38 AM 72.3°F22.4°C 55.1°F12.8°C 54% 3.5 mph S5.6 kmh S 9.1 mph14.6 kmh 29.06 in984.1 mb 0.00 in0.0 mm 0.00 in0.0 mm 0.00 in0.0 mm
07:37 AM 72.1°F22.3°C 54.9°F12.7°C 54% 3.4 mph SE5.5 kmh SE 9.1 mph14.6 kmh 29.06 in984.1 mb 0.00 in0.0 mm 0.00 in0.0 mm 0.00 in0.0 mm
07:36 AM 72.1°F22.3°C 54.9°F12.7°C 54% 4.4 mph S7.1 kmh S 9.1 mph14.6 kmh 29.06 in984.1 mb 0.00 in0.0 mm 0.00 in0.0 mm 0.00 in0.0 mm
07:35 AM 72.0°F22.2°C 54.8°F12.7°C 54% 4.3 mph SSW6.9 kmh SSW 9.1 mph14.6 kmh 29.06 in984.1 mb 0.00 in0.0 mm 0.00 in0.0 mm 0.00 in0.0 mm
07:34 AM 72.0°F22.2°C 54.8°F12.7°C 54% 3.8 mph S6.1 kmh S 9.1 mph14.6 kmh 29.06 in984.1 mb 0.00 in0.0 mm 0.00 in0.0 mm 0.00 in0.0 mm
07:33 AM 72.0°F22.2°C 54.8°F12.7°C 54% 4.1 mph S6.6 kmh S 8.4 mph13.5 kmh 29.06 in984.1 mb 0.00 in0.0 mm 0.00 in0.0 mm 0.00 in0.0 mm
07:31 AM 71.8°F22.1°C 54.6°F12.6°C 54% 3.0 mph SSE4.8 kmh SSE 9.1 mph14.6 kmh 29.06 in984.1 mb 0.00 in0.0 mm 0.00 in0.0 mm 0.00 in0.0 mm
07:30 AM 71.8°F22.1°C 54.6°F12.6°C 54% 3.0 mph S4.8 kmh S 9.1 mph14.6 kmh 29.06 in984.1 mb 0.00 in0.0 mm 0.00 in0.0 mm 0.00 in0.0 mm
07:29 AM 71.6°F22.0°C 54.4°F12.4°C 54% 3.0 mph SSW4.8 kmh SSW 9.1 mph14.6 kmh 29.06 in984.1 mb 0.00 in0.0 mm 0.00 in0.0 mm 0.00 in0.0 mm
07:28 AM 71.6°F22.0°C 54.4°F12.4°C 54% 3.0 mph SSW4.8 kmh SSW 9.1 mph14.6 kmh 29.06 in984.1 mb 0.00 in0.0 mm 0.00 in0.0 mm 0.00 in0.0 mm
07:27 AM 71.4°F21.9°C 54.2°F12.3°C 54% Calm Calm 9.1 mph14.6 kmh 29.06 in984.1 mb 0.00 in0.0 mm 0.00 in0.0 mm 0.00 in0.0 mm
07:26 AM 71.4°F21.9°C 54.2°F12.3°C 54% Calm Calm 9.1 mph14.6 kmh 29.06 in984.1 mb 0.00 in0.0 mm 0.00 in0.0 mm 0.00 in0.0 mm
07:25 AM 71.2°F21.8°C 54.0°F12.2°C 54% 3.0 mph S4.8 kmh S 9.1 mph14.6 kmh 29.06 in984.1 mb 0.00 in0.0 mm 0.00 in0.0 mm 0.00 in0.0 mm
07:24 AM 71.2°F21.8°C 54.0°F12.2°C 54% 3.0 mph S4.8 kmh S 10.4 mph16.7 kmh 29.06 in984.1 mb 0.00 in0.0 mm 0.00 in0.0 mm 0.00 in0.0 mm
07:23 AM 71.1°F21.7°C 53.9°F12.2°C 54% 3.6 mph S5.8 kmh S 10.4 mph16.7 kmh 29.06 in984.1 mb 0.00 in0.0 mm 0.00 in0.0 mm 0.00 in0.0 mm
07:22 AM 71.1°F21.7°C 53.9°F12.2°C 54% 4.1 mph S6.6 kmh S 10.4 mph16.7 kmh 29.06 in984.1 mb 0.00 in0.0 mm 0.00 in0.0 mm 0.00 in0.0 mm
07:21 AM 71.1°F21.7°C 53.9°F12.2°C 54% 4.0 mph SSW6.4 kmh SSW 11.0 mph17.7 kmh 29.06 in984.1 mb 0.00 in0.0 mm 0.00 in0.0 mm 0.00 in0.0 mm
07:20 AM 70.9°F21.6°C 53.7°F12.1°C 54% 3.8 mph SSW6.1 kmh SSW 11.0 mph17.7 kmh 29.06 in984.1 mb 0.00 in0.0 mm 0.00 in0.0 mm 0.00 in0.0 mm
07:19 AM 70.9°F21.6°C 53.7°F12.1°C 54% 3.6 mph S5.8 kmh S 11.0 mph17.7 kmh 29.06 in984.1 mb 0.00 in0.0 mm 0.00 in0.0 mm 0.00 in0.0 mm
07:18 AM 70.7°F21.5°C 53.5°F11.9°C 54% 4.6 mph S7.4 kmh S 11.0 mph17.7 kmh 29.06 in984.1 mb 0.00 in0.0 mm 0.00 in0.0 mm 0.00 in0.0 mm
07:17 AM 70.7°F21.5°C 53.5°F11.9°C 54% 4.8 mph SSW7.7 kmh SSW 11.0 mph17.7 kmh 29.06 in984.1 mb 0.00 in0.0 mm 0.00 in0.0 mm 0.00 in0.0 mm
07:16 AM 70.7°F21.5°C 53.5°F11.9°C 54% 4.6 mph SSW7.4 kmh SSW 11.0 mph17.7 kmh 29.06 in984.1 mb 0.00 in0.0 mm 0.00 in0.0 mm 0.00 in0.0 mm
07:15 AM 70.7°F21.5°C 53.5°F11.9°C 54% 4.2 mph S6.8 kmh S 11.0 mph17.7 kmh 29.06 in984.1 mb 0.00 in0.0 mm 0.00 in0.0 mm 0.00 in0.0 mm
07:14 AM 70.7°F21.5°C 53.5°F11.9°C 54% 4.8 mph S7.7 kmh S 11.0 mph17.7 kmh 29.06 in984.1 mb 0.00 in0.0 mm 0.00 in0.0 mm 0.00 in0.0 mm
07:13 AM 70.5°F21.4°C 53.3°F11.8°C 54% 5.7 mph S9.2 kmh S 11.0 mph17.7 kmh 29.06 in984.1 mb 0.00 in0.0 mm 0.00 in0.0 mm 0.00 in0.0 mm
07:12 AM 70.5°F21.4°C 53.3°F11.8°C 54% 4.4 mph S7.1 kmh S 11.0 mph17.7 kmh 29.06 in984.1 mb 0.00 in0.0 mm 0.00 in0.0 mm 0.00 in0.0 mm
07:11 AM 70.5°F21.4°C 53.3°F11.8°C 54% 3.9 mph S6.3 kmh S 7.8 mph12.6 kmh 29.06 in984.1 mb 0.00 in0.0 mm 0.00 in0.0 mm 0.00 in0.0 mm
07:10 AM 70.3°F21.3°C 53.1°F11.7°C 54% 3.7 mph S6.0 kmh S 7.8 mph12.6 kmh 29.06 in984.1 mb 0.00 in0.0 mm 0.00 in0.0 mm 0.00 in0.0 mm
07:09 AM 70.3°F21.3°C 53.1°F11.7°C 54% 4.5 mph S7.2 kmh S 7.8 mph12.6 kmh 29.06 in984.1 mb 0.00 in0.0 mm 0.00 in0.0 mm 0.00 in0.0 mm
07:08 AM 70.3°F21.3°C 52.5°F11.4°C 53% 4.4 mph SSW7.1 kmh SSW 7.8 mph12.6 kmh 29.06 in984.1 mb 0.00 in0.0 mm 0.00 in0.0 mm 0.00 in0.0 mm
07:07 AM 70.3°F21.3°C 52.5°F11.4°C 53% 4.4 mph S7.1 kmh S 8.4 mph13.5 kmh 29.06 in984.1 mb 0.00 in0.0 mm 0.00 in0.0 mm 0.00 in0.0 mm
07:06 AM 70.3°F21.3°C 52.5°F11.4°C 53% 4.7 mph S7.6 kmh S 8.4 mph13.5 kmh 29.06 in984.1 mb 0.00 in0.0 mm 0.00 in0.0 mm 0.00 in0.0 mm
07:05 AM 70.2°F21.2°C 52.4°F11.3°C 53% 3.7 mph S6.0 kmh S 8.4 mph13.5 kmh 29.06 in984.1 mb 0.00 in0.0 mm 0.00 in0.0 mm 0.00 in0.0 mm
07:04 AM 70.2°F21.2°C 52.4°F11.3°C 53% 3.9 mph S6.3 kmh S 8.4 mph13.5 kmh 29.06 in984.1 mb 0.00 in0.0 mm 0.00 in0.0 mm 0.00 in0.0 mm
07:03 AM 70.2°F21.2°C 52.4°F11.3°C 53% 4.3 mph S6.9 kmh S 8.4 mph13.5 kmh 29.06 in984.1 mb 0.00 in0.0 mm 0.00 in0.0 mm 0.00 in0.0 mm
07:02 AM 70.2°F21.2°C 52.4°F11.3°C 53% 4.3 mph S6.9 kmh S 8.4 mph13.5 kmh 29.06 in984.1 mb 0.00 in0.0 mm 0.00 in0.0 mm 0.00 in0.0 mm
07:01 AM 70.0°F21.1°C 52.2°F11.2°C 53% 3.7 mph SSW6.0 kmh SSW 8.4 mph13.5 kmh 29.06 in984.1 mb 0.00 in0.0 mm 0.00 in0.0 mm 0.00 in0.0 mm
07:00 AM 70.0°F21.1°C 52.2°F11.2°C 53% 3.7 mph S6.0 kmh S 8.4 mph13.5 kmh 29.06 in984.1 mb 0.00 in0.0 mm 0.00 in0.0 mm 0.00 in0.0 mm
06:59 AM 70.0°F21.1°C 52.2°F11.2°C 53% 3.7 mph S6.0 kmh S 8.4 mph13.5 kmh 29.06 in984.1 mb 0.00 in0.0 mm 0.00 in0.0 mm 0.00 in0.0 mm
06:58 AM 70.0°F21.1°C 52.2°F11.2°C 53% 3.8 mph S6.1 kmh S 8.4 mph13.5 kmh 29.06 in984.1 mb 0.00 in0.0 mm 0.00 in0.0 mm 0.00 in0.0 mm
06:57 AM 69.8°F21.0°C 52.0°F11.1°C 53% 4.0 mph S6.4 kmh S 8.4 mph13.5 kmh 29.06 in984.1 mb 0.00 in0.0 mm 0.00 in0.0 mm 0.00 in0.0 mm
06:56 AM 69.8°F21.0°C 52.0°F11.1°C 53% 4.0 mph S6.4 kmh S 8.4 mph13.5 kmh 29.06 in984.1 mb 0.00 in0.0 mm 0.00 in0.0 mm 0.00 in0.0 mm
06:55 AM 69.8°F21.0°C 52.0°F11.1°C 53% 3.7 mph SSW6.0 kmh SSW 8.4 mph13.5 kmh 29.06 in984.1 mb 0.00 in0.0 mm 0.00 in0.0 mm 0.00 in0.0 mm
06:54 AM 69.8°F21.0°C 52.0°F11.1°C 53% 3.5 mph SW5.6 kmh SW 8.4 mph13.5 kmh 29.06 in984.1 mb 0.00 in0.0 mm 0.00 in0.0 mm 0.00 in0.0 mm
06:53 AM 69.8°F21.0°C 52.0°F11.1°C 53% 3.4 mph SW5.5 kmh SW 8.4 mph13.5 kmh 29.06 in984.1 mb 0.00 in0.0 mm 0.00 in0.0 mm 0.00 in0.0 mm
06:52 AM 69.6°F20.9°C 51.8°F11.0°C 53% 3.3 mph SSW5.3 kmh SSW 8.4 mph13.5 kmh 29.06 in984.1 mb 0.00 in0.0 mm 0.00 in0.0 mm 0.00 in0.0 mm
06:51 AM 69.6°F20.9°C 51.8°F11.0°C 53% 3.3 mph S5.3 kmh S 8.4 mph13.5 kmh 29.06 in984.1 mb 0.00 in0.0 mm 0.00 in0.0 mm 0.00 in0.0 mm
06:50 AM 69.6°F20.9°C 51.8°F11.0°C 53% 3.4 mph S5.5 kmh S 8.4 mph13.5 kmh 29.06 in984.1 mb 0.00 in0.0 mm 0.00 in0.0 mm 0.00 in0.0 mm
06:49 AM 69.6°F20.9°C 51.8°F11.0°C 53% 3.3 mph S5.3 kmh S 7.8 mph12.6 kmh 29.06 in984.1 mb 0.00 in0.0 mm 0.00 in0.0 mm 0.00 in0.0 mm
06:48 AM 69.6°F20.9°C 51.8°F11.0°C 53% 3.0 mph SSW4.8 kmh SSW 9.1 mph14.6 kmh 29.06 in984.1 mb 0.00 in0.0 mm 0.00 in0.0 mm 0.00 in0.0 mm
06:47 AM 69.4°F20.8°C 51.6°F10.9°C 53% 5.5 mph SSE8.9 kmh SSE 9.1 mph14.6 kmh 29.06 in984.1 mb 0.00 in0.0 mm 0.00 in0.0 mm 0.00 in0.0 mm
06:46 AM 69.4°F20.8°C 51.6°F10.9°C 53% 5.0 mph S8.0 kmh S 9.1 mph14.6 kmh 29.06 in984.1 mb 0.00 in0.0 mm 0.00 in0.0 mm 0.00 in0.0 mm
06:45 AM 69.4°F20.8°C 51.6°F10.9°C 53% 4.4 mph S7.1 kmh S 9.1 mph14.6 kmh 29.06 in984.1 mb 0.00 in0.0 mm 0.00 in0.0 mm 0.00 in0.0 mm
06:44 AM 69.4°F20.8°C 51.6°F10.9°C 53% 3.5 mph S5.6 kmh S 9.1 mph14.6 kmh 29.06 in984.1 mb 0.00 in0.0 mm 0.00 in0.0 mm 0.00 in0.0 mm
06:43 AM 69.3°F20.7°C 51.5°F10.8°C 53% 3.0 mph S4.8 kmh S 9.1 mph14.6 kmh 29.06 in984.1 mb 0.00 in0.0 mm 0.00 in0.0 mm 0.00 in0.0 mm
06:42 AM 69.3°F20.7°C 51.5°F10.8°C 53% 3.7 mph SSW6.0 kmh SSW 9.1 mph14.6 kmh 29.06 in984.1 mb 0.00 in0.0 mm 0.00 in0.0 mm 0.00 in0.0 mm
06:41 AM 69.3°F20.7°C 51.5°F10.8°C 53% 4.5 mph SSW7.2 kmh SSW 9.1 mph14.6 kmh 29.06 in984.1 mb 0.00 in0.0 mm 0.00 in0.0 mm 0.00 in0.0 mm
06:40 AM 69.3°F20.7°C 51.5°F10.8°C 53% 4.7 mph SSW7.6 kmh SSW 9.1 mph14.6 kmh 29.06 in984.1 mb 0.00 in0.0 mm 0.00 in0.0 mm 0.00 in0.0 mm
06:39 AM 69.3°F20.7°C 51.5°F10.8°C 53% 4.2 mph S6.8 kmh S 9.1 mph14.6 kmh 29.06 in984.1 mb 0.00 in0.0 mm 0.00 in0.0 mm 0.00 in0.0 mm
06:38 AM 69.3°F20.7°C 51.5°F10.8°C 53% 3.6 mph S5.8 kmh S 9.1 mph14.6 kmh 29.06 in984.1 mb 0.00 in0.0 mm 0.00 in0.0 mm 0.00 in0.0 mm
06:37 AM 69.1°F20.6°C 51.3°F10.7°C 53% 4.3 mph SW6.9 kmh SW 8.4 mph13.5 kmh 29.06 in984.1 mb 0.00 in0.0 mm 0.00 in0.0 mm 0.00 in0.0 mm
06:36 AM 69.1°F20.6°C 51.3°F10.7°C 53% 4.9 mph S7.9 kmh S 8.4 mph13.5 kmh 29.06 in984.1 mb 0.00 in0.0 mm 0.00 in0.0 mm 0.00 in0.0 mm
06:35 AM 69.1°F20.6°C 51.3°F10.7°C 53% 4.9 mph S7.9 kmh S 11.0 mph17.7 kmh 29.06 in984.1 mb 0.00 in0.0 mm 0.00 in0.0 mm 0.00 in0.0 mm
06:34 AM 69.1°F20.6°C 51.3°F10.7°C 53% 4.9 mph S7.9 kmh S 11.0 mph17.7 kmh 29.06 in984.1 mb 0.00 in0.0 mm 0.00 in0.0 mm 0.00 in0.0 mm
06:33 AM 69.1°F20.6°C 51.3°F10.7°C 53% 4.3 mph SSW6.9 kmh SSW 11.0 mph17.7 kmh 29.06 in984.1 mb 0.00 in0.0 mm 0.00 in0.0 mm 0.00 in0.0 mm
06:32 AM 69.1°F20.6°C 51.3°F10.7°C 53% 4.1 mph SSW6.6 kmh SSW 11.0 mph17.7 kmh 29.06 in984.1 mb 0.00 in0.0 mm 0.00 in0.0 mm 0.00 in0.0 mm
06:31 AM 69.1°F20.6°C 51.3°F10.7°C 53% 3.6 mph SSW5.8 kmh SSW 11.0 mph17.7 kmh 29.06 in984.1 mb 0.00 in0.0 mm 0.00 in0.0 mm 0.00 in0.0 mm
06:30 AM 69.1°F20.6°C 51.3°F10.7°C 53% 3.5 mph SSW5.6 kmh SSW 11.0 mph17.7 kmh 29.06 in984.1 mb 0.00 in0.0 mm 0.00 in0.0 mm 0.00 in0.0 mm
06:29 AM 68.9°F20.5°C 51.1°F10.6°C 53% 3.5 mph SW5.6 kmh SW 11.0 mph17.7 kmh 29.06 in984.1 mb 0.00 in0.0 mm 0.00 in0.0 mm 0.00 in0.0 mm
06:28 AM 68.9°F20.5°C 51.1°F10.6°C 53% 3.8 mph SW6.1 kmh SW 11.0 mph17.7 kmh 29.06 in984.1 mb 0.00 in0.0 mm 0.00 in0.0 mm 0.00 in0.0 mm
06:27 AM 68.9°F20.5°C 51.1°F10.6°C 53% 3.8 mph SSW6.1 kmh SSW 11.0 mph17.7 kmh 29.06 in984.1 mb 0.00 in0.0 mm 0.00 in0.0 mm 0.00 in0.0 mm
06:26 AM 68.9°F20.5°C 51.1°F10.6°C 53% 3.6 mph S5.8 kmh S 11.0 mph17.7 kmh 29.06 in984.1 mb 0.00 in0.0 mm 0.00 in0.0 mm 0.00 in0.0 mm
06:25 AM 68.9°F20.5°C 51.1°F10.6°C 53% 4.0 mph SSW6.4 kmh SSW 7.8 mph12.6 kmh 29.06 in984.1 mb 0.00 in0.0 mm 0.00 in0.0 mm 0.00 in0.0 mm
06:24 AM 68.9°F20.5°C 50.5°F10.3°C 52% 4.0 mph SSW6.4 kmh SSW 8.4 mph13.5 kmh 29.06 in984.1 mb 0.00 in0.0 mm 0.00 in0.0 mm 0.00 in0.0 mm
06:23 AM 68.9°F20.5°C 50.5°F10.3°C 52% 3.9 mph SSW6.3 kmh SSW 9.1 mph14.6 kmh 29.06 in984.1 mb 0.00 in0.0 mm 0.00 in0.0 mm 0.00 in0.0 mm
06:22 AM 68.9°F20.5°C 50.5°F10.3°C 52% 4.3 mph SSW6.9 kmh SSW 9.1 mph14.6 kmh 29.06 in984.1 mb 0.00 in0.0 mm 0.00 in0.0 mm 0.00 in0.0 mm
06:21 AM 68.9°F20.5°C 50.5°F10.3°C 52% 5.1 mph SSW8.2 kmh SSW 9.1 mph14.6 kmh 29.06 in984.1 mb 0.00 in0.0 mm 0.00 in0.0 mm 0.00 in0.0 mm
06:20 AM 68.7°F20.4°C 50.3°F10.2°C 52% 5.3 mph SSW8.5 kmh SSW 9.1 mph14.6 kmh 29.06 in984.1 mb 0.00 in0.0 mm 0.00 in0.0 mm 0.00 in0.0 mm
06:18 AM 68.7°F20.4°C 50.9°F10.5°C 53% 5.2 mph S8.4 kmh S 9.1 mph14.6 kmh 29.06 in984.1 mb 0.00 in0.0 mm 0.00 in0.0 mm 0.00 in0.0 mm
06:17 AM 68.7°F20.4°C 50.9°F10.5°C 53% 5.5 mph SSE8.9 kmh SSE 11.0 mph17.7 kmh 29.06 in984.1 mb 0.00 in0.0 mm 0.00 in0.0 mm 0.00 in0.0 mm
06:16 AM 68.7°F20.4°C 50.9°F10.5°C 53% 5.7 mph SSE9.2 kmh SSE 11.0 mph17.7 kmh 29.06 in984.1 mb 0.00 in0.0 mm 0.00 in0.0 mm 0.00 in0.0 mm
06:15 AM 68.7°F20.4°C 50.9°F10.5°C 53% 6.0 mph SSE9.7 kmh SSE 11.0 mph17.7 kmh 29.06 in984.1 mb 0.00 in0.0 mm 0.00 in0.0 mm 0.00 in0.0 mm
06:14 AM 68.7°F20.4°C 51.0°F10.6°C 53% 6.7 mph SSE10.8 kmh SSE 11.0 mph17.7 kmh 29.06 in984.1 mb 0.00 in0.0 mm 0.00 in0.0 mm 0.00 in0.0 mm
06:13 AM 68.7°F20.4°C 50.3°F10.2°C 52% 6.9 mph SSE11.1 kmh SSE 11.0 mph17.7 kmh 29.06 in984.1 mb 0.00 in0.0 mm 0.00 in0.0 mm 0.00 in0.0 mm
06:12 AM 68.7°F20.4°C 50.3°F10.2°C 52% 6.4 mph SSE10.3 kmh SSE 11.0 mph17.7 kmh 29.06 in984.1 mb 0.00 in0.0 mm 0.00 in0.0 mm 0.00 in0.0 mm
06:11 AM 68.5°F20.3°C 50.2°F10.1°C 52% 6.1 mph SSE9.8 kmh SSE 11.0 mph17.7 kmh 29.06 in984.1 mb 0.00 in0.0 mm 0.00 in0.0 mm 0.00 in0.0 mm
06:10 AM 68.5°F20.3°C 50.2°F10.1°C 52% 6.4 mph S10.3 kmh S 11.0 mph17.7 kmh 29.06 in984.1 mb 0.00 in0.0 mm 0.00 in0.0 mm 0.00 in0.0 mm
06:09 AM 68.5°F20.3°C 50.2°F10.1°C 52% 6.2 mph S10.0 kmh S 11.0 mph17.7 kmh 29.06 in984.1 mb 0.00 in0.0 mm 0.00 in0.0 mm 0.00 in0.0 mm
06:08 AM 68.5°F20.3°C 50.2°F10.1°C 52% 5.3 mph S8.5 kmh S 11.0 mph17.7 kmh 29.06 in984.1 mb 0.00 in0.0 mm 0.00 in0.0 mm 0.00 in0.0 mm
06:07 AM 68.5°F20.3°C 50.2°F10.1°C 52% 5.2 mph S8.4 kmh S 11.7 mph18.8 kmh 29.06 in984.1 mb 0.00 in0.0 mm 0.00 in0.0 mm 0.00 in0.0 mm
06:06 AM 68.5°F20.3°C 50.2°F10.1°C 52% 6.3 mph S10.1 kmh S 11.7 mph18.8 kmh 29.06 in984.1 mb 0.00 in0.0 mm 0.00 in0.0 mm 0.00 in0.0 mm
06:05 AM 68.5°F20.3°C 50.2°F10.1°C 52% 6.5 mph S10.5 kmh S 11.7 mph18.8 kmh 29.06 in984.1 mb 0.00 in0.0 mm 0.00 in0.0 mm 0.00 in0.0 mm
06:04 AM 68.5°F20.3°C 50.2°F10.1°C 52% 5.8 mph S9.3 kmh S 11.7 mph18.8 kmh 29.06 in984.1 mb 0.00 in0.0 mm 0.00 in0.0 mm 0.00 in0.0 mm
06:03 AM 68.5°F20.3°C 50.2°F10.1°C 52% 5.5 mph SSE8.9 kmh SSE 11.7 mph18.8 kmh 29.06 in984.1 mb 0.00 in0.0 mm 0.00 in0.0 mm 0.00 in0.0 mm
06:02 AM 68.5°F20.3°C 50.2°F10.1°C 52% 5.2 mph SSE8.4 kmh SSE 11.7 mph18.8 kmh 29.06 in984.1 mb 0.00 in0.0 mm 0.00 in0.0 mm 0.00 in0.0 mm
06:01 AM 68.5°F20.3°C 50.2°F10.1°C 52% 5.3 mph SSE8.5 kmh SSE 11.7 mph18.8 kmh 29.06 in984.1 mb 0.00 in0.0 mm 0.00 in0.0 mm 0.00 in0.0 mm
06:00 AM 68.5°F20.3°C 50.2°F10.1°C 52% 5.9 mph SSE9.5 kmh SSE 11.7 mph18.8 kmh 29.06 in984.1 mb 0.00 in0.0 mm 0.00 in0.0 mm 0.00 in0.0 mm
05:59 AM 68.5°F20.3°C 50.2°F10.1°C 52% 6.2 mph S10.0 kmh S 11.7 mph18.8 kmh 29.06 in984.1 mb 0.00 in0.0 mm 0.00 in0.0 mm 0.00 in0.0 mm
05:58 AM 68.5°F20.3°C 50.2°F10.1°C 52% 6.5 mph S10.5 kmh S 11.7 mph18.8 kmh 29.06 in984.1 mb 0.00 in0.0 mm 0.00 in0.0 mm 0.00 in0.0 mm
05:57 AM 68.5°F20.3°C 50.2°F10.1°C 52% 5.8 mph S9.3 kmh S 12.0 mph19.3 kmh 29.06 in984.1 mb 0.00 in0.0 mm 0.00 in0.0 mm 0.00 in0.0 mm
05:56 AM 68.5°F20.3°C 50.2°F10.1°C 52% 5.9 mph S9.5 kmh S 12.0 mph19.3 kmh 29.06 in984.1 mb 0.00 in0.0 mm 0.00 in0.0 mm 0.00 in0.0 mm
05:55 AM 68.5°F20.3°C 50.2°F10.1°C 52% 7.0 mph SSW11.3 kmh SSW 12.0 mph19.3 kmh 29.06 in984.1 mb 0.00 in0.0 mm 0.00 in0.0 mm 0.00 in0.0 mm
05:54 AM 68.5°F20.3°C 50.2°F10.1°C 52% 7.1 mph SSW11.4 kmh SSW 12.0 mph19.3 kmh 29.06 in984.1 mb 0.00 in0.0 mm 0.00 in0.0 mm 0.00 in0.0 mm
05:53 AM 68.5°F20.3°C 50.2°F10.1°C 52% 6.7 mph S10.8 kmh S 12.0 mph19.3 kmh 29.06 in984.1 mb 0.00 in0.0 mm 0.00 in0.0 mm 0.00 in0.0 mm
05:52 AM 68.4°F20.2°C 50.1°F10.1°C 52% 5.8 mph SSE9.3 kmh SSE 12.0 mph19.3 kmh 29.06 in984.1 mb 0.00 in0.0 mm 0.00 in0.0 mm 0.00 in0.0 mm
05:51 AM 68.5°F20.3°C 49.6°F9.8°C 51% 5.4 mph SSE8.7 kmh SSE 12.0 mph19.3 kmh 29.06 in984.1 mb 0.00 in0.0 mm 0.00 in0.0 mm 0.00 in0.0 mm
05:50 AM 68.5°F20.3°C 49.6°F9.8°C 51% 6.8 mph SSE10.9 kmh SSE 12.0 mph19.3 kmh 29.06 in984.1 mb 0.00 in0.0 mm 0.00 in0.0 mm 0.00 in0.0 mm
05:49 AM 68.5°F20.3°C 49.6°F9.8°C 51% 7.1 mph SSE11.4 kmh SSE 12.0 mph19.3 kmh 29.06 in984.1 mb 0.00 in0.0 mm 0.00 in0.0 mm 0.00 in0.0 mm
05:48 AM 68.5°F20.3°C 49.6°F9.8°C 51% 5.3 mph SSE8.5 kmh SSE 11.7 mph18.8 kmh 29.06 in984.1 mb 0.00 in0.0 mm 0.00 in0.0 mm 0.00 in0.0 mm
05:47 AM 68.5°F20.3°C 49.6°F9.8°C 51% 4.4 mph SSE7.1 kmh SSE 11.0 mph17.7 kmh 29.06 in984.1 mb 0.00 in0.0 mm 0.00 in0.0 mm 0.00 in0.0 mm
05:46 AM 68.5°F20.3°C 49.6°F9.8°C 51% 4.8 mph SSE7.7 kmh SSE 11.0 mph17.7 kmh 29.06 in984.1 mb 0.00 in0.0 mm 0.00 in0.0 mm 0.00 in0.0 mm
05:45 AM 68.5°F20.3°C 49.6°F9.8°C 51% 5.2 mph S8.4 kmh S 11.0 mph17.7 kmh 29.06 in984.1 mb 0.00 in0.0 mm 0.00 in0.0 mm 0.00 in0.0 mm
05:44 AM 68.5°F20.3°C 49.6°F9.8°C 51% 5.7 mph S9.2 kmh S 11.0 mph17.7 kmh 29.06 in984.1 mb 0.00 in0.0 mm 0.00 in0.0 mm 0.00 in0.0 mm
05:43 AM 68.5°F20.3°C 49.6°F9.8°C 51% 5.5 mph S8.9 kmh S 11.0 mph17.7 kmh 29.06 in984.1 mb 0.00 in0.0 mm 0.00 in0.0 mm 0.00 in0.0 mm
05:42 AM 68.5°F20.3°C 49.6°F9.8°C 51% 5.4 mph S8.7 kmh S 11.0 mph17.7 kmh 29.06 in984.1 mb 0.00 in0.0 mm 0.00 in0.0 mm 0.00 in0.0 mm
05:41 AM 68.5°F20.3°C 49.6°F9.8°C 51% 5.9 mph S9.5 kmh S 12.6 mph20.3 kmh 29.06 in984.1 mb 0.00 in0.0 mm 0.00 in0.0 mm 0.00 in0.0 mm
05:40 AM 68.5°F20.3°C 49.6°F9.8°C 51% 6.4 mph S10.3 kmh S 12.6 mph20.3 kmh 29.06 in984.1 mb 0.00 in0.0 mm 0.00 in0.0 mm 0.00 in0.0 mm
05:39 AM 68.5°F20.3°C 49.6°F9.8°C 51% 7.0 mph S11.3 kmh S 12.6 mph20.3 kmh 29.06 in984.1 mb 0.00 in0.0 mm 0.00 in0.0 mm 0.00 in0.0 mm
05:38 AM 68.5°F20.3°C 49.6°F9.8°C 51% 5.9 mph S9.5 kmh S 12.6 mph20.3 kmh 29.06 in984.1 mb 0.00 in0.0 mm 0.00 in0.0 mm 0.00 in0.0 mm
05:37 AM 68.5°F20.3°C 49.6°F9.8°C 51% 5.1 mph S8.2 kmh S 12.6 mph20.3 kmh 29.06 in984.1 mb 0.00 in0.0 mm 0.00 in0.0 mm 0.00 in0.0 mm
05:36 AM 68.5°F20.3°C 49.6°F9.8°C 51% 5.0 mph S8.0 kmh S 12.6 mph20.3 kmh 29.06 in984.1 mb 0.00 in0.0 mm 0.00 in0.0 mm 0.00 in0.0 mm
05:35 AM 68.5°F20.3°C 49.6°F9.8°C 51% 5.8 mph S9.3 kmh S 12.6 mph20.3 kmh 29.06 in984.1 mb 0.00 in0.0 mm 0.00 in0.0 mm 0.00 in0.0 mm
05:34 AM 68.5°F20.3°C 49.6°F9.8°C 51% 6.4 mph S10.3 kmh S 12.6 mph20.3 kmh 29.06 in984.1 mb 0.00 in0.0 mm 0.00 in0.0 mm 0.00 in0.0 mm
05:33 AM 68.5°F20.3°C 49.6°F9.8°C 51% 6.1 mph S9.8 kmh S 12.6 mph20.3 kmh 29.06 in984.1 mb 0.00 in0.0 mm 0.00 in0.0 mm 0.00 in0.0 mm
05:32 AM 68.5°F20.3°C 49.6°F9.8°C 51% 5.7 mph S9.2 kmh S 12.6 mph20.3 kmh 29.06 in984.1 mb 0.00 in0.0 mm 0.00 in0.0 mm 0.00 in0.0 mm
05:31 AM 68.5°F20.3°C 49.6°F9.8°C 51% 6.0 mph S9.7 kmh S 11.0 mph17.7 kmh 29.06 in984.1 mb 0.00 in0.0 mm 0.00 in0.0 mm 0.00 in0.0 mm
05:30 AM 68.5°F20.3°C 49.6°F9.8°C 51% 6.6 mph SSE10.6 kmh SSE 11.0 mph17.7 kmh 29.06 in984.1 mb 0.00 in0.0 mm 0.00 in0.0 mm 0.00 in0.0 mm
05:29 AM 68.5°F20.3°C 49.6°F9.8°C 51% 6.6 mph S10.6 kmh S 11.7 mph18.8 kmh 29.06 in984.1 mb 0.00 in0.0 mm 0.00 in0.0 mm 0.00 in0.0 mm
05:28 AM 68.5°F20.3°C 49.6°F9.8°C 51% 5.9 mph S9.5 kmh S 11.7 mph18.8 kmh 29.06 in984.1 mb 0.00 in0.0 mm 0.00 in0.0 mm 0.00 in0.0 mm
05:27 AM 68.5°F20.3°C 49.6°F9.8°C 51% 5.4 mph S8.7 kmh S 11.7 mph18.8 kmh 29.06 in984.1 mb 0.00 in0.0 mm 0.00 in0.0 mm 0.00 in0.0 mm
05:26 AM 68.5°F20.3°C 49.6°F9.8°C 51% 6.1 mph SSE9.8 kmh SSE 11.7 mph18.8 kmh 29.06 in984.1 mb 0.00 in0.0 mm 0.00 in0.0 mm 0.00 in0.0 mm
05:25 AM 68.5°F20.3°C 49.6°F9.8°C 51% 6.3 mph SSE10.1 kmh SSE 11.7 mph18.8 kmh 29.06 in984.1 mb 0.00 in0.0 mm 0.00 in0.0 mm 0.00 in0.0 mm
05:24 AM 68.5°F20.3°C 49.7°F9.8°C 51% 6.2 mph SSE10.0 kmh SSE 11.7 mph18.8 kmh 29.06 in984.1 mb 0.00 in0.0 mm 0.00 in0.0 mm 0.00 in0.0 mm
05:23 AM 68.5°F20.3°C 49.7°F9.8°C 51% 4.7 mph S7.6 kmh S 11.7 mph18.8 kmh 29.06 in984.1 mb 0.00 in0.0 mm 0.00 in0.0 mm 0.00 in0.0 mm
05:22 AM 68.5°F20.3°C 49.7°F9.8°C 51% 5.1 mph S8.2 kmh S 11.7 mph18.8 kmh 29.06 in984.1 mb 0.00 in0.0 mm 0.00 in0.0 mm 0.00 in0.0 mm
05:21 AM 68.5°F20.3°C 49.7°F9.8°C 51% 6.1 mph S9.8 kmh S 11.7 mph18.8 kmh 29.06 in984.1 mb 0.00 in0.0 mm 0.00 in0.0 mm 0.00 in0.0 mm
05:20 AM 68.5°F20.3°C 49.7°F9.8°C 51% 5.9 mph SSE9.5 kmh SSE 11.7 mph18.8 kmh 29.06 in984.1 mb 0.00 in0.0 mm 0.00 in0.0 mm 0.00 in0.0 mm
05:19 AM 68.5°F20.3°C 49.7°F9.8°C 51% 5.8 mph SSE9.3 kmh SSE 11.0 mph17.7 kmh 29.06 in984.1 mb 0.00 in0.0 mm 0.00 in0.0 mm 0.00 in0.0 mm
05:18 AM 68.5°F20.3°C 49.7°F9.8°C 51% 6.3 mph S10.1 kmh S 11.0 mph17.7 kmh 29.06 in984.1 mb 0.00 in0.0 mm 0.00 in0.0 mm 0.00 in0.0 mm
05:15 AM 68.5°F20.3°C 49.7°F9.8°C 51% 5.3 mph S8.5 kmh S 9.1 mph14.6 kmh 29.06 in984.1 mb 0.00 in0.0 mm 0.00 in0.0 mm 0.00 in0.0 mm
05:14 AM 68.5°F20.3°C 49.7°F9.8°C 51% 5.3 mph SSE8.5 kmh SSE 9.1 mph14.6 kmh 29.06 in984.1 mb 0.00 in0.0 mm 0.00 in0.0 mm 0.00 in0.0 mm
05:13 AM 68.5°F20.3°C 49.7°F9.8°C 51% 4.9 mph SSE7.9 kmh SSE 11.0 mph17.7 kmh 29.06 in984.1 mb 0.00 in0.0 mm 0.00 in0.0 mm 0.00 in0.0 mm
05:12 AM 68.5°F20.3°C 49.7°F9.8°C 51% 5.0 mph SSE8.0 kmh SSE 11.0 mph17.7 kmh 29.06 in984.1 mb 0.00 in0.0 mm 0.00 in0.0 mm 0.00 in0.0 mm
05:11 AM 68.5°F20.3°C 49.7°F9.8°C 51% 4.6 mph S7.4 kmh S 11.0 mph17.7 kmh 29.06 in984.1 mb 0.00 in0.0 mm 0.00 in0.0 mm 0.00 in0.0 mm
05:10 AM 68.5°F20.3°C 49.0°F9.4°C 50% 3.7 mph S6.0 kmh S 11.0 mph17.7 kmh 29.06 in984.1 mb 0.00 in0.0 mm 0.00 in0.0 mm 0.00 in0.0 mm
05:09 AM 68.5°F20.3°C 49.0°F9.4°C 50% 3.9 mph S6.3 kmh S 11.0 mph17.7 kmh 29.06 in984.1 mb 0.00 in0.0 mm 0.00 in0.0 mm 0.00 in0.0 mm
05:08 AM 68.5°F20.3°C 49.1°F9.5°C 50% 4.4 mph SSW7.1 kmh SSW 11.0 mph17.7 kmh 29.06 in984.1 mb 0.00 in0.0 mm 0.00 in0.0 mm 0.00 in0.0 mm
05:07 AM 68.5°F20.3°C 49.7°F9.8°C 51% 5.3 mph S8.5 kmh S 11.0 mph17.7 kmh 29.06 in984.1 mb 0.00 in0.0 mm 0.00 in0.0 mm 0.00 in0.0 mm
05:06 AM 68.5°F20.3°C 49.7°F9.8°C 51% 5.6 mph SSE9.0 kmh SSE 11.0 mph17.7 kmh 29.06 in984.1 mb 0.00 in0.0 mm 0.00 in0.0 mm 0.00 in0.0 mm
05:05 AM 68.4°F20.2°C 49.6°F9.8°C 51% 5.8 mph SSE9.3 kmh SSE 11.0 mph17.7 kmh 29.06 in984.1 mb 0.00 in0.0 mm 0.00 in0.0 mm 0.00 in0.0 mm
05:04 AM 68.5°F20.3°C 49.7°F9.8°C 51% 4.7 mph S7.6 kmh S 11.0 mph17.7 kmh 29.06 in984.1 mb 0.00 in0.0 mm 0.00 in0.0 mm 0.00 in0.0 mm
05:03 AM 68.4°F20.2°C 49.0°F9.4°C 50% 4.6 mph S7.4 kmh S 11.0 mph17.7 kmh 29.06 in984.1 mb 0.00 in0.0 mm 0.00 in0.0 mm 0.00 in0.0 mm
05:02 AM 68.4°F20.2°C 49.0°F9.4°C 50% 5.2 mph S8.4 kmh S 9.1 mph14.6 kmh 29.06 in984.1 mb 0.00 in0.0 mm 0.00 in0.0 mm 0.00 in0.0 mm
05:01 AM 68.4°F20.2°C 49.0°F9.4°C 50% 5.3 mph S8.5 kmh S 9.1 mph14.6 kmh 29.06 in984.1 mb 0.00 in0.0 mm 0.00 in0.0 mm 0.00 in0.0 mm
05:00 AM 68.4°F20.2°C 49.0°F9.4°C 50% 5.6 mph S9.0 kmh S 9.1 mph14.6 kmh 29.06 in984.1 mb 0.00 in0.0 mm 0.00 in0.0 mm 0.00 in0.0 mm
04:59 AM 68.4°F20.2°C 49.0°F9.4°C 50% 4.8 mph S7.7 kmh S 9.1 mph14.6 kmh 29.06 in984.1 mb 0.00 in0.0 mm 0.00 in0.0 mm 0.00 in0.0 mm
04:58 AM 68.4°F20.2°C 49.0°F9.4°C 50% 5.1 mph S8.2 kmh S 9.1 mph14.6 kmh 29.06 in984.1 mb 0.00 in0.0 mm 0.00 in0.0 mm 0.00 in0.0 mm
04:57 AM 68.4°F20.2°C 49.0°F9.4°C 50% 5.0 mph S8.0 kmh S 9.1 mph14.6 kmh 29.06 in984.1 mb 0.00 in0.0 mm 0.00 in0.0 mm 0.00 in0.0 mm
04:56 AM 68.4°F20.2°C 49.0°F9.4°C 50% 4.7 mph S7.6 kmh S 11.0 mph17.7 kmh 29.06 in984.1 mb 0.00 in0.0 mm 0.00 in0.0 mm 0.00 in0.0 mm
04:55 AM 68.4°F20.2°C 49.0°F9.4°C 50% 4.6 mph SSE7.4 kmh SSE 11.0 mph17.7 kmh 29.06 in984.1 mb 0.00 in0.0 mm 0.00 in0.0 mm 0.00 in0.0 mm
04:54 AM 68.4°F20.2°C 49.0°F9.4°C 50% 4.4 mph SSE7.1 kmh SSE 11.0 mph17.7 kmh 29.06 in984.1 mb 0.00 in0.0 mm 0.00 in0.0 mm 0.00 in0.0 mm
04:53 AM 68.4°F20.2°C 49.0°F9.4°C 50% 4.6 mph SSE7.4 kmh SSE 11.0 mph17.7 kmh 29.06 in984.1 mb 0.00 in0.0 mm 0.00 in0.0 mm 0.00 in0.0 mm
04:52 AM 68.2°F20.1°C 48.8°F9.3°C 50% 4.3 mph SSE6.9 kmh SSE 11.0 mph17.7 kmh 29.06 in984.1 mb 0.00 in0.0 mm 0.00 in0.0 mm 0.00 in0.0 mm
04:51 AM 68.2°F20.1°C 48.8°F9.3°C 50% 5.4 mph SSE8.7 kmh SSE 11.0 mph17.7 kmh 29.06 in984.1 mb 0.00 in0.0 mm 0.00 in0.0 mm 0.00 in0.0 mm
04:50 AM 68.2°F20.1°C 48.8°F9.3°C 50% 6.8 mph S10.9 kmh S 11.0 mph17.7 kmh 29.06 in984.1 mb 0.00 in0.0 mm 0.00 in0.0 mm 0.00 in0.0 mm
04:49 AM 68.2°F20.1°C 48.2°F9.0°C 49% 6.7 mph S10.8 kmh S 11.0 mph17.7 kmh 29.06 in984.1 mb 0.00 in0.0 mm 0.00 in0.0 mm 0.00 in0.0 mm
04:48 AM 68.2°F20.1°C 48.2°F9.0°C 49% 6.0 mph S9.7 kmh S 11.0 mph17.7 kmh 29.06 in984.1 mb 0.00 in0.0 mm 0.00 in0.0 mm 0.00 in0.0 mm
04:47 AM 68.2°F20.1°C 48.2°F9.0°C 49% 6.1 mph S9.8 kmh S 11.0 mph17.7 kmh 29.06 in984.1 mb 0.00 in0.0 mm 0.00 in0.0 mm 0.00 in0.0 mm
04:46 AM 68.2°F20.1°C 48.2°F9.0°C 49% 6.4 mph S10.3 kmh S 9.1 mph14.6 kmh 29.06 in984.1 mb 0.00 in0.0 mm 0.00 in0.0 mm 0.00 in0.0 mm
04:45 AM 68.2°F20.1°C 47.5°F8.6°C 48% 5.7 mph S9.2 kmh S 9.1 mph14.6 kmh 29.06 in984.1 mb 0.00 in0.0 mm 0.00 in0.0 mm 0.00 in0.0 mm
04:44 AM 68.2°F20.1°C 47.5°F8.6°C 48% 5.7 mph SSE9.2 kmh SSE 9.1 mph14.6 kmh 29.06 in984.1 mb 0.00 in0.0 mm 0.00 in0.0 mm 0.00 in0.0 mm
04:43 AM 68.2°F20.1°C 47.5°F8.6°C 48% 6.0 mph SSE9.7 kmh SSE 9.1 mph14.6 kmh 29.06 in984.1 mb 0.00 in0.0 mm 0.00 in0.0 mm 0.00 in0.0 mm
04:42 AM 68.2°F20.1°C 47.5°F8.6°C 48% 6.4 mph SSE10.3 kmh SSE 9.1 mph14.6 kmh 29.06 in984.1 mb 0.00 in0.0 mm 0.00 in0.0 mm 0.00 in0.0 mm
04:41 AM 68.2°F20.1°C 47.5°F8.6°C 48% 5.7 mph SSE9.2 kmh SSE 11.7 mph18.8 kmh 29.06 in984.1 mb 0.00 in0.0 mm 0.00 in0.0 mm 0.00 in0.0 mm
04:40 AM 68.2°F20.1°C 47.5°F8.6°C 48% 5.0 mph S8.0 kmh S 11.7 mph18.8 kmh 29.06 in984.1 mb 0.00 in0.0 mm 0.00 in0.0 mm 0.00 in0.0 mm
04:39 AM 68.2°F20.1°C 47.5°F8.6°C 48% 5.5 mph S8.9 kmh S 11.7 mph18.8 kmh 29.06 in984.1 mb 0.00 in0.0 mm 0.00 in0.0 mm 0.00 in0.0 mm
04:38 AM 68.2°F20.1°C 47.5°F8.6°C 48% 5.4 mph S8.7 kmh S 11.7 mph18.8 kmh 29.06 in984.1 mb 0.00 in0.0 mm 0.00 in0.0 mm 0.00 in0.0 mm
04:37 AM 68.2°F20.1°C 46.8°F8.2°C 46% 5.1 mph S8.2 kmh S 11.7 mph18.8 kmh 29.06 in984.1 mb 0.00 in0.0 mm 0.00 in0.0 mm 0.00 in0.0 mm
04:36 AM 68.2°F20.1°C 46.8°F8.2°C 46% 5.2 mph S8.4 kmh S 11.7 mph18.8 kmh 29.06 in984.1 mb 0.00 in0.0 mm 0.00 in0.0 mm 0.00 in0.0 mm
04:35 AM 68.2°F20.1°C 46.9°F8.3°C 46% 5.0 mph S8.0 kmh S 11.7 mph18.8 kmh 29.06 in984.1 mb 0.00 in0.0 mm 0.00 in0.0 mm 0.00 in0.0 mm
04:34 AM 68.2°F20.1°C 46.9°F8.3°C 46% 5.9 mph S9.5 kmh S 11.7 mph18.8 kmh 29.06 in984.1 mb 0.00 in0.0 mm 0.00 in0.0 mm 0.00 in0.0 mm
04:33 AM 68.2°F20.1°C 46.9°F8.3°C 46% 6.6 mph SSE10.6 kmh SSE 11.7 mph18.8 kmh 29.06 in984.1 mb 0.00 in0.0 mm 0.00 in0.0 mm 0.00 in0.0 mm
04:32 AM 68.2°F20.1°C 46.9°F8.3°C 46% 6.0 mph SSE9.7 kmh SSE 11.7 mph18.8 kmh 29.06 in984.1 mb 0.00 in0.0 mm 0.00 in0.0 mm 0.00 in0.0 mm
04:31 AM 68.2°F20.1°C 46.9°F8.3°C 46% 5.5 mph SSE8.9 kmh SSE 11.7 mph18.8 kmh 29.06 in984.1 mb 0.00 in0.0 mm 0.00 in0.0 mm 0.00 in0.0 mm
04:30 AM 68.2°F20.1°C 46.9°F8.3°C 46% 5.8 mph SSE9.3 kmh SSE 9.7 mph15.6 kmh 29.06 in984.1 mb 0.00 in0.0 mm 0.00 in0.0 mm 0.00 in0.0 mm
04:29 AM 68.2°F20.1°C 46.9°F8.3°C 46% 6.0 mph SSE9.7 kmh SSE 9.7 mph15.6 kmh 29.06 in984.1 mb 0.00 in0.0 mm 0.00 in0.0 mm 0.00 in0.0 mm
04:28 AM 68.2°F20.1°C 46.9°F8.3°C 47% 5.8 mph SSE9.3 kmh SSE 9.7 mph15.6 kmh 29.06 in984.1 mb 0.00 in0.0 mm 0.00 in0.0 mm 0.00 in0.0 mm
04:27 AM 68.2°F20.1°C 46.2°F7.9°C 45% 5.4 mph S8.7 kmh S 9.7 mph15.6 kmh 29.06 in984.1 mb 0.00 in0.0 mm 0.00 in0.0 mm 0.00 in0.0 mm
04:26 AM 68.2°F20.1°C 46.2°F7.9°C 45% 4.9 mph S7.9 kmh S 9.7 mph15.6 kmh 29.06 in984.1 mb 0.00 in0.0 mm 0.00 in0.0 mm 0.00 in0.0 mm
04:25 AM 68.2°F20.1°C 46.2°F7.9°C 45% 4.6 mph S7.4 kmh S 9.7 mph15.6 kmh 29.06 in984.1 mb 0.00 in0.0 mm 0.00 in0.0 mm 0.00 in0.0 mm
04:24 AM 68.2°F20.1°C 46.2°F7.9°C 45% 4.6 mph S7.4 kmh S 9.7 mph15.6 kmh 29.06 in984.1 mb 0.00 in0.0 mm 0.00 in0.0 mm 0.00 in0.0 mm
04:23 AM 68.2°F20.1°C 46.2°F7.9°C 45% 4.6 mph S7.4 kmh S 9.7 mph15.6 kmh 29.06 in984.1 mb 0.00 in0.0 mm 0.00 in0.0 mm 0.00 in0.0 mm
04:22 AM 68.2°F20.1°C 46.2°F7.9°C 45% 4.9 mph S7.9 kmh S 9.7 mph15.6 kmh 29.06 in984.1 mb 0.00 in0.0 mm 0.00 in0.0 mm 0.00 in0.0 mm
04:21 AM 68.2°F20.1°C 46.2°F7.9°C 45% 4.6 mph S7.4 kmh S 9.1 mph14.6 kmh 29.06 in984.1 mb 0.00 in0.0 mm 0.00 in0.0 mm 0.00 in0.0 mm
04:20 AM 68.2°F20.1°C 46.2°F7.9°C 45% 4.6 mph SSE7.4 kmh SSE 11.7 mph18.8 kmh 29.06 in984.1 mb 0.00 in0.0 mm 0.00 in0.0 mm 0.00 in0.0 mm
04:19 AM 68.0°F20.0°C 46.0°F7.8°C 45% 5.2 mph SSE8.4 kmh SSE 11.7 mph18.8 kmh 29.06 in984.1 mb 0.00 in0.0 mm 0.00 in0.0 mm 0.00 in0.0 mm
04:18 AM 68.0°F20.0°C 46.0°F7.8°C 45% 6.0 mph S9.7 kmh S 11.7 mph18.8 kmh 29.06 in984.1 mb 0.00 in0.0 mm 0.00 in0.0 mm 0.00 in0.0 mm
04:17 AM 68.0°F20.0°C 46.0°F7.8°C 45% 6.5 mph SSE10.5 kmh SSE 11.7 mph18.8 kmh 29.06 in984.1 mb 0.00 in0.0 mm 0.00 in0.0 mm 0.00 in0.0 mm
04:16 AM 68.0°F20.0°C 46.0°F7.8°C 45% 6.3 mph S10.1 kmh S 11.7 mph18.8 kmh 29.09 in985.1 mb 0.00 in0.0 mm 0.00 in0.0 mm 0.00 in0.0 mm
04:15 AM 68.0°F20.0°C 46.0°F7.8°C 45% 5.9 mph S9.5 kmh S 11.7 mph18.8 kmh 29.09 in985.1 mb 0.00 in0.0 mm 0.00 in0.0 mm 0.00 in0.0 mm
04:14 AM 68.0°F20.0°C 46.0°F7.8°C 45% 6.3 mph S10.1 kmh S 11.7 mph18.8 kmh 29.09 in985.1 mb 0.00 in0.0 mm 0.00 in0.0 mm 0.00 in0.0 mm
04:13 AM 68.0°F20.0°C 46.0°F7.8°C 45% 6.6 mph S10.6 kmh S 11.7 mph18.8 kmh 29.09 in985.1 mb 0.00 in0.0 mm 0.00 in0.0 mm 0.00 in0.0 mm
04:12 AM 68.0°F20.0°C 46.0°F7.8°C 45% 5.3 mph S8.5 kmh S 11.7 mph18.8 kmh 29.09 in985.1 mb 0.00 in0.0 mm 0.00 in0.0 mm 0.00 in0.0 mm
04:11 AM 68.0°F20.0°C 45.3°F7.4°C 44% 3.9 mph SSE6.3 kmh SSE 11.7 mph18.8 kmh 29.09 in985.1 mb 0.00 in0.0 mm 0.00 in0.0 mm 0.00 in0.0 mm
04:10 AM 67.8°F19.9°C 45.9°F7.7°C 45% 3.9 mph SSE6.3 kmh SSE 11.0 mph17.7 kmh 29.09 in985.1 mb 0.00 in0.0 mm 0.00 in0.0 mm 0.00 in0.0 mm
04:09 AM 67.8°F19.9°C 45.9°F7.7°C 45% 4.9 mph SSE7.9 kmh SSE 11.0 mph17.7 kmh 29.09 in985.1 mb 0.00 in0.0 mm 0.00 in0.0 mm 0.00 in0.0 mm
04:08 AM 67.8°F19.9°C 45.9°F7.7°C 45% 6.3 mph S10.1 kmh S 11.0 mph17.7 kmh 29.09 in985.1 mb 0.00 in0.0 mm 0.00 in0.0 mm 0.00 in0.0 mm
04:07 AM 67.8°F19.9°C 45.9°F7.7°C 45% 7.1 mph S11.4 kmh S 11.0 mph17.7 kmh 29.09 in985.1 mb 0.00 in0.0 mm 0.00 in0.0 mm 0.00 in0.0 mm
04:06 AM 67.8°F19.9°C 45.9°F7.7°C 45% 6.1 mph SSE9.8 kmh SSE 11.0 mph17.7 kmh 29.09 in985.1 mb 0.00 in0.0 mm 0.00 in0.0 mm 0.00 in0.0 mm
04:05 AM 67.8°F19.9°C 45.9°F7.7°C 45% 5.1 mph SSE8.2 kmh SSE 11.0 mph17.7 kmh 29.09 in985.1 mb 0.00 in0.0 mm 0.00 in0.0 mm 0.00 in0.0 mm
04:04 AM 67.8°F19.9°C 45.2°F7.3°C 44% 5.0 mph S8.0 kmh S 11.0 mph17.7 kmh 29.09 in985.1 mb 0.00 in0.0 mm 0.00 in0.0 mm 0.00 in0.0 mm
04:03 AM 67.8°F19.9°C 45.2°F7.3°C 44% 6.5 mph S10.5 kmh S 11.0 mph17.7 kmh 29.09 in985.1 mb 0.00 in0.0 mm 0.00 in0.0 mm 0.00 in0.0 mm
04:02 AM 67.8°F19.9°C 45.2°F7.3°C 44% 6.0 mph S9.7 kmh S 11.0 mph17.7 kmh 29.09 in985.1 mb 0.00 in0.0 mm 0.00 in0.0 mm 0.00 in0.0 mm
04:01 AM 67.8°F19.9°C 45.2°F7.3°C 44% 5.3 mph S8.5 kmh S 11.0 mph17.7 kmh 29.09 in985.1 mb 0.00 in0.0 mm 0.00 in0.0 mm 0.00 in0.0 mm
04:00 AM 67.8°F19.9°C 45.2°F7.3°C 44% 4.4 mph S7.1 kmh S 11.0 mph17.7 kmh 29.09 in985.1 mb 0.00 in0.0 mm 0.00 in0.0 mm 0.00 in0.0 mm
03:59 AM 67.8°F19.9°C 45.2°F7.3°C 44% 5.8 mph SSE9.3 kmh SSE 11.0 mph17.7 kmh 29.09 in985.1 mb 0.00 in0.0 mm 0.00 in0.0 mm 0.00 in0.0 mm
03:58 AM 67.8°F19.9°C 45.2°F7.3°C 44% 6.7 mph SSE10.8 kmh SSE 11.0 mph17.7 kmh 29.09 in985.1 mb 0.00 in0.0 mm 0.00 in0.0 mm 0.00 in0.0 mm
03:57 AM 67.6°F19.8°C 45.0°F7.2°C 44% 6.1 mph S9.8 kmh S 11.0 mph17.7 kmh 29.09 in985.1 mb 0.00 in0.0 mm 0.00 in0.0 mm 0.00 in0.0 mm
03:56 AM 67.6°F19.8°C 45.0°F7.2°C 44% 5.2 mph S8.4 kmh S 11.0 mph17.7 kmh 29.09 in985.1 mb 0.00 in0.0 mm 0.00 in0.0 mm 0.00 in0.0 mm
03:55 AM 67.6°F19.8°C 45.0°F7.2°C 44% 4.5 mph S7.2 kmh S 11.0 mph17.7 kmh 29.09 in985.1 mb 0.00 in0.0 mm 0.00 in0.0 mm 0.00 in0.0 mm
03:54 AM 67.6°F19.8°C 45.0°F7.2°C 44% 4.6 mph S7.4 kmh S 11.0 mph17.7 kmh 29.09 in985.1 mb 0.00 in0.0 mm 0.00 in0.0 mm 0.00 in0.0 mm
03:53 AM 67.6°F19.8°C 45.0°F7.2°C 44% 4.9 mph S7.9 kmh S 11.0 mph17.7 kmh 29.09 in985.1 mb 0.00 in0.0 mm 0.00 in0.0 mm 0.00 in0.0 mm
03:52 AM 67.6°F19.8°C 45.0°F7.2°C 44% 5.2 mph SSE8.4 kmh SSE 11.0 mph17.7 kmh 29.09 in985.1 mb 0.00 in0.0 mm 0.00 in0.0 mm 0.00 in0.0 mm
03:51 AM 67.6°F19.8°C 45.0°F7.2°C 44% 5.1 mph SSE8.2 kmh SSE 11.0 mph17.7 kmh 29.09 in985.1 mb 0.00 in0.0 mm 0.00 in0.0 mm 0.00 in0.0 mm
03:50 AM 67.6°F19.8°C 45.0°F7.2°C 44% 5.6 mph SSE9.0 kmh SSE 10.4 mph16.7 kmh 29.09 in985.1 mb 0.00 in0.0 mm 0.00 in0.0 mm 0.00 in0.0 mm
03:49 AM 67.6°F19.8°C 45.0°F7.2°C 44% 5.8 mph S9.3 kmh S 10.4 mph16.7 kmh 29.09 in985.1 mb 0.00 in0.0 mm 0.00 in0.0 mm 0.00 in0.0 mm
03:48 AM 67.5°F19.7°C 44.9°F7.2°C 44% 5.0 mph S8.0 kmh S 10.4 mph16.7 kmh 29.09 in985.1 mb 0.00 in0.0 mm 0.00 in0.0 mm 0.00 in0.0 mm
03:47 AM 67.5°F19.7°C 44.9°F7.2°C 44% 4.5 mph SSE7.2 kmh SSE 10.4 mph16.7 kmh 29.09 in985.1 mb 0.00 in0.0 mm 0.00 in0.0 mm 0.00 in0.0 mm
03:46 AM 67.5°F19.7°C 44.9°F7.2°C 44% 4.5 mph SSE7.2 kmh SSE 11.0 mph17.7 kmh 29.09 in985.1 mb 0.00 in0.0 mm 0.00 in0.0 mm 0.00 in0.0 mm
03:45 AM 67.5°F19.7°C 44.9°F7.2°C 44% 5.4 mph S8.7 kmh S 11.0 mph17.7 kmh 29.09 in985.1 mb 0.00 in0.0 mm 0.00 in0.0 mm 0.00 in0.0 mm
03:44 AM 67.5°F19.7°C 44.9°F7.2°C 44% 5.7 mph S9.2 kmh S 11.0 mph17.7 kmh 29.09 in985.1 mb 0.00 in0.0 mm 0.00 in0.0 mm 0.00 in0.0 mm
03:43 AM 67.5°F19.7°C 44.9°F7.2°C 44% 6.4 mph SSE10.3 kmh SSE 11.0 mph17.7 kmh 29.09 in985.1 mb 0.00 in0.0 mm 0.00 in0.0 mm 0.00 in0.0 mm
03:42 AM 67.5°F19.7°C 44.2°F6.8°C 43% 6.2 mph SSE10.0 kmh SSE 11.0 mph17.7 kmh 29.09 in985.1 mb 0.00 in0.0 mm 0.00 in0.0 mm 0.00 in0.0 mm
03:41 AM 67.5°F19.7°C 44.2°F6.8°C 43% 5.9 mph SSE9.5 kmh SSE 11.0 mph17.7 kmh 29.09 in985.1 mb 0.00 in0.0 mm 0.00 in0.0 mm 0.00 in0.0 mm
03:40 AM 67.5°F19.7°C 44.2°F6.8°C 43% 5.2 mph SSE8.4 kmh SSE 11.0 mph17.7 kmh 29.09 in985.1 mb 0.00 in0.0 mm 0.00 in0.0 mm 0.00 in0.0 mm
03:39 AM 67.5°F19.7°C 44.2°F6.8°C 43% 4.9 mph S7.9 kmh S 11.0 mph17.7 kmh 29.09 in985.1 mb 0.00 in0.0 mm 0.00 in0.0 mm 0.00 in0.0 mm
03:38 AM 67.3°F19.6°C 44.0°F6.7°C 43% 5.4 mph S8.7 kmh S 11.0 mph17.7 kmh 29.09 in985.1 mb 0.00 in0.0 mm 0.00 in0.0 mm 0.00 in0.0 mm
03:37 AM 67.3°F19.6°C 44.0°F6.7°C 43% 5.7 mph S9.2 kmh S 11.0 mph17.7 kmh 29.09 in985.1 mb 0.00 in0.0 mm 0.00 in0.0 mm 0.00 in0.0 mm
03:36 AM 67.3°F19.6°C 44.0°F6.7°C 43% 6.8 mph S10.9 kmh S 9.7 mph15.6 kmh 29.09 in985.1 mb 0.00 in0.0 mm 0.00 in0.0 mm 0.00 in0.0 mm
03:35 AM 67.3°F19.6°C 44.1°F6.7°C 43% 5.3 mph SSE8.5 kmh SSE 9.7 mph15.6 kmh 29.09 in985.1 mb 0.00 in0.0 mm 0.00 in0.0 mm 0.00 in0.0 mm
03:34 AM 67.3°F19.6°C 44.1°F6.7°C 43% 5.0 mph SSE8.0 kmh SSE 9.1 mph14.6 kmh 29.09 in985.1 mb 0.00 in0.0 mm 0.00 in0.0 mm 0.00 in0.0 mm
03:33 AM 67.3°F19.6°C 44.1°F6.7°C 43% 5.5 mph SE8.9 kmh SE 9.1 mph14.6 kmh 29.09 in985.1 mb 0.00 in0.0 mm 0.00 in0.0 mm 0.00 in0.0 mm
03:32 AM 67.3°F19.6°C 44.1°F6.7°C 43% 5.5 mph SE8.9 kmh SE 9.1 mph14.6 kmh 29.09 in985.1 mb 0.00 in0.0 mm 0.00 in0.0 mm 0.00 in0.0 mm
03:31 AM 67.3°F19.6°C 44.1°F6.7°C 43% 4.7 mph SSE7.6 kmh SSE 9.1 mph14.6 kmh 29.09 in985.1 mb 0.00 in0.0 mm 0.00 in0.0 mm 0.00 in0.0 mm
03:30 AM 67.3°F19.6°C 44.1°F6.7°C 43% 5.4 mph SSE8.7 kmh SSE 9.1 mph14.6 kmh 29.09 in985.1 mb 0.00 in0.0 mm 0.00 in0.0 mm 0.00 in0.0 mm
03:29 AM 67.3°F19.6°C 43.3°F6.3°C 42% 6.0 mph SSE9.7 kmh SSE 9.1 mph14.6 kmh 29.09 in985.1 mb 0.00 in0.0 mm 0.00 in0.0 mm 0.00 in0.0 mm
03:28 AM 67.3°F19.6°C 43.3°F6.3°C 42% 5.2 mph SSE8.4 kmh SSE 9.1 mph14.6 kmh 29.09 in985.1 mb 0.00 in0.0 mm 0.00 in0.0 mm 0.00 in0.0 mm
03:27 AM 67.1°F19.5°C 43.1°F6.2°C 42% 4.6 mph SSE7.4 kmh SSE 9.1 mph14.6 kmh 29.09 in985.1 mb 0.00 in0.0 mm 0.00 in0.0 mm 0.00 in0.0 mm
03:26 AM 67.1°F19.5°C 43.2°F6.2°C 42% 4.9 mph SSE7.9 kmh SSE 9.1 mph14.6 kmh 29.09 in985.1 mb 0.00 in0.0 mm 0.00 in0.0 mm 0.00 in0.0 mm
03:25 AM 67.1°F19.5°C 43.2°F6.2°C 42% 5.1 mph S8.2 kmh S 9.1 mph14.6 kmh 29.09 in985.1 mb 0.00 in0.0 mm 0.00 in0.0 mm 0.00 in0.0 mm
03:24 AM 67.1°F19.5°C 43.2°F6.2°C 42% 4.9 mph S7.9 kmh S 9.1 mph14.6 kmh 29.09 in985.1 mb 0.00 in0.0 mm 0.00 in0.0 mm 0.00 in0.0 mm
03:23 AM 67.1°F19.5°C 43.2°F6.2°C 42% 5.0 mph S8.0 kmh S 9.1 mph14.6 kmh 29.09 in985.1 mb 0.00 in0.0 mm 0.00 in0.0 mm 0.00 in0.0 mm
03:22 AM 67.1°F19.5°C 43.2°F6.2°C 42% 5.5 mph S8.9 kmh S 9.1 mph14.6 kmh 29.09 in985.1 mb 0.00 in0.0 mm 0.00 in0.0 mm 0.00 in0.0 mm
03:21 AM 67.1°F19.5°C 43.2°F6.2°C 42% 6.2 mph SSW10.0 kmh SSW 9.1 mph14.6 kmh 29.09 in985.1 mb 0.00 in0.0 mm 0.00 in0.0 mm 0.00 in0.0 mm
03:20 AM 66.9°F19.4°C 43.0°F6.1°C 42% 6.2 mph S10.0 kmh S 11.7 mph18.8 kmh 29.09 in985.1 mb 0.00 in0.0 mm 0.00 in0.0 mm 0.00 in0.0 mm
03:19 AM 66.9°F19.4°C 43.0°F6.1°C 42% 6.4 mph S10.3 kmh S 11.7 mph18.8 kmh 29.09 in985.1 mb 0.00 in0.0 mm 0.00 in0.0 mm 0.00 in0.0 mm
03:18 AM 66.9°F19.4°C 43.0°F6.1°C 42% 6.5 mph S10.5 kmh S 11.7 mph18.8 kmh 29.09 in985.1 mb 0.00 in0.0 mm 0.00 in0.0 mm 0.00 in0.0 mm
03:17 AM 66.9°F19.4°C 43.0°F6.1°C 42% 6.0 mph SSE9.7 kmh SSE 11.7 mph18.8 kmh 29.09 in985.1 mb 0.00 in0.0 mm 0.00 in0.0 mm 0.00 in0.0 mm
03:16 AM 66.9°F19.4°C 43.0°F6.1°C 42% 5.7 mph SSE9.2 kmh SSE 11.7 mph18.8 kmh 29.09 in985.1 mb 0.00 in0.0 mm 0.00 in0.0 mm 0.00 in0.0 mm
03:15 AM 66.9°F19.4°C 42.2°F5.7°C 41% 4.9 mph SSE7.9 kmh SSE 11.7 mph18.8 kmh 29.09 in985.1 mb 0.00 in0.0 mm 0.00 in0.0 mm 0.00 in0.0 mm
03:14 AM 66.9°F19.4°C 42.2°F5.7°C 41% 5.0 mph SSE8.0 kmh SSE 11.7 mph18.8 kmh 29.09 in985.1 mb 0.00 in0.0 mm 0.00 in0.0 mm 0.00 in0.0 mm
03:13 AM 66.9°F19.4°C 42.2°F5.7°C 41% 4.9 mph SSE7.9 kmh SSE 11.7 mph18.8 kmh 29.09 in985.1 mb 0.00 in0.0 mm 0.00 in0.0 mm 0.00 in0.0 mm
03:12 AM 66.9°F19.4°C 42.2°F5.7°C 41% 5.3 mph SSE8.5 kmh SSE 11.7 mph18.8 kmh 29.09 in985.1 mb 0.00 in0.0 mm 0.00 in0.0 mm 0.00 in0.0 mm
03:11 AM 66.7°F19.3°C 42.1°F5.6°C 41% 5.8 mph S9.3 kmh S 11.7 mph18.8 kmh 29.09 in985.1 mb 0.00 in0.0 mm 0.00 in0.0 mm 0.00 in0.0 mm
03:10 AM 66.7°F19.3°C 42.1°F5.6°C 41% 5.7 mph S9.2 kmh S 11.0 mph17.7 kmh 29.09 in985.1 mb 0.00 in0.0 mm 0.00 in0.0 mm 0.00 in0.0 mm
03:09 AM 66.7°F19.3°C 42.1°F5.6°C 41% 6.1 mph S9.8 kmh S 11.0 mph17.7 kmh 29.09 in985.1 mb 0.00 in0.0 mm 0.00 in0.0 mm 0.00 in0.0 mm
03:08 AM 66.7°F19.3°C 42.1°F5.6°C 41% 6.5 mph SSE10.5 kmh SSE 11.0 mph17.7 kmh 29.09 in985.1 mb 0.00 in0.0 mm 0.00 in0.0 mm 0.00 in0.0 mm
03:07 AM 66.7°F19.3°C 42.1°F5.6°C 41% 6.4 mph SSE10.3 kmh SSE 11.0 mph17.7 kmh 29.09 in985.1 mb 0.00 in0.0 mm 0.00 in0.0 mm 0.00 in0.0 mm
03:06 AM 66.7°F19.3°C 42.1°F5.6°C 41% 5.3 mph S8.5 kmh S 11.0 mph17.7 kmh 29.09 in985.1 mb 0.00 in0.0 mm 0.00 in0.0 mm 0.00 in0.0 mm
03:05 AM 66.7°F19.3°C 42.1°F5.6°C 41% 5.9 mph SSW9.5 kmh SSW 9.7 mph15.6 kmh 29.09 in985.1 mb 0.00 in0.0 mm 0.00 in0.0 mm 0.00 in0.0 mm
03:04 AM 66.7°F19.3°C 42.1°F5.6°C 41% 6.1 mph S9.8 kmh S 9.7 mph15.6 kmh 29.09 in985.1 mb 0.00 in0.0 mm 0.00 in0.0 mm 0.00 in0.0 mm
03:03 AM 66.7°F19.3°C 42.1°F5.6°C 41% 5.8 mph S9.3 kmh S 9.7 mph15.6 kmh 29.09 in985.1 mb 0.00 in0.0 mm 0.00 in0.0 mm 0.00 in0.0 mm
03:02 AM 66.6°F19.2°C 42.0°F5.6°C 41% 5.6 mph S9.0 kmh S 9.7 mph15.6 kmh 29.09 in985.1 mb 0.00 in0.0 mm 0.00 in0.0 mm 0.00 in0.0 mm
03:01 AM 66.6°F19.2°C 42.0°F5.6°C 41% 6.0 mph S9.7 kmh S 9.7 mph15.6 kmh 29.09 in985.1 mb 0.00 in0.0 mm 0.00 in0.0 mm 0.00 in0.0 mm
03:00 AM 66.6°F19.2°C 42.0°F5.6°C 41% 6.5 mph S10.5 kmh S 9.7 mph15.6 kmh 29.09 in985.1 mb 0.00 in0.0 mm 0.00 in0.0 mm 0.00 in0.0 mm
02:59 AM 66.6°F19.2°C 42.0°F5.6°C 41% 6.4 mph S10.3 kmh S 9.7 mph15.6 kmh 29.09 in985.1 mb 0.00 in0.0 mm 0.00 in0.0 mm 0.00 in0.0 mm
02:58 AM 66.6°F19.2°C 42.0°F5.6°C 41% 5.9 mph S9.5 kmh S 9.7 mph15.6 kmh 29.09 in985.1 mb 0.00 in0.0 mm 0.00 in0.0 mm 0.00 in0.0 mm
02:57 AM 66.6°F19.2°C 42.0°F5.6°C 41% 5.3 mph S8.5 kmh S 9.7 mph15.6 kmh 29.09 in985.1 mb 0.00 in0.0 mm 0.00 in0.0 mm 0.00 in0.0 mm
02:56 AM 66.6°F19.2°C 42.0°F5.6°C 41% 5.6 mph SSE9.0 kmh SSE 9.7 mph15.6 kmh 29.09 in985.1 mb 0.00 in0.0 mm 0.00 in0.0 mm 0.00 in0.0 mm
02:55 AM 66.6°F19.2°C 42.0°F5.6°C 41% 6.3 mph S10.1 kmh S 9.7 mph15.6 kmh 29.09 in985.1 mb 0.00 in0.0 mm 0.00 in0.0 mm 0.00 in0.0 mm
02:54 AM 66.6°F19.2°C 41.2°F5.1°C 40% 6.2 mph SSE10.0 kmh SSE 9.7 mph15.6 kmh 29.09 in985.1 mb 0.00 in0.0 mm 0.00 in0.0 mm 0.00 in0.0 mm
02:53 AM 66.6°F19.2°C 41.2°F5.1°C 40% 6.2 mph S10.0 kmh S 9.7 mph15.6 kmh 29.09 in985.1 mb 0.00 in0.0 mm 0.00 in0.0 mm 0.00 in0.0 mm
02:52 AM 66.6°F19.2°C 41.3°F5.2°C 40% 5.2 mph SSE8.4 kmh SSE 8.4 mph13.5 kmh 29.09 in985.1 mb 0.00 in0.0 mm 0.00 in0.0 mm 0.00 in0.0 mm
02:51 AM 66.6°F19.2°C 41.3°F5.2°C 40% 5.4 mph SSE8.7 kmh SSE 8.4 mph13.5 kmh 29.09 in985.1 mb 0.00 in0.0 mm 0.00 in0.0 mm 0.00 in0.0 mm
02:50 AM 66.6°F19.2°C 41.3°F5.2°C 40% 5.3 mph S8.5 kmh S 9.1 mph14.6 kmh 29.09 in985.1 mb 0.00 in0.0 mm 0.00 in0.0 mm 0.00 in0.0 mm
02:49 AM 66.6°F19.2°C 41.3°F5.2°C 40% 4.9 mph SSE7.9 kmh SSE 9.1 mph14.6 kmh 29.09 in985.1 mb 0.00 in0.0 mm 0.00 in0.0 mm 0.00 in0.0 mm
02:48 AM 66.6°F19.2°C 41.3°F5.2°C 40% 5.3 mph SSE8.5 kmh SSE 9.1 mph14.6 kmh 29.09 in985.1 mb 0.00 in0.0 mm 0.00 in0.0 mm 0.00 in0.0 mm
02:47 AM 66.7°F19.3°C 41.4°F5.2°C 40% 5.7 mph SSE9.2 kmh SSE 9.1 mph14.6 kmh 29.09 in985.1 mb 0.00 in0.0 mm 0.00 in0.0 mm 0.00 in0.0 mm
02:46 AM 66.7°F19.3°C 41.4°F5.2°C 40% 5.2 mph SSE8.4 kmh SSE 9.1 mph14.6 kmh 29.09 in985.1 mb 0.00 in0.0 mm 0.00 in0.0 mm 0.00 in0.0 mm
02:45 AM 66.7°F19.3°C 41.4°F5.2°C 40% 4.5 mph S7.2 kmh S 9.1 mph14.6 kmh 29.09 in985.1 mb 0.00 in0.0 mm 0.00 in0.0 mm 0.00 in0.0 mm
02:44 AM 66.7°F19.3°C 41.4°F5.2°C 40% 4.9 mph S7.9 kmh S 9.1 mph14.6 kmh 29.09 in985.1 mb 0.00 in0.0 mm 0.00 in0.0 mm 0.00 in0.0 mm
02:43 AM 66.7°F19.3°C 41.4°F5.2°C 40% 5.2 mph S8.4 kmh S 9.1 mph14.6 kmh 29.09 in985.1 mb 0.00 in0.0 mm 0.00 in0.0 mm 0.00 in0.0 mm
02:42 AM 66.7°F19.3°C 41.4°F5.2°C 40% 4.9 mph S7.9 kmh S 10.4 mph16.7 kmh 29.09 in985.1 mb 0.00 in0.0 mm 0.00 in0.0 mm 0.00 in0.0 mm
02:41 AM 66.7°F19.3°C 41.4°F5.2°C 40% 4.7 mph S7.6 kmh S 10.4 mph16.7 kmh 29.09 in985.1 mb 0.00 in0.0 mm 0.00 in0.0 mm 0.00 in0.0 mm
02:40 AM 66.7°F19.3°C 41.4°F5.2°C 40% 5.1 mph SSE8.2 kmh SSE 10.4 mph16.7 kmh 29.09 in985.1 mb 0.00 in0.0 mm 0.00 in0.0 mm 0.00 in0.0 mm
02:39 AM 66.7°F19.3°C 41.4°F5.2°C 40% 5.5 mph SSE8.9 kmh SSE 10.4 mph16.7 kmh 29.09 in985.1 mb 0.00 in0.0 mm 0.00 in0.0 mm 0.00 in0.0 mm
02:38 AM 66.7°F19.3°C 41.4°F5.2°C 40% 5.3 mph S8.5 kmh S 10.4 mph16.7 kmh 29.09 in985.1 mb 0.00 in0.0 mm 0.00 in0.0 mm 0.00 in0.0 mm
02:37 AM 66.7°F19.3°C 41.4°F5.2°C 40% 5.6 mph S9.0 kmh S 10.4 mph16.7 kmh 29.09 in985.1 mb 0.00 in0.0 mm 0.00 in0.0 mm 0.00 in0.0 mm
02:36 AM 66.7°F19.3°C 41.4°F5.2°C 40% 6.1 mph SSE9.8 kmh SSE 10.4 mph16.7 kmh 29.09 in985.1 mb 0.00 in0.0 mm 0.00 in0.0 mm 0.00 in0.0 mm
02:35 AM 66.7°F19.3°C 41.4°F5.2°C 40% 6.5 mph SSE10.5 kmh SSE 10.4 mph16.7 kmh 29.09 in985.1 mb 0.00 in0.0 mm 0.00 in0.0 mm 0.00 in0.0 mm
02:34 AM 66.7°F19.3°C 41.4°F5.2°C 40% 6.6 mph S10.6 kmh S 10.4 mph16.7 kmh 29.09 in985.1 mb 0.00 in0.0 mm 0.00 in0.0 mm 0.00 in0.0 mm
02:33 AM 66.7°F19.3°C 41.4°F5.2°C 40% 5.9 mph S9.5 kmh S 10.4 mph16.7 kmh 29.09 in985.1 mb 0.00 in0.0 mm 0.00 in0.0 mm 0.00 in0.0 mm
02:32 AM 66.7°F19.3°C 41.4°F5.2°C 40% 5.8 mph S9.3 kmh S 9.7 mph15.6 kmh 29.09 in985.1 mb 0.00 in0.0 mm 0.00 in0.0 mm 0.00 in0.0 mm
02:31 AM 66.7°F19.3°C 41.4°F5.2°C 40% 6.2 mph S10.0 kmh S 9.7 mph15.6 kmh 29.09 in985.1 mb 0.00 in0.0 mm 0.00 in0.0 mm 0.00 in0.0 mm
02:27 AM 66.9°F19.4°C 40.8°F4.9°C 39% 6.4 mph SSE10.3 kmh SSE 9.1 mph14.6 kmh 29.12 in986.1 mb 0.00 in0.0 mm 0.00 in0.0 mm 0.00 in0.0 mm
02:26 AM 66.9°F19.4°C 40.8°F4.9°C 39% 6.5 mph SSE10.5 kmh SSE 9.1 mph14.6 kmh 29.12 in986.1 mb 0.00 in0.0 mm 0.00 in0.0 mm 0.00 in0.0 mm
02:25 AM 66.9°F19.4°C 40.8°F4.9°C 39% 6.1 mph SSE9.8 kmh SSE 9.1 mph14.6 kmh 29.12 in986.1 mb 0.00 in0.0 mm 0.00 in0.0 mm 0.00 in0.0 mm
02:24 AM 66.9°F19.4°C 40.8°F4.9°C 39% 5.8 mph SSE9.3 kmh SSE 9.1 mph14.6 kmh 29.12 in986.1 mb 0.00 in0.0 mm 0.00 in0.0 mm 0.00 in0.0 mm
02:23 AM 66.9°F19.4°C 40.8°F4.9°C 39% 6.2 mph S10.0 kmh S 9.1 mph14.6 kmh 29.12 in986.1 mb 0.00 in0.0 mm 0.00 in0.0 mm 0.00 in0.0 mm
02:22 AM 66.9°F19.4°C 40.8°F4.9°C 39% 6.4 mph S10.3 kmh S 9.1 mph14.6 kmh 29.12 in986.1 mb 0.00 in0.0 mm 0.00 in0.0 mm 0.00 in0.0 mm
02:21 AM 66.9°F19.4°C 40.8°F4.9°C 39% 5.7 mph S9.2 kmh S 9.1 mph14.6 kmh 29.12 in986.1 mb 0.00 in0.0 mm 0.00 in0.0 mm 0.00 in0.0 mm
02:20 AM 67.1°F19.5°C 41.0°F5.0°C 39% 6.2 mph S10.0 kmh S 9.1 mph14.6 kmh 29.12 in986.1 mb 0.00 in0.0 mm 0.00 in0.0 mm 0.00 in0.0 mm
02:19 AM 67.1°F19.5°C 41.0°F5.0°C 39% 6.4 mph S10.3 kmh S 9.1 mph14.6 kmh 29.12 in986.1 mb 0.00 in0.0 mm 0.00 in0.0 mm 0.00 in0.0 mm
02:18 AM 67.1°F19.5°C 41.0°F5.0°C 39% 5.0 mph SSE8.0 kmh SSE 9.1 mph14.6 kmh 29.12 in986.1 mb 0.00 in0.0 mm 0.00 in0.0 mm 0.00 in0.0 mm
02:17 AM 67.1°F19.5°C 41.0°F5.0°C 39% 4.4 mph SSE7.1 kmh SSE 8.4 mph13.5 kmh 29.12 in986.1 mb 0.00 in0.0 mm 0.00 in0.0 mm 0.00 in0.0 mm
02:16 AM 67.1°F19.5°C 41.0°F5.0°C 39% 4.7 mph SSE7.6 kmh SSE 8.4 mph13.5 kmh 29.12 in986.1 mb 0.00 in0.0 mm 0.00 in0.0 mm 0.00 in0.0 mm
02:15 AM 67.1°F19.5°C 41.0°F5.0°C 39% 5.7 mph S9.2 kmh S 8.4 mph13.5 kmh 29.09 in985.1 mb 0.00 in0.0 mm 0.00 in0.0 mm 0.00 in0.0 mm
02:14 AM 67.1°F19.5°C 41.0°F5.0°C 39% 5.8 mph S9.3 kmh S 8.4 mph13.5 kmh 29.09 in985.1 mb 0.00 in0.0 mm 0.00 in0.0 mm 0.00 in0.0 mm
02:13 AM 67.1°F19.5°C 40.2°F4.6°C 38% 5.8 mph SSE9.3 kmh SSE 8.4 mph13.5 kmh 29.09 in985.1 mb 0.00 in0.0 mm 0.00 in0.0 mm 0.00 in0.0 mm
02:12 AM 67.3°F19.6°C 40.4°F4.7°C 38% 5.2 mph SSE8.4 kmh SSE 8.4 mph13.5 kmh 29.09 in985.1 mb 0.00 in0.0 mm 0.00 in0.0 mm 0.00 in0.0 mm
02:11 AM 67.3°F19.6°C 40.4°F4.7°C 38% 4.5 mph SSE7.2 kmh SSE 9.1 mph14.6 kmh 29.09 in985.1 mb 0.00 in0.0 mm 0.00 in0.0 mm 0.00 in0.0 mm
02:10 AM 67.3°F19.6°C 40.4°F4.7°C 38% 4.8 mph SSE7.7 kmh SSE 9.1 mph14.6 kmh 29.09 in985.1 mb 0.00 in0.0 mm 0.00 in0.0 mm 0.00 in0.0 mm
02:09 AM 67.3°F19.6°C 40.4°F4.7°C 38% 5.0 mph SSE8.0 kmh SSE 9.1 mph14.6 kmh 29.09 in985.1 mb 0.00 in0.0 mm 0.00 in0.0 mm 0.00 in0.0 mm
02:08 AM 67.3°F19.6°C 40.4°F4.7°C 38% 4.5 mph SSE7.2 kmh SSE 9.1 mph14.6 kmh 29.09 in985.1 mb 0.00 in0.0 mm 0.00 in0.0 mm 0.00 in0.0 mm
02:07 AM 67.3°F19.6°C 40.4°F4.7°C 38% 5.0 mph SSE8.0 kmh SSE 9.1 mph14.6 kmh 29.09 in985.1 mb 0.00 in0.0 mm 0.00 in0.0 mm 0.00 in0.0 mm
02:06 AM 67.3°F19.6°C 40.4°F4.7°C 38% 5.5 mph SSE8.9 kmh SSE 9.1 mph14.6 kmh 29.09 in985.1 mb 0.00 in0.0 mm 0.00 in0.0 mm 0.00 in0.0 mm
02:05 AM 67.3°F19.6°C 40.4°F4.7°C 38% 5.7 mph SSE9.2 kmh SSE 9.1 mph14.6 kmh 29.09 in985.1 mb 0.00 in0.0 mm 0.00 in0.0 mm 0.00 in0.0 mm
02:04 AM 67.3°F19.6°C 40.4°F4.7°C 38% 5.7 mph S9.2 kmh S 10.4 mph16.7 kmh 29.09 in985.1 mb 0.00 in0.0 mm 0.00 in0.0 mm 0.00 in0.0 mm
02:03 AM 67.3°F19.6°C 40.4°F4.7°C 38% 5.6 mph S9.0 kmh S 11.0 mph17.7 kmh 29.09 in985.1 mb 0.00 in0.0 mm 0.00 in0.0 mm 0.00 in0.0 mm
02:02 AM 67.3°F19.6°C 39.6°F4.2°C 36% 5.0 mph SSE8.0 kmh SSE 11.0 mph17.7 kmh 29.09 in985.1 mb 0.00 in0.0 mm 0.00 in0.0 mm 0.00 in0.0 mm
02:01 AM 67.3°F19.6°C 39.6°F4.2°C 36% 5.6 mph SSE9.0 kmh SSE 11.0 mph17.7 kmh 29.12 in986.1 mb 0.00 in0.0 mm 0.00 in0.0 mm 0.00 in0.0 mm
02:00 AM 67.3°F19.6°C 38.7°F3.7°C 35% 6.1 mph SSE9.8 kmh SSE 11.0 mph17.7 kmh 29.12 in986.1 mb 0.00 in0.0 mm 0.00 in0.0 mm 0.00 in0.0 mm
01:59 AM 67.3°F19.6°C 38.7°F3.7°C 35% 5.5 mph SSE8.9 kmh SSE 11.0 mph17.7 kmh 29.12 in986.1 mb 0.00 in0.0 mm 0.00 in0.0 mm 0.00 in0.0 mm
01:58 AM 67.3°F19.6°C 38.7°F3.7°C 35% 5.4 mph SSE8.7 kmh SSE 11.0 mph17.7 kmh 29.12 in986.1 mb 0.00 in0.0 mm 0.00 in0.0 mm 0.00 in0.0 mm
01:57 AM 67.3°F19.6°C 38.7°F3.7°C 35% 5.2 mph SSE8.4 kmh SSE 11.0 mph17.7 kmh 29.12 in986.1 mb 0.00 in0.0 mm 0.00 in0.0 mm 0.00 in0.0 mm
01:56 AM 67.3°F19.6°C 38.7°F3.7°C 35% 5.4 mph S8.7 kmh S 11.0 mph17.7 kmh 29.12 in986.1 mb 0.00 in0.0 mm 0.00 in0.0 mm 0.00 in0.0 mm
01:55 AM 67.3°F19.6°C 38.7°F3.7°C 35% 5.8 mph S9.3 kmh S 11.0 mph17.7 kmh 29.12 in986.1 mb 0.00 in0.0 mm 0.00 in0.0 mm 0.00 in0.0 mm
01:54 AM 67.3°F19.6°C 38.7°F3.7°C 35% 5.8 mph S9.3 kmh S 11.0 mph17.7 kmh 29.12 in986.1 mb 0.00 in0.0 mm 0.00 in0.0 mm 0.00 in0.0 mm
01:53 AM 67.1°F19.5°C 38.5°F3.6°C 35% 6.0 mph S9.7 kmh S 11.0 mph17.7 kmh 29.12 in986.1 mb 0.00 in0.0 mm 0.00 in0.0 mm 0.00 in0.0 mm
01:52 AM 67.1°F19.5°C 38.5°F3.6°C 35% 6.1 mph S9.8 kmh S 11.0 mph17.7 kmh 29.12 in986.1 mb 0.00 in0.0 mm 0.00 in0.0 mm 0.00 in0.0 mm
01:51 AM 67.1°F19.5°C 38.5°F3.6°C 35% 5.6 mph S9.0 kmh S 11.0 mph17.7 kmh 29.12 in986.1 mb 0.00 in0.0 mm 0.00 in0.0 mm 0.00 in0.0 mm
01:50 AM 67.1°F19.5°C 37.7°F3.2°C 34% 5.5 mph S8.9 kmh S 11.0 mph17.7 kmh 29.12 in986.1 mb 0.00 in0.0 mm 0.00 in0.0 mm 0.00 in0.0 mm
01:49 AM 67.1°F19.5°C 37.7°F3.2°C 34% 5.2 mph S8.4 kmh S 11.0 mph17.7 kmh 29.12 in986.1 mb 0.00 in0.0 mm 0.00 in0.0 mm 0.00 in0.0 mm
01:48 AM 67.1°F19.5°C 37.7°F3.2°C 34% 5.5 mph S8.9 kmh S 9.7 mph15.6 kmh 29.12 in986.1 mb 0.00 in0.0 mm 0.00 in0.0 mm 0.00 in0.0 mm
01:47 AM 67.1°F19.5°C 37.7°F3.2°C 34% 6.3 mph S10.1 kmh S 9.7 mph15.6 kmh 29.12 in986.1 mb 0.00 in0.0 mm 0.00 in0.0 mm 0.00 in0.0 mm
01:46 AM 67.1°F19.5°C 37.7°F3.2°C 34% 6.1 mph S9.8 kmh S 9.7 mph15.6 kmh 29.12 in986.1 mb 0.00 in0.0 mm 0.00 in0.0 mm 0.00 in0.0 mm
01:43 AM 67.1°F19.5°C 37.7°F3.2°C 34% 4.9 mph S7.9 kmh S 9.1 mph14.6 kmh 29.12 in986.1 mb 0.00 in0.0 mm 0.00 in0.0 mm 0.00 in0.0 mm
01:42 AM 67.1°F19.5°C 37.7°F3.2°C 34% 6.0 mph S9.7 kmh S 9.1 mph14.6 kmh 29.12 in986.1 mb 0.00 in0.0 mm 0.00 in0.0 mm 0.00 in0.0 mm
01:41 AM 67.1°F19.5°C 37.7°F3.2°C 34% 6.5 mph SSE10.5 kmh SSE 8.4 mph13.5 kmh 29.12 in986.1 mb 0.00 in0.0 mm 0.00 in0.0 mm 0.00 in0.0 mm
01:40 AM 67.1°F19.5°C 36.8°F2.7°C 33% 5.7 mph SSE9.2 kmh SSE 8.4 mph13.5 kmh 29.12 in986.1 mb 0.00 in0.0 mm 0.00 in0.0 mm 0.00 in0.0 mm
01:39 AM 67.1°F19.5°C 36.8°F2.7°C 33% 5.2 mph SSE8.4 kmh SSE 8.4 mph13.5 kmh 29.12 in986.1 mb 0.00 in0.0 mm 0.00 in0.0 mm 0.00 in0.0 mm
01:38 AM 67.1°F19.5°C 36.8°F2.7°C 33% 5.5 mph S8.9 kmh S 9.1 mph14.6 kmh 29.12 in986.1 mb 0.00 in0.0 mm 0.00 in0.0 mm 0.00 in0.0 mm
01:37 AM 67.1°F19.5°C 36.8°F2.7°C 33% 5.6 mph S9.0 kmh S 9.1 mph14.6 kmh 29.12 in986.1 mb 0.00 in0.0 mm 0.00 in0.0 mm 0.00 in0.0 mm
01:36 AM 67.1°F19.5°C 36.8°F2.7°C 33% 5.8 mph SSE9.3 kmh SSE 9.1 mph14.6 kmh 29.12 in986.1 mb 0.00 in0.0 mm 0.00 in0.0 mm 0.00 in0.0 mm
01:35 AM 67.1°F19.5°C 36.8°F2.7°C 33% 5.5 mph S8.9 kmh S 9.1 mph14.6 kmh 29.12 in986.1 mb 0.00 in0.0 mm 0.00 in0.0 mm 0.00 in0.0 mm
01:34 AM 67.3°F19.6°C 37.0°F2.8°C 33% 5.3 mph S8.5 kmh S 9.1 mph14.6 kmh 29.12 in986.1 mb 0.00 in0.0 mm 0.00 in0.0 mm 0.00 in0.0 mm
01:33 AM 67.3°F19.6°C 37.0°F2.8°C 33% 5.6 mph SSE9.0 kmh SSE 9.1 mph14.6 kmh 29.12 in986.1 mb 0.00 in0.0 mm 0.00 in0.0 mm 0.00 in0.0 mm
01:32 AM 67.3°F19.6°C 37.0°F2.8°C 33% 5.5 mph SSE8.9 kmh SSE 9.1 mph14.6 kmh 29.12 in986.1 mb 0.00 in0.0 mm 0.00 in0.0 mm 0.00 in0.0 mm
01:31 AM 67.3°F19.6°C 37.0°F2.8°C 33% 5.1 mph S8.2 kmh S 9.1 mph14.6 kmh 29.12 in986.1 mb 0.00 in0.0 mm 0.00 in0.0 mm 0.00 in0.0 mm
01:30 AM 67.3°F19.6°C 37.0°F2.8°C 33% 5.1 mph S8.2 kmh S 9.1 mph14.6 kmh 29.12 in986.1 mb 0.00 in0.0 mm 0.00 in0.0 mm 0.00 in0.0 mm
01:29 AM 67.3°F19.6°C 37.0°F2.8°C 33% 5.0 mph SSE8.0 kmh SSE 9.1 mph14.6 kmh 29.12 in986.1 mb 0.00 in0.0 mm 0.00 in0.0 mm 0.00 in0.0 mm
01:28 AM 67.3°F19.6°C 37.0°F2.8°C 33% 4.6 mph SSE7.4 kmh SSE 9.1 mph14.6 kmh 29.12 in986.1 mb 0.00 in0.0 mm 0.00 in0.0 mm 0.00 in0.0 mm
01:27 AM 67.3°F19.6°C 37.0°F2.8°C 33% 4.7 mph SSE7.6 kmh SSE 9.1 mph14.6 kmh 29.12 in986.1 mb 0.00 in0.0 mm 0.00 in0.0 mm 0.00 in0.0 mm
01:26 AM 67.3°F19.6°C 37.0°F2.8°C 33% 4.9 mph SSE7.9 kmh SSE 9.1 mph14.6 kmh 29.12 in986.1 mb 0.00 in0.0 mm 0.00 in0.0 mm 0.00 in0.0 mm
01:25 AM 67.3°F19.6°C 37.0°F2.8°C 33% 4.9 mph SSE7.9 kmh SSE 9.1 mph14.6 kmh 29.12 in986.1 mb 0.00 in0.0 mm 0.00 in0.0 mm 0.00 in0.0 mm
01:24 AM 67.3°F19.6°C 37.0°F2.8°C 33% 5.0 mph SSE8.0 kmh SSE 9.1 mph14.6 kmh 29.12 in986.1 mb 0.00 in0.0 mm 0.00 in0.0 mm 0.00 in0.0 mm
01:23 AM 67.5°F19.7°C 37.2°F2.9°C 33% 5.2 mph SSE8.4 kmh SSE 9.1 mph14.6 kmh 29.12 in986.1 mb 0.00 in0.0 mm 0.00 in0.0 mm 0.00 in0.0 mm
01:22 AM 67.5°F19.7°C 37.2°F2.9°C 33% 5.2 mph SSE8.4 kmh SSE 8.4 mph13.5 kmh 29.12 in986.1 mb 0.00 in0.0 mm 0.00 in0.0 mm 0.00 in0.0 mm
01:21 AM 67.5°F19.7°C 37.2°F2.9°C 33% 5.2 mph SSE8.4 kmh SSE 8.4 mph13.5 kmh 29.12 in986.1 mb 0.00 in0.0 mm 0.00 in0.0 mm 0.00 in0.0 mm
01:20 AM 67.5°F19.7°C 37.2°F2.9°C 33% 5.5 mph S8.9 kmh S 8.4 mph13.5 kmh 29.12 in986.1 mb 0.00 in0.0 mm 0.00 in0.0 mm 0.00 in0.0 mm
01:19 AM 67.5°F19.7°C 37.2°F2.9°C 33% 5.6 mph S9.0 kmh S 8.4 mph13.5 kmh 29.12 in986.1 mb 0.00 in0.0 mm 0.00 in0.0 mm 0.00 in0.0 mm
01:18 AM 67.5°F19.7°C 37.2°F2.9°C 33% 5.8 mph S9.3 kmh S 8.4 mph13.5 kmh 29.12 in986.1 mb 0.00 in0.0 mm 0.00 in0.0 mm 0.00 in0.0 mm
01:17 AM 67.5°F19.7°C 37.2°F2.9°C 33% 5.8 mph S9.3 kmh S 8.4 mph13.5 kmh 29.12 in986.1 mb 0.00 in0.0 mm 0.00 in0.0 mm 0.00 in0.0 mm
01:16 AM 67.6°F19.8°C 37.3°F2.9°C 33% 5.5 mph S8.9 kmh S 8.4 mph13.5 kmh 29.12 in986.1 mb 0.00 in0.0 mm 0.00 in0.0 mm 0.00 in0.0 mm
01:15 AM 67.6°F19.8°C 37.3°F2.9°C 33% 5.7 mph S9.2 kmh S 8.4 mph13.5 kmh 29.12 in986.1 mb 0.00 in0.0 mm 0.00 in0.0 mm 0.00 in0.0 mm
01:14 AM 67.6°F19.8°C 37.3°F2.9°C 33% 6.0 mph S9.7 kmh S 8.4 mph13.5 kmh 29.12 in986.1 mb 0.00 in0.0 mm 0.00 in0.0 mm 0.00 in0.0 mm
01:13 AM 67.6°F19.8°C 37.3°F2.9°C 33% 6.0 mph S9.7 kmh S 8.4 mph13.5 kmh 29.12 in986.1 mb 0.00 in0.0 mm 0.00 in0.0 mm 0.00 in0.0 mm
01:12 AM 67.6°F19.8°C 37.3°F2.9°C 33% 5.7 mph S9.2 kmh S 8.4 mph13.5 kmh 29.12 in986.1 mb 0.00 in0.0 mm 0.00 in0.0 mm 0.00 in0.0 mm
01:11 AM 67.8°F19.9°C 37.5°F3.1°C 33% 5.6 mph S9.0 kmh S 8.4 mph13.5 kmh 29.12 in986.1 mb 0.00 in0.0 mm 0.00 in0.0 mm 0.00 in0.0 mm
01:10 AM 67.8°F19.9°C 37.5°F3.1°C 33% 5.5 mph S8.9 kmh S 7.8 mph12.6 kmh 29.12 in986.1 mb 0.00 in0.0 mm 0.00 in0.0 mm 0.00 in0.0 mm
01:09 AM 67.8°F19.9°C 37.5°F3.1°C 33% 5.2 mph S8.4 kmh S 7.8 mph12.6 kmh 29.12 in986.1 mb 0.00 in0.0 mm 0.00 in0.0 mm 0.00 in0.0 mm
01:08 AM 68.0°F20.0°C 36.7°F2.6°C 32% 5.1 mph S8.2 kmh S 7.8 mph12.6 kmh 29.12 in986.1 mb 0.00 in0.0 mm 0.00 in0.0 mm 0.00 in0.0 mm
01:07 AM 68.0°F20.0°C 36.7°F2.6°C 32% 5.2 mph S8.4 kmh S 7.8 mph12.6 kmh 29.12 in986.1 mb 0.00 in0.0 mm 0.00 in0.0 mm 0.00 in0.0 mm
01:06 AM 68.0°F20.0°C 36.7°F2.6°C 32% 5.3 mph S8.5 kmh S 7.8 mph12.6 kmh 29.12 in986.1 mb 0.00 in0.0 mm 0.00 in0.0 mm 0.00 in0.0 mm
01:05 AM 68.2°F20.1°C 36.9°F2.7°C 32% 5.5 mph S8.9 kmh S 7.8 mph12.6 kmh 29.12 in986.1 mb 0.00 in0.0 mm 0.00 in0.0 mm 0.00 in0.0 mm
01:04 AM 68.2°F20.1°C 36.9°F2.7°C 32% 5.5 mph S8.9 kmh S 7.8 mph12.6 kmh 29.12 in986.1 mb 0.00 in0.0 mm 0.00 in0.0 mm 0.00 in0.0 mm
01:03 AM 68.2°F20.1°C 36.9°F2.7°C 32% 5.5 mph S8.9 kmh S 7.1 mph11.4 kmh 29.12 in986.1 mb 0.00 in0.0 mm 0.00 in0.0 mm 0.00 in0.0 mm
01:02 AM 68.4°F20.2°C 37.1°F2.8°C 32% 5.2 mph S8.4 kmh S 7.1 mph11.4 kmh 29.12 in986.1 mb 0.00 in0.0 mm 0.00 in0.0 mm 0.00 in0.0 mm
01:01 AM 68.4°F20.2°C 37.1°F2.8°C 32% 4.9 mph S7.9 kmh S 7.1 mph11.4 kmh 29.12 in986.1 mb 0.00 in0.0 mm 0.00 in0.0 mm 0.00 in0.0 mm
01:00 AM 68.4°F20.2°C 37.1°F2.8°C 32% 4.3 mph S6.9 kmh S 7.1 mph11.4 kmh 29.12 in986.1 mb 0.00 in0.0 mm 0.00 in0.0 mm 0.00 in0.0 mm
12:59 AM 68.5°F20.3°C 37.2°F2.9°C 32% 3.6 mph S5.8 kmh S 7.8 mph12.6 kmh 29.12 in986.1 mb 0.00 in0.0 mm 0.00 in0.0 mm 0.00 in0.0 mm
12:58 AM 68.5°F20.3°C 37.2°F2.9°C 32% 3.3 mph S5.3 kmh S 7.8 mph12.6 kmh 29.12 in986.1 mb 0.00 in0.0 mm 0.00 in0.0 mm 0.00 in0.0 mm
12:57 AM 68.5°F20.3°C 37.2°F2.9°C 32% 3.0 mph S4.8 kmh S 7.8 mph12.6 kmh 29.12 in986.1 mb 0.00 in0.0 mm 0.00 in0.0 mm 0.00 in0.0 mm
12:56 AM 68.7°F20.4°C 37.3°F2.9°C 32% 3.1 mph S5.0 kmh S 7.8 mph12.6 kmh 29.12 in986.1 mb 0.00 in0.0 mm 0.00 in0.0 mm 0.00 in0.0 mm
12:55 AM 68.9°F20.5°C 37.5°F3.1°C 32% 3.9 mph S6.3 kmh S 7.8 mph12.6 kmh 29.12 in986.1 mb 0.00 in0.0 mm 0.00 in0.0 mm 0.00 in0.0 mm
12:54 AM 68.9°F20.5°C 37.5°F3.1°C 32% 4.2 mph S6.8 kmh S 7.8 mph12.6 kmh 29.12 in986.1 mb 0.00 in0.0 mm 0.00 in0.0 mm 0.00 in0.0 mm
12:53 AM 68.9°F20.5°C 37.5°F3.1°C 32% 4.1 mph S6.6 kmh S 7.8 mph12.6 kmh 29.12 in986.1 mb 0.00 in0.0 mm 0.00 in0.0 mm 0.00 in0.0 mm
12:52 AM 69.1°F20.6°C 37.7°F3.2°C 32% 3.5 mph S5.6 kmh S 7.8 mph12.6 kmh 29.12 in986.1 mb 0.00 in0.0 mm 0.00 in0.0 mm 0.00 in0.0 mm
12:51 AM 69.1°F20.6°C 37.7°F3.2°C 32% 4.7 mph S7.6 kmh S 8.0 mph12.9 kmh 29.12 in986.1 mb 0.00 in0.0 mm 0.00 in0.0 mm 0.00 in0.0 mm
12:50 AM 69.3°F20.7°C 37.9°F3.3°C 32% 5.2 mph S8.4 kmh S 11.7 mph18.8 kmh 29.12 in986.1 mb 0.00 in0.0 mm 0.00 in0.0 mm 0.00 in0.0 mm
12:49 AM 69.3°F20.7°C 37.9°F3.3°C 32% 5.1 mph S8.2 kmh S 11.7 mph18.8 kmh 29.12 in986.1 mb 0.00 in0.0 mm 0.00 in0.0 mm 0.00 in0.0 mm
12:48 AM 69.3°F20.7°C 37.9°F3.3°C 32% 4.9 mph S7.9 kmh S 11.7 mph18.8 kmh 29.12 in986.1 mb 0.00 in0.0 mm 0.00 in0.0 mm 0.00 in0.0 mm
12:47 AM 69.3°F20.7°C 37.9°F3.3°C 32% 4.9 mph S7.9 kmh S 11.7 mph18.8 kmh 29.12 in986.1 mb 0.00 in0.0 mm 0.00 in0.0 mm 0.00 in0.0 mm
12:46 AM 69.4°F20.8°C 38.0°F3.3°C 32% 4.6 mph S7.4 kmh S 11.7 mph18.8 kmh 29.12 in986.1 mb 0.00 in0.0 mm 0.00 in0.0 mm 0.00 in0.0 mm
12:45 AM 69.4°F20.8°C 38.0°F3.3°C 32% 4.4 mph S7.1 kmh S 11.7 mph18.8 kmh 29.12 in986.1 mb 0.00 in0.0 mm 0.00 in0.0 mm 0.00 in0.0 mm
12:44 AM 69.4°F20.8°C 38.0°F3.3°C 32% 4.8 mph S7.7 kmh S 11.7 mph18.8 kmh 29.12 in986.1 mb 0.00 in0.0 mm 0.00 in0.0 mm 0.00 in0.0 mm
12:43 AM 69.4°F20.8°C 38.0°F3.3°C 32% 5.2 mph S8.4 kmh S 11.7 mph18.8 kmh 29.12 in986.1 mb 0.00 in0.0 mm 0.00 in0.0 mm 0.00 in0.0 mm
12:42 AM 69.4°F20.8°C 38.0°F3.3°C 32% 6.6 mph S10.6 kmh S 11.7 mph18.8 kmh 29.12 in986.1 mb 0.00 in0.0 mm 0.00 in0.0 mm 0.00 in0.0 mm
12:41 AM 69.4°F20.8°C 38.0°F3.3°C 32% 6.6 mph SSE10.6 kmh SSE 11.7 mph18.8 kmh 29.12 in986.1 mb 0.00 in0.0 mm 0.00 in0.0 mm 0.00 in0.0 mm
12:40 AM 69.4°F20.8°C 38.0°F3.3°C 32% 6.2 mph SSE10.0 kmh SSE 11.0 mph17.7 kmh 29.12 in986.1 mb 0.00 in0.0 mm 0.00 in0.0 mm 0.00 in0.0 mm
12:39 AM 69.6°F20.9°C 38.2°F3.4°C 32% 6.2 mph S10.0 kmh S 9.1 mph14.6 kmh 29.12 in986.1 mb 0.00 in0.0 mm 0.00 in0.0 mm 0.00 in0.0 mm
12:38 AM 69.6°F20.9°C 38.2°F3.4°C 32% 5.9 mph S9.5 kmh S 9.1 mph14.6 kmh 29.12 in986.1 mb 0.00 in0.0 mm 0.00 in0.0 mm 0.00 in0.0 mm
12:37 AM 69.6°F20.9°C 38.2°F3.4°C 32% 5.4 mph S8.7 kmh S 11.7 mph18.8 kmh 29.12 in986.1 mb 0.00 in0.0 mm 0.00 in0.0 mm 0.00 in0.0 mm
12:36 AM 69.4°F20.8°C 38.0°F3.3°C 32% 5.5 mph SSE8.9 kmh SSE 11.7 mph18.8 kmh 29.12 in986.1 mb 0.00 in0.0 mm 0.00 in0.0 mm 0.00 in0.0 mm
12:35 AM 69.4°F20.8°C 38.0°F3.3°C 32% 5.6 mph SSE9.0 kmh SSE 11.7 mph18.8 kmh 29.12 in986.1 mb 0.00 in0.0 mm 0.00 in0.0 mm 0.00 in0.0 mm
12:34 AM 69.4°F20.8°C 38.0°F3.3°C 32% 5.5 mph S8.9 kmh S 11.7 mph18.8 kmh 29.12 in986.1 mb 0.00 in0.0 mm 0.00 in0.0 mm 0.00 in0.0 mm
12:33 AM 69.4°F20.8°C 38.0°F3.3°C 32% 5.2 mph S8.4 kmh S 11.7 mph18.8 kmh 29.12 in986.1 mb 0.00 in0.0 mm 0.00 in0.0 mm 0.00 in0.0 mm
12:32 AM 69.4°F20.8°C 38.0°F3.3°C 32% 4.2 mph S6.8 kmh S 11.7 mph18.8 kmh 29.12 in986.1 mb 0.00 in0.0 mm 0.00 in0.0 mm 0.00 in0.0 mm
12:31 AM 69.4°F20.8°C 38.0°F3.3°C 32% 3.5 mph S5.6 kmh S 11.7 mph18.8 kmh 29.12 in986.1 mb 0.00 in0.0 mm 0.00 in0.0 mm 0.00 in0.0 mm
12:30 AM 69.4°F20.8°C 38.0°F3.3°C 32% 4.0 mph S6.4 kmh S 11.7 mph18.8 kmh 29.12 in986.1 mb 0.00 in0.0 mm 0.00 in0.0 mm 0.00 in0.0 mm
12:29 AM 69.4°F20.8°C 38.0°F3.3°C 32% 5.3 mph S8.5 kmh S 11.7 mph18.8 kmh 29.12 in986.1 mb 0.00 in0.0 mm 0.00 in0.0 mm 0.00 in0.0 mm
12:28 AM 69.4°F20.8°C 38.0°F3.3°C 32% 5.1 mph SSE8.2 kmh SSE 11.7 mph18.8 kmh 29.12 in986.1 mb 0.00 in0.0 mm 0.00 in0.0 mm 0.00 in0.0 mm
12:27 AM 69.4°F20.8°C 38.0°F3.3°C 32% 4.3 mph SSE6.9 kmh SSE 11.7 mph18.8 kmh 29.12 in986.1 mb 0.00 in0.0 mm 0.00 in0.0 mm 0.00 in0.0 mm
12:26 AM 69.4°F20.8°C 38.0°F3.3°C 32% 4.8 mph S7.7 kmh S 9.1 mph14.6 kmh 29.12 in986.1 mb 0.00 in0.0 mm 0.00 in0.0 mm 0.00 in0.0 mm
12:25 AM 69.4°F20.8°C 38.0°F3.3°C 32% 5.2 mph S8.4 kmh S 9.1 mph14.6 kmh 29.12 in986.1 mb 0.00 in0.0 mm 0.00 in0.0 mm 0.00 in0.0 mm
12:24 AM 69.4°F20.8°C 38.0°F3.3°C 32% 4.6 mph S7.4 kmh S 9.1 mph14.6 kmh 29.12 in986.1 mb 0.00 in0.0 mm 0.00 in0.0 mm 0.00 in0.0 mm
12:23 AM 69.4°F20.8°C 38.0°F3.3°C 32% 4.3 mph S6.9 kmh S 9.1 mph14.6 kmh 29.12 in986.1 mb 0.00 in0.0 mm 0.00 in0.0 mm 0.00 in0.0 mm
12:22 AM 69.6°F20.9°C 38.2°F3.4°C 32% 4.0 mph S6.4 kmh S 7.1 mph11.4 kmh 29.12 in986.1 mb 0.00 in0.0 mm 0.00 in0.0 mm 0.00 in0.0 mm
12:21 AM 69.6°F20.9°C 38.2°F3.4°C 32% 4.0 mph SSW6.4 kmh SSW 7.1 mph11.4 kmh 29.12 in986.1 mb 0.00 in0.0 mm 0.00 in0.0 mm 0.00 in0.0 mm
12:20 AM 69.6°F20.9°C 38.2°F3.4°C 32% 4.3 mph S6.9 kmh S 7.1 mph11.4 kmh 29.12 in986.1 mb 0.00 in0.0 mm 0.00 in0.0 mm 0.00 in0.0 mm
12:19 AM 69.6°F20.9°C 38.2°F3.4°C 32% Calm Calm 7.1 mph11.4 kmh 29.12 in986.1 mb 0.00 in0.0 mm 0.00 in0.0 mm 0.00 in0.0 mm
12:18 AM 69.8°F21.0°C 37.4°F3.0°C 31% Calm Calm 7.1 mph11.4 kmh 29.12 in986.1 mb 0.00 in0.0 mm 0.00 in0.0 mm 0.00 in0.0 mm
12:17 AM 69.8°F21.0°C 37.4°F3.0°C 31% Calm Calm 7.1 mph11.4 kmh 29.12 in986.1 mb 0.00 in0.0 mm 0.00 in0.0 mm 0.00 in0.0 mm
12:16 AM 69.8°F21.0°C 37.4°F3.0°C 31% Calm Calm 8.4 mph13.5 kmh 29.12 in986.1 mb 0.00 in0.0 mm 0.00 in0.0 mm 0.00 in0.0 mm
12:15 AM 69.8°F21.0°C 38.3°F3.5°C 32% Calm Calm 8.4 mph13.5 kmh 29.12 in986.1 mb 0.00 in0.0 mm 0.00 in0.0 mm 0.00 in0.0 mm
12:14 AM 69.8°F21.0°C 38.3°F3.5°C 32% Calm Calm 12.0 mph19.3 kmh 29.12 in986.1 mb 0.00 in0.0 mm 0.00 in0.0 mm 0.00 in0.0 mm
12:13 AM 70.0°F21.1°C 38.5°F3.6°C 32% Calm Calm 12.0 mph19.3 kmh 29.12 in986.1 mb 0.00 in0.0 mm 0.00 in0.0 mm 0.00 in0.0 mm
12:12 AM 70.0°F21.1°C 38.5°F3.6°C 32% 3.7 mph SW6.0 kmh SW 12.0 mph19.3 kmh 29.12 in986.1 mb 0.00 in0.0 mm 0.00 in0.0 mm 0.00 in0.0 mm
12:11 AM 70.0°F21.1°C 38.5°F3.6°C 32% 3.7 mph SW6.0 kmh SW 12.0 mph19.3 kmh 29.12 in986.1 mb 0.00 in0.0 mm 0.00 in0.0 mm 0.00 in0.0 mm
12:10 AM 70.0°F21.1°C 38.5°F3.6°C 32% 3.7 mph SSW6.0 kmh SSW 12.0 mph19.3 kmh 29.12 in986.1 mb 0.00 in0.0 mm 0.00 in0.0 mm 0.00 in0.0 mm
12:09 AM 70.0°F21.1°C 38.5°F3.6°C 32% 3.7 mph SSW6.0 kmh SSW 12.0 mph19.3 kmh 29.12 in986.1 mb 0.00 in0.0 mm 0.00 in0.0 mm 0.00 in0.0 mm
12:08 AM 70.0°F21.1°C 38.5°F3.6°C 32% 5.3 mph S8.5 kmh S 12.0 mph19.3 kmh 29.12 in986.1 mb 0.00 in0.0 mm 0.00 in0.0 mm 0.00 in0.0 mm
12:07 AM 70.0°F21.1°C 38.5°F3.6°C 32% 5.5 mph S8.9 kmh S 12.0 mph19.3 kmh 29.12 in986.1 mb 0.00 in0.0 mm 0.00 in0.0 mm 0.00 in0.0 mm
12:06 AM 70.0°F21.1°C 38.5°F3.6°C 32% 5.2 mph S8.4 kmh S 12.0 mph19.3 kmh 29.12 in986.1 mb 0.00 in0.0 mm 0.00 in0.0 mm 0.00 in0.0 mm
12:05 AM 70.0°F21.1°C 38.5°F3.6°C 32% 4.1 mph S6.6 kmh S 12.0 mph19.3 kmh 29.12 in986.1 mb 0.00 in0.0 mm 0.00 in0.0 mm 0.00 in0.0 mm
12:04 AM 70.0°F21.1°C 38.5°F3.6°C 32% 4.3 mph S6.9 kmh S 11.0 mph17.7 kmh 29.12 in986.1 mb 0.00 in0.0 mm 0.00 in0.0 mm 0.00 in0.0 mm
12:03 AM 70.0°F21.1°C 38.5°F3.6°C 32% 5.1 mph S8.2 kmh S 11.0 mph17.7 kmh 29.12 in986.1 mb 0.00 in0.0 mm 0.00 in0.0 mm 0.00 in0.0 mm
12:02 AM 70.0°F21.1°C 38.5°F3.6°C 32% 5.9 mph S9.5 kmh S 12.0 mph19.3 kmh 29.12 in986.1 mb 0.00 in0.0 mm 0.00 in0.0 mm 0.00 in0.0 mm
12:01 AM 70.0°F21.1°C 38.5°F3.6°C 32% 6.2 mph S10.0 kmh S 12.0 mph19.3 kmh 29.12 in986.1 mb 0.00 in0.0 mm 0.00 in0.0 mm 0.00 in0.0 mm
12:00 AM 70.0°F21.1°C 38.5°F3.6°C 32% 5.5 mph S8.9 kmh S 12.0 mph19.3 kmh 29.12 in986.1 mb 0.00 in0.0 mm 0.00 in0.0 mm 0.00 in0.0 mm